<?xml version='1.0' encoding='UTF-8'?><gpx version="1.1" creator="JPX - https://github.com/jenetics/jpx" xmlns="http://www.topografix.com/GPX/1/1"><trk><trkseg><trkpt lat="45.665182063318305" lon="13.919553903620889"><ele>436.99999999999994</ele><time>2026-04-12T14:17:21.997Z</time></trkpt><trkpt lat="45.66523432494873" lon="13.919429524600416"><ele>437.0</ele><time>2026-04-12T14:17:24.996Z</time></trkpt><trkpt lat="45.66526692615325" lon="13.919345747765677"><ele>437.0</ele><time>2026-04-12T14:17:25.996Z</time></trkpt><trkpt lat="45.66530072839677" lon="13.919266892321014"><ele>437.0</ele><time>2026-04-12T14:17:26.996Z</time></trkpt><trkpt lat="45.66533769925599" lon="13.919185961493481"><ele>436.99999999999994</ele><time>2026-04-12T14:17:27.996Z</time></trkpt><trkpt lat="45.66537830527944" lon="13.91909179622644"><ele>437.0</ele><time>2026-04-12T14:17:28.996Z</time></trkpt><trkpt lat="45.665427870812046" lon="13.918985412769386"><ele>436.99999999999994</ele><time>2026-04-12T14:17:29.996Z</time></trkpt><trkpt lat="45.66547501228565" lon="13.918889328148653"><ele>437.0</ele><time>2026-04-12T14:17:31Z</time></trkpt><trkpt lat="45.66552575177018" lon="13.918806256526725"><ele>437.0</ele><time>2026-04-12T14:17:32Z</time></trkpt><trkpt lat="45.665580355498214" lon="13.918724133517673"><ele>437.0</ele><time>2026-04-12T14:17:33Z</time></trkpt><trkpt lat="45.66563716243227" lon="13.918635203111267"><ele>436.99999999999994</ele><time>2026-04-12T14:17:34Z</time></trkpt><trkpt lat="45.66569445146364" lon="13.918547453069262"><ele>437.0</ele><time>2026-04-12T14:17:35Z</time></trkpt><trkpt lat="45.66575253832054" lon="13.918456066096818"><ele>436.99999999999994</ele><time>2026-04-12T14:17:36Z</time></trkpt><trkpt lat="45.66580350654292" lon="13.918379949615645"><ele>437.0</ele><time>2026-04-12T14:17:37Z</time></trkpt><trkpt lat="45.66586815253164" lon="13.918311118237067"><ele>437.0</ele><time>2026-04-12T14:17:39Z</time></trkpt><trkpt lat="45.665908703835996" lon="13.918228258726852"><ele>437.0</ele><time>2026-04-12T14:17:43Z</time></trkpt><trkpt lat="45.665839151276714" lon="13.9182791494687"><ele>436.99999999999994</ele><time>2026-04-12T14:17:48Z</time></trkpt><trkpt lat="45.66581298033705" lon="13.918361817076487"><ele>437.0</ele><time>2026-04-12T14:17:49Z</time></trkpt><trkpt lat="45.665755561578706" lon="13.91844827511914"><ele>437.0</ele><time>2026-04-12T14:17:50Z</time></trkpt><trkpt lat="45.6656902940056" lon="13.91854794339634"><ele>437.00000000000006</ele><time>2026-04-12T14:17:51Z</time></trkpt><trkpt lat="45.66563090262942" lon="13.918638638293515"><ele>437.00000000000006</ele><time>2026-04-12T14:17:52Z</time></trkpt><trkpt lat="45.66556230329401" lon="13.918743394243041"><ele>437.0</ele><time>2026-04-12T14:17:53Z</time></trkpt><trkpt lat="45.66548052601475" lon="13.918845887813907"><ele>437.0</ele><time>2026-04-12T14:17:54Z</time></trkpt><trkpt lat="45.66541232099656" lon="13.918963197431292"><ele>437.0</ele><time>2026-04-12T14:17:55Z</time></trkpt><trkpt lat="45.66534875271155" lon="13.919079650457583"><ele>437.00000000000006</ele><time>2026-04-12T14:17:56Z</time></trkpt><trkpt lat="45.66529665863536" lon="13.919212653329913"><ele>437.00000000000006</ele><time>2026-04-12T14:17:56.999Z</time></trkpt><trkpt lat="45.6652352010178" lon="13.919330310117374"><ele>437.0</ele><time>2026-04-12T14:17:57.999Z</time></trkpt><trkpt lat="45.665179811635774" lon="13.919456693151686"><ele>437.0</ele><time>2026-04-12T14:17:58.999Z</time></trkpt><trkpt lat="45.66511719098232" lon="13.919569131332743"><ele>437.0</ele><time>2026-04-12T14:17:59.999Z</time></trkpt><trkpt lat="45.665058201049455" lon="13.91967144086778"><ele>437.00000000000006</ele><time>2026-04-12T14:18:00.999Z</time></trkpt><trkpt lat="45.66499385290402" lon="13.919767577866352"><ele>437.00000000000006</ele><time>2026-04-12T14:18:01.999Z</time></trkpt><trkpt lat="45.66493794283381" lon="13.919866719812253"><ele>437.0</ele><time>2026-04-12T14:18:02.999Z</time></trkpt><trkpt lat="45.66490871898121" lon="13.919991037005255"><ele>437.0</ele><time>2026-04-12T14:18:03.999Z</time></trkpt><trkpt lat="45.664897117601654" lon="13.920139181534912"><ele>437.25</ele><time>2026-04-12T14:18:04.999Z</time></trkpt><trkpt lat="45.6648819862517" lon="13.920300197915141"><ele>437.5</ele><time>2026-04-12T14:18:05.999Z</time></trkpt><trkpt lat="45.66488262622634" lon="13.92048963127796"><ele>437.75</ele><time>2026-04-12T14:18:06.999Z</time></trkpt><trkpt lat="45.664900429305135" lon="13.92072661610726"><ele>438.0</ele><time>2026-04-12T14:18:07.999Z</time></trkpt><trkpt lat="45.664908944709865" lon="13.920954441769803"><ele>438.5</ele><time>2026-04-12T14:18:08.999Z</time></trkpt><trkpt lat="45.66491771593198" lon="13.921166612619407"><ele>439.0</ele><time>2026-04-12T14:18:09.999Z</time></trkpt><trkpt lat="45.66491963257319" lon="13.921367647844908"><ele>439.5</ele><time>2026-04-12T14:18:10.999Z</time></trkpt><trkpt lat="45.66491879967215" lon="13.921562786942394"><ele>440.0</ele><time>2026-04-12T14:18:11.999Z</time></trkpt><trkpt lat="45.66491244732919" lon="13.92175313652959"><ele>440.5</ele><time>2026-04-12T14:18:12.999Z</time></trkpt><trkpt lat="45.664858866057685" lon="13.921927879216215"><ele>441.0</ele><time>2026-04-12T14:18:13.999Z</time></trkpt><trkpt lat="45.66482081432166" lon="13.922097863279209"><ele>441.5</ele><time>2026-04-12T14:18:14.999Z</time></trkpt><trkpt lat="45.664775129882706" lon="13.922253348025688"><ele>442.0</ele><time>2026-04-12T14:18:15.999Z</time></trkpt><trkpt lat="45.66472592249361" lon="13.922379542020229"><ele>442.0</ele><time>2026-04-12T14:18:16.999Z</time></trkpt><trkpt lat="45.66466390052082" lon="13.922477925587579"><ele>442.00000000000006</ele><time>2026-04-12T14:18:17.999Z</time></trkpt><trkpt lat="45.66457983127191" lon="13.922566850830956"><ele>442.00000000000006</ele><time>2026-04-12T14:18:18.999Z</time></trkpt><trkpt lat="45.66448580406901" lon="13.922644852763645"><ele>442.0</ele><time>2026-04-12T14:18:19.999Z</time></trkpt><trkpt lat="45.66438387963943" lon="13.922728645425932"><ele>442.0</ele><time>2026-04-12T14:18:20.999Z</time></trkpt><trkpt lat="45.66426764972286" lon="13.92281776601774"><ele>441.0</ele><time>2026-04-12T14:18:21.999Z</time></trkpt><trkpt lat="45.66414609016268" lon="13.92290710784511"><ele>440.0</ele><time>2026-04-12T14:18:22.999Z</time></trkpt><trkpt lat="45.664019308676906" lon="13.92298653369277"><ele>439.0</ele><time>2026-04-12T14:18:23.999Z</time></trkpt><trkpt lat="45.66387352979668" lon="13.923031252578113"><ele>438.0</ele><time>2026-04-12T14:18:24.999Z</time></trkpt><trkpt lat="45.66372354871816" lon="13.923087056934007"><ele>437.5</ele><time>2026-04-12T14:18:25.999Z</time></trkpt><trkpt lat="45.663585007318474" lon="13.923151312714833"><ele>437.0</ele><time>2026-04-12T14:18:26.999Z</time></trkpt><trkpt lat="45.66346565819869" lon="13.92321674500806"><ele>436.5</ele><time>2026-04-12T14:18:27.999Z</time></trkpt><trkpt lat="45.66335081721173" lon="13.923272541378228"><ele>436.0</ele><time>2026-04-12T14:18:28.999Z</time></trkpt><trkpt lat="45.66323896997674" lon="13.92331665525459"><ele>436.0</ele><time>2026-04-12T14:18:29.998Z</time></trkpt><trkpt lat="45.663134988697465" lon="13.923319661934261"><ele>436.0</ele><time>2026-04-12T14:18:30.998Z</time></trkpt><trkpt lat="45.66303068733941" lon="13.923278454453156"><ele>436.0</ele><time>2026-04-12T14:18:31.998Z</time></trkpt><trkpt lat="45.66291794665522" lon="13.923238132543894"><ele>436.0</ele><time>2026-04-12T14:18:32.998Z</time></trkpt><trkpt lat="45.66278964821014" lon="13.923221451205148"><ele>437.0</ele><time>2026-04-12T14:18:33.998Z</time></trkpt><trkpt lat="45.66264866565732" lon="13.923205478569507"><ele>438.0</ele><time>2026-04-12T14:18:34.998Z</time></trkpt><trkpt lat="45.66250048709219" lon="13.923204101986832"><ele>439.0</ele><time>2026-04-12T14:18:35.998Z</time></trkpt><trkpt lat="45.66235661945244" lon="13.923197222635066"><ele>440.0</ele><time>2026-04-12T14:18:36.998Z</time></trkpt><trkpt lat="45.66222518768315" lon="13.923203891919265"><ele>440.0</ele><time>2026-04-12T14:18:37.998Z</time></trkpt><trkpt lat="45.66210666103436" lon="13.923220127012426"><ele>440.0</ele><time>2026-04-12T14:18:38.998Z</time></trkpt><trkpt lat="45.66198801108128" lon="13.923245556064765"><ele>440.0</ele><time>2026-04-12T14:18:39.998Z</time></trkpt><trkpt lat="45.66188192684387" lon="13.923294143231054"><ele>440.0</ele><time>2026-04-12T14:18:40.998Z</time></trkpt><trkpt lat="45.66178974798885" lon="13.923382988460604"><ele>440.0</ele><time>2026-04-12T14:18:41.998Z</time></trkpt><trkpt lat="45.66170665194199" lon="13.923470783879448"><ele>440.0</ele><time>2026-04-12T14:18:42.998Z</time></trkpt><trkpt lat="45.66162397703598" lon="13.923538495792126"><ele>440.0</ele><time>2026-04-12T14:18:43.998Z</time></trkpt><trkpt lat="45.66154296449651" lon="13.923581634386343"><ele>440.0</ele><time>2026-04-12T14:18:44.998Z</time></trkpt><trkpt lat="45.66143490510771" lon="13.923564894193524"><ele>440.0</ele><time>2026-04-12T14:18:46.998Z</time></trkpt><trkpt lat="45.661345911272804" lon="13.923449710440517"><ele>440.0</ele><time>2026-04-12T14:18:48.998Z</time></trkpt><trkpt lat="45.66129384947634" lon="13.923346515461901"><ele>440.0</ele><time>2026-04-12T14:18:50.998Z</time></trkpt><trkpt lat="45.66121602112775" lon="13.923419881170329"><ele>440.0</ele><time>2026-04-12T14:18:51.998Z</time></trkpt><trkpt lat="45.66116509910921" lon="13.923573661154624"><ele>440.0</ele><time>2026-04-12T14:18:53.998Z</time></trkpt><trkpt lat="45.66117401033096" lon="13.923687028895637"><ele>440.0</ele><time>2026-04-12T14:18:54.998Z</time></trkpt><trkpt lat="45.661212405957286" lon="13.923801282138657"><ele>440.0</ele><time>2026-04-12T14:18:55.998Z</time></trkpt><trkpt lat="45.66122461171097" lon="13.92393485505057"><ele>440.0</ele><time>2026-04-12T14:18:56.998Z</time></trkpt><trkpt lat="45.66123737188863" lon="13.924073394397208"><ele>440.0</ele><time>2026-04-12T14:18:57.998Z</time></trkpt><trkpt lat="45.6611544278971" lon="13.92420532944859"><ele>440.0</ele><time>2026-04-12T14:18:58.998Z</time></trkpt><trkpt lat="45.661112361650844" lon="13.924319387285996"><ele>440.0</ele><time>2026-04-12T14:18:59.998Z</time></trkpt><trkpt lat="45.66106530554967" lon="13.924442295505996"><ele>440.4</ele><time>2026-04-12T14:19:00.997Z</time></trkpt><trkpt lat="45.66102247557939" lon="13.924569719539974"><ele>440.8</ele><time>2026-04-12T14:19:01.997Z</time></trkpt><trkpt lat="45.66098196802321" lon="13.924712717790783"><ele>441.20000000000005</ele><time>2026-04-12T14:19:02.997Z</time></trkpt><trkpt lat="45.66094281787123" lon="13.924856816596078"><ele>441.6</ele><time>2026-04-12T14:19:03.997Z</time></trkpt><trkpt lat="45.66089761157289" lon="13.925013290265209"><ele>442.0</ele><time>2026-04-12T14:19:04.997Z</time></trkpt><trkpt lat="45.66085767401269" lon="13.925186596718932"><ele>442.0</ele><time>2026-04-12T14:19:05.997Z</time></trkpt><trkpt lat="45.66081820530469" lon="13.925366518703237"><ele>442.0</ele><time>2026-04-12T14:19:06.997Z</time></trkpt><trkpt lat="45.66078088781982" lon="13.925544675526355"><ele>442.0</ele><time>2026-04-12T14:19:07.997Z</time></trkpt><trkpt lat="45.66076156648753" lon="13.925714521031617"><ele>442.0</ele><time>2026-04-12T14:19:08.997Z</time></trkpt><trkpt lat="45.66076733966795" lon="13.925878731504021"><ele>443.40000000000003</ele><time>2026-04-12T14:19:09.997Z</time></trkpt><trkpt lat="45.66078699273442" lon="13.926033355296516"><ele>444.80000000000007</ele><time>2026-04-12T14:19:10.997Z</time></trkpt><trkpt lat="45.660826612437006" lon="13.926182779578502"><ele>446.2</ele><time>2026-04-12T14:19:11.997Z</time></trkpt><trkpt lat="45.66087335580735" lon="13.926316515622217"><ele>447.6</ele><time>2026-04-12T14:19:12.997Z</time></trkpt><trkpt lat="45.66092781730469" lon="13.926439931973402"><ele>449.0</ele><time>2026-04-12T14:19:13.997Z</time></trkpt><trkpt lat="45.66098106923109" lon="13.926557672770175"><ele>448.99999999999994</ele><time>2026-04-12T14:19:14.997Z</time></trkpt><trkpt lat="45.66103204897642" lon="13.926669464678165"><ele>449.0</ele><time>2026-04-12T14:19:15.997Z</time></trkpt><trkpt lat="45.661078176610225" lon="13.926780110737521"><ele>449.0</ele><time>2026-04-12T14:19:16.997Z</time></trkpt><trkpt lat="45.66112284314098" lon="13.926884891881931"><ele>449.0</ele><time>2026-04-12T14:19:17.997Z</time></trkpt><trkpt lat="45.66117556140973" lon="13.926995001825965"><ele>448.99999999999994</ele><time>2026-04-12T14:19:18.997Z</time></trkpt><trkpt lat="45.66121584460778" lon="13.927094846606137"><ele>449.0</ele><time>2026-04-12T14:19:19.997Z</time></trkpt><trkpt lat="45.661244304139295" lon="13.927184654525677"><ele>449.3333333333333</ele><time>2026-04-12T14:19:20.997Z</time></trkpt><trkpt lat="45.6612456651515" lon="13.92727564826389"><ele>449.66666666666663</ele><time>2026-04-12T14:19:21.997Z</time></trkpt><trkpt lat="45.66124661901404" lon="13.92737480248245"><ele>450.0</ele><time>2026-04-12T14:19:22.997Z</time></trkpt><trkpt lat="45.661202844247605" lon="13.92746073444346"><ele>450.33333333333337</ele><time>2026-04-12T14:19:23.997Z</time></trkpt><trkpt lat="45.661151847673594" lon="13.92753750372968"><ele>450.6666666666667</ele><time>2026-04-12T14:19:24.997Z</time></trkpt><trkpt lat="45.66110023702828" lon="13.9276289072624"><ele>451.0</ele><time>2026-04-12T14:19:25.997Z</time></trkpt><trkpt lat="45.661041137699804" lon="13.927719189579573"><ele>451.33333333333337</ele><time>2026-04-12T14:19:26.997Z</time></trkpt><trkpt lat="45.66098142119508" lon="13.927827955746563"><ele>451.6666666666667</ele><time>2026-04-12T14:19:27.997Z</time></trkpt><trkpt lat="45.66093464069063" lon="13.927935636295508"><ele>452.0</ele><time>2026-04-12T14:19:28.997Z</time></trkpt><trkpt lat="45.66091425563026" lon="13.928052026470898"><ele>452.33333333333337</ele><time>2026-04-12T14:19:29.997Z</time></trkpt><trkpt lat="45.660893719759414" lon="13.928168856273036"><ele>452.6666666666667</ele><time>2026-04-12T14:19:30.997Z</time></trkpt><trkpt lat="45.66088833251541" lon="13.928287255816407"><ele>453.0</ele><time>2026-04-12T14:19:31.997Z</time></trkpt><trkpt lat="45.6608916421096" lon="13.928403036629433"><ele>453.0</ele><time>2026-04-12T14:19:32.996Z</time></trkpt><trkpt lat="45.66089785665252" lon="13.928522317721711"><ele>453.0</ele><time>2026-04-12T14:19:33.996Z</time></trkpt><trkpt lat="45.660903089761824" lon="13.928642769229105"><ele>453.0</ele><time>2026-04-12T14:19:34.996Z</time></trkpt><trkpt lat="45.66090869406443" lon="13.928751138647838"><ele>453.0</ele><time>2026-04-12T14:19:35.996Z</time></trkpt><trkpt lat="45.66091023353575" lon="13.928852150746586"><ele>453.0</ele><time>2026-04-12T14:19:37Z</time></trkpt><trkpt lat="45.660904303720166" lon="13.92895458143496"><ele>453.0</ele><time>2026-04-12T14:19:38Z</time></trkpt><trkpt lat="45.6609064007061" lon="13.929062539107246"><ele>453.0</ele><time>2026-04-12T14:19:39Z</time></trkpt><trkpt lat="45.66090949310162" lon="13.929177065856692"><ele>452.99999999999994</ele><time>2026-04-12T14:19:40Z</time></trkpt><trkpt lat="45.660915543490184" lon="13.929306554619194"><ele>452.99999999999994</ele><time>2026-04-12T14:19:41Z</time></trkpt><trkpt lat="45.66092037690096" lon="13.929449153406045"><ele>453.0</ele><time>2026-04-12T14:19:42Z</time></trkpt><trkpt lat="45.66092532999774" lon="13.929614925152377"><ele>453.0</ele><time>2026-04-12T14:19:43Z</time></trkpt><trkpt lat="45.66090477941427" lon="13.929795061490102"><ele>453.25</ele><time>2026-04-12T14:19:44Z</time></trkpt><trkpt lat="45.66089004348991" lon="13.9299662161131"><ele>453.5</ele><time>2026-04-12T14:19:45Z</time></trkpt><trkpt lat="45.6608585385809" lon="13.930144524723069"><ele>453.75</ele><time>2026-04-12T14:19:46Z</time></trkpt><trkpt lat="45.66082090405347" lon="13.93033296541162"><ele>454.0</ele><time>2026-04-12T14:19:47Z</time></trkpt><trkpt lat="45.660790542849725" lon="13.930493677387306"><ele>454.0</ele><time>2026-04-12T14:19:48Z</time></trkpt><trkpt lat="45.66076705463915" lon="13.93064700222477"><ele>454.0</ele><time>2026-04-12T14:19:49Z</time></trkpt><trkpt lat="45.660760383267984" lon="13.930794976616601"><ele>454.0</ele><time>2026-04-12T14:19:50Z</time></trkpt><trkpt lat="45.660744156547736" lon="13.930928824639981"><ele>454.0</ele><time>2026-04-12T14:19:51Z</time></trkpt><trkpt lat="45.66072971845395" lon="13.931056885148429"><ele>454.0</ele><time>2026-04-12T14:19:52Z</time></trkpt><trkpt lat="45.660718725166056" lon="13.931188861562"><ele>454.2</ele><time>2026-04-12T14:19:53Z</time></trkpt><trkpt lat="45.66071274317959" lon="13.931324007225697"><ele>454.4</ele><time>2026-04-12T14:19:54Z</time></trkpt><trkpt lat="45.660719908575004" lon="13.931449415003405"><ele>454.6</ele><time>2026-04-12T14:19:55Z</time></trkpt><trkpt lat="45.660734549006996" lon="13.9315834464172"><ele>454.8</ele><time>2026-04-12T14:19:56Z</time></trkpt><trkpt lat="45.66075711982483" lon="13.931732757907625"><ele>455.0</ele><time>2026-04-12T14:19:57Z</time></trkpt><trkpt lat="45.660796334640565" lon="13.931906212074203"><ele>455.0</ele><time>2026-04-12T14:19:58Z</time></trkpt><trkpt lat="45.6608464948771" lon="13.93210693383156"><ele>455.0</ele><time>2026-04-12T14:19:59Z</time></trkpt><trkpt lat="45.660887813114186" lon="13.932341458325716"><ele>455.0</ele><time>2026-04-12T14:20:00Z</time></trkpt><trkpt lat="45.66090757201347" lon="13.932558496830762"><ele>454.75</ele><time>2026-04-12T14:20:01Z</time></trkpt><trkpt lat="45.66091199119697" lon="13.932755894474026"><ele>454.5</ele><time>2026-04-12T14:20:02Z</time></trkpt><trkpt lat="45.660886398893894" lon="13.932930449805397"><ele>454.25</ele><time>2026-04-12T14:20:03Z</time></trkpt><trkpt lat="45.66091046258295" lon="13.933034805847749"><ele>454.0</ele><time>2026-04-12T14:20:03.999Z</time></trkpt><trkpt lat="45.660925201952324" lon="13.933204076183785"><ele>454.0</ele><time>2026-04-12T14:20:05.999Z</time></trkpt><trkpt lat="45.660955641361795" lon="13.93330414668671"><ele>454.0</ele><time>2026-04-12T14:20:06.999Z</time></trkpt><trkpt lat="45.66099474283197" lon="13.933412746084935"><ele>454.0</ele><time>2026-04-12T14:20:07.999Z</time></trkpt><trkpt lat="45.66102333739252" lon="13.933556062719623"><ele>454.0</ele><time>2026-04-12T14:20:08.999Z</time></trkpt><trkpt lat="45.661061853015525" lon="13.933716619206141"><ele>454.0</ele><time>2026-04-12T14:20:09.999Z</time></trkpt><trkpt lat="45.66112434087071" lon="13.933869904175872"><ele>454.0</ele><time>2026-04-12T14:20:10.999Z</time></trkpt><trkpt lat="45.66115506786544" lon="13.934057148123241"><ele>454.0</ele><time>2026-04-12T14:20:11.999Z</time></trkpt><trkpt lat="45.661179760039566" lon="13.934257836029836"><ele>454.0</ele><time>2026-04-12T14:20:12.999Z</time></trkpt><trkpt lat="45.66120189733535" lon="13.934467289197158"><ele>454.0</ele><time>2026-04-12T14:20:13.999Z</time></trkpt><trkpt lat="45.66121861768396" lon="13.934669248604267"><ele>454.0</ele><time>2026-04-12T14:20:14.999Z</time></trkpt><trkpt lat="45.66123882541438" lon="13.934868891306392"><ele>454.0</ele><time>2026-04-12T14:20:15.999Z</time></trkpt><trkpt lat="45.66126080956386" lon="13.935072071599347"><ele>454.0</ele><time>2026-04-12T14:20:16.999Z</time></trkpt><trkpt lat="45.66128532607269" lon="13.93528856606893"><ele>454.0</ele><time>2026-04-12T14:20:17.999Z</time></trkpt><trkpt lat="45.66131141699075" lon="13.93550506165257"><ele>455.5</ele><time>2026-04-12T14:20:18.999Z</time></trkpt><trkpt lat="45.661336637948196" lon="13.935711713491017"><ele>457.0</ele><time>2026-04-12T14:20:19.999Z</time></trkpt><trkpt lat="45.66135674057223" lon="13.935907679139525"><ele>458.5</ele><time>2026-04-12T14:20:20.999Z</time></trkpt><trkpt lat="45.66137316489243" lon="13.936056304613146"><ele>460.0</ele><time>2026-04-12T14:20:21.999Z</time></trkpt><trkpt lat="45.661381109582386" lon="13.936185595575937"><ele>460.2</ele><time>2026-04-12T14:20:23.999Z</time></trkpt><trkpt lat="45.66139766070976" lon="13.936300849388093"><ele>460.4</ele><time>2026-04-12T14:20:26.999Z</time></trkpt><trkpt lat="45.66141159622022" lon="13.93644032739077"><ele>460.6</ele><time>2026-04-12T14:20:29.999Z</time></trkpt><trkpt lat="45.66142330773588" lon="13.936583207899368"><ele>460.8</ele><time>2026-04-12T14:20:31.999Z</time></trkpt><trkpt lat="45.66144639448353" lon="13.936747165699595"><ele>461.0</ele><time>2026-04-12T14:20:33.999Z</time></trkpt><trkpt lat="45.66145943424481" lon="13.936877891095032"><ele>460.99999999999994</ele><time>2026-04-12T14:20:35.998Z</time></trkpt><trkpt lat="45.66147858500266" lon="13.936982831921382"><ele>461.0</ele><time>2026-04-12T14:20:38.998Z</time></trkpt><trkpt lat="45.66150253385679" lon="13.937087522612535"><ele>461.0</ele><time>2026-04-12T14:20:40.998Z</time></trkpt><trkpt lat="45.661531359539985" lon="13.937191452368266"><ele>461.0</ele><time>2026-04-12T14:20:41.998Z</time></trkpt><trkpt lat="45.661558961406485" lon="13.937322198860924"><ele>460.99999999999994</ele><time>2026-04-12T14:20:42.998Z</time></trkpt><trkpt lat="45.66158553621325" lon="13.937431454333225"><ele>461.0</ele><time>2026-04-12T14:20:43.998Z</time></trkpt><trkpt lat="45.66161435477467" lon="13.937562812136257"><ele>460.99999999999994</ele><time>2026-04-12T14:20:45.998Z</time></trkpt><trkpt lat="45.66161562265633" lon="13.937434062963153"><ele>461.0</ele><time>2026-04-12T14:21:06.998Z</time></trkpt><trkpt lat="45.66158504723732" lon="13.937340347963666"><ele>461.0</ele><time>2026-04-12T14:21:07.997Z</time></trkpt><trkpt lat="45.661560851720914" lon="13.937249002120284"><ele>461.0</ele><time>2026-04-12T14:21:08.997Z</time></trkpt><trkpt lat="45.661538392838686" lon="13.937135387033857"><ele>460.99999999999994</ele><time>2026-04-12T14:21:09.997Z</time></trkpt><trkpt lat="45.66151254663558" lon="13.936993581484334"><ele>461.0</ele><time>2026-04-12T14:21:10.997Z</time></trkpt><trkpt lat="45.661489359487746" lon="13.936853255487524"><ele>461.0</ele><time>2026-04-12T14:21:11.997Z</time></trkpt><trkpt lat="45.66146664453578" lon="13.936685951388094"><ele>461.0</ele><time>2026-04-12T14:21:12.997Z</time></trkpt><trkpt lat="45.66144673861942" lon="13.936514068513272"><ele>461.0</ele><time>2026-04-12T14:21:13.997Z</time></trkpt><trkpt lat="45.66143302920432" lon="13.93635530151714"><ele>461.0</ele><time>2026-04-12T14:21:14.997Z</time></trkpt><trkpt lat="45.66142150830349" lon="13.936213984594554"><ele>461.0</ele><time>2026-04-12T14:21:15.997Z</time></trkpt><trkpt lat="45.66141130095622" lon="13.936106081375046"><ele>461.0</ele><time>2026-04-12T14:21:16.997Z</time></trkpt><trkpt lat="45.66138682352017" lon="13.935967708304622"><ele>461.0</ele><time>2026-04-12T14:21:18.997Z</time></trkpt><trkpt lat="45.661198122520744" lon="13.936001682433037"><ele>461.0</ele><time>2026-04-12T14:21:21.997Z</time></trkpt><trkpt lat="45.661133854473555" lon="13.936021487643506"><ele>461.0</ele><time>2026-04-12T14:21:22.997Z</time></trkpt><trkpt lat="45.66106221035398" lon="13.93604409107244"><ele>459.49999999999994</ele><time>2026-04-12T14:21:23.997Z</time></trkpt><trkpt lat="45.66099566189408" lon="13.936060578365698"><ele>458.0</ele><time>2026-04-12T14:21:24.997Z</time></trkpt><trkpt lat="45.660871638905405" lon="13.936078165370358"><ele>456.5</ele><time>2026-04-12T14:21:26.997Z</time></trkpt><trkpt lat="45.660805214499355" lon="13.936097734000686"><ele>455.0</ele><time>2026-04-12T14:21:27.997Z</time></trkpt><trkpt lat="45.66073949652997" lon="13.936103349519172"><ele>453.49999999999994</ele><time>2026-04-12T14:21:28.997Z</time></trkpt><trkpt lat="45.660672238717964" lon="13.936122156524846"><ele>452.0</ele><time>2026-04-12T14:21:29.997Z</time></trkpt><trkpt lat="45.66060275103637" lon="13.936142465564"><ele>452.0</ele><time>2026-04-12T14:21:30.997Z</time></trkpt><trkpt lat="45.66052162706546" lon="13.93614182453163"><ele>452.00000000000006</ele><time>2026-04-12T14:21:31.997Z</time></trkpt><trkpt lat="45.6604275039343" lon="13.936165427222345"><ele>452.00000000000006</ele><time>2026-04-12T14:21:32.997Z</time></trkpt><trkpt lat="45.66032255423023" lon="13.936187822397272"><ele>452.0</ele><time>2026-04-12T14:21:33.997Z</time></trkpt><trkpt lat="45.660221033082124" lon="13.936194009462415"><ele>452.0</ele><time>2026-04-12T14:21:34.997Z</time></trkpt><trkpt lat="45.66011862971331" lon="13.936197753219394"><ele>451.99999999999994</ele><time>2026-04-12T14:21:35.997Z</time></trkpt><trkpt lat="45.660028592459035" lon="13.936219203414204"><ele>452.0</ele><time>2026-04-12T14:21:36.997Z</time></trkpt><trkpt lat="45.65994922520862" lon="13.93621996414476"><ele>452.0</ele><time>2026-04-12T14:21:37.997Z</time></trkpt><trkpt lat="45.65988467154295" lon="13.93622405390672"><ele>452.0</ele><time>2026-04-12T14:21:38.997Z</time></trkpt><trkpt lat="45.65980126452233" lon="13.936233904453724"><ele>451.99999999999994</ele><time>2026-04-12T14:21:40.996Z</time></trkpt><trkpt lat="45.65972600994264" lon="13.936336859182852"><ele>452.0</ele><time>2026-04-12T14:21:46Z</time></trkpt><trkpt lat="45.659709085746016" lon="13.936425869013599"><ele>452.0</ele><time>2026-04-12T14:21:47Z</time></trkpt><trkpt lat="45.659690865634786" lon="13.936611217896255"><ele>452.00000000000006</ele><time>2026-04-12T14:21:49Z</time></trkpt><trkpt lat="45.65967886883544" lon="13.936726938014026"><ele>452.00000000000006</ele><time>2026-04-12T14:21:50Z</time></trkpt><trkpt lat="45.659660997324565" lon="13.93686050061148"><ele>452.0</ele><time>2026-04-12T14:21:51Z</time></trkpt><trkpt lat="45.65964291245947" lon="13.937011388363528"><ele>452.0</ele><time>2026-04-12T14:21:52Z</time></trkpt><trkpt lat="45.65962557405067" lon="13.93717717242306"><ele>451.6</ele><time>2026-04-12T14:21:53Z</time></trkpt><trkpt lat="45.65961114312039" lon="13.937328760104899"><ele>451.20000000000005</ele><time>2026-04-12T14:21:54Z</time></trkpt><trkpt lat="45.65958730757492" lon="13.937478949406879"><ele>450.8</ele><time>2026-04-12T14:21:55Z</time></trkpt><trkpt lat="45.65956757289959" lon="13.937635127232218"><ele>450.4</ele><time>2026-04-12T14:21:56Z</time></trkpt><trkpt lat="45.659543729183916" lon="13.937792801245656"><ele>450.0</ele><time>2026-04-12T14:21:57Z</time></trkpt><trkpt lat="45.6595220168477" lon="13.937942184675599"><ele>450.0</ele><time>2026-04-12T14:21:58Z</time></trkpt><trkpt lat="45.65950530237865" lon="13.9380815104506"><ele>450.0</ele><time>2026-04-12T14:21:59Z</time></trkpt><trkpt lat="45.65948979041419" lon="13.938213351317026"><ele>450.0</ele><time>2026-04-12T14:22:00Z</time></trkpt><trkpt lat="45.65947590084742" lon="13.938340863346339"><ele>450.0</ele><time>2026-04-12T14:22:01Z</time></trkpt><trkpt lat="45.659467451137196" lon="13.93846467224485"><ele>450.0</ele><time>2026-04-12T14:22:02Z</time></trkpt><trkpt lat="45.65946686902966" lon="13.938592915019282"><ele>450.0</ele><time>2026-04-12T14:22:03Z</time></trkpt><trkpt lat="45.65947677836684" lon="13.93873622737409"><ele>450.0</ele><time>2026-04-12T14:22:04Z</time></trkpt><trkpt lat="45.65949936038864" lon="13.938889212618147"><ele>450.0</ele><time>2026-04-12T14:22:05Z</time></trkpt><trkpt lat="45.659534467305136" lon="13.939041095127022"><ele>450.0</ele><time>2026-04-12T14:22:06Z</time></trkpt><trkpt lat="45.65957006906694" lon="13.939199151864017"><ele>450.0</ele><time>2026-04-12T14:22:07Z</time></trkpt><trkpt lat="45.65960748463733" lon="13.93936061145851"><ele>449.4</ele><time>2026-04-12T14:22:08Z</time></trkpt><trkpt lat="45.65964111601628" lon="13.939516026028683"><ele>448.8</ele><time>2026-04-12T14:22:09Z</time></trkpt><trkpt lat="45.65967237210143" lon="13.939666159244682"><ele>448.20000000000005</ele><time>2026-04-12T14:22:10Z</time></trkpt><trkpt lat="45.65970393444546" lon="13.93980790246315"><ele>447.6</ele><time>2026-04-12T14:22:11Z</time></trkpt><trkpt lat="45.659734942697206" lon="13.939941070065851"><ele>447.0</ele><time>2026-04-12T14:22:11.999Z</time></trkpt><trkpt lat="45.65976077497242" lon="13.94007086341393"><ele>446.8</ele><time>2026-04-12T14:22:12.999Z</time></trkpt><trkpt lat="45.65977952366521" lon="13.940197541212944"><ele>446.6</ele><time>2026-04-12T14:22:13.999Z</time></trkpt><trkpt lat="45.659784073562335" lon="13.940320182089987"><ele>446.40000000000003</ele><time>2026-04-12T14:22:14.999Z</time></trkpt><trkpt lat="45.65977309427756" lon="13.940450482828949"><ele>446.20000000000005</ele><time>2026-04-12T14:22:15.999Z</time></trkpt><trkpt lat="45.65972351122031" lon="13.940570773129322"><ele>446.0</ele><time>2026-04-12T14:22:16.999Z</time></trkpt><trkpt lat="45.65967907468628" lon="13.940711228849059"><ele>446.0</ele><time>2026-04-12T14:22:17.999Z</time></trkpt><trkpt lat="45.65962571393411" lon="13.940856943261032"><ele>446.0</ele><time>2026-04-12T14:22:18.999Z</time></trkpt><trkpt lat="45.65957944988429" lon="13.941017969865051"><ele>446.0</ele><time>2026-04-12T14:22:19.999Z</time></trkpt><trkpt lat="45.65951560417865" lon="13.941174882139135"><ele>446.0</ele><time>2026-04-12T14:22:20.999Z</time></trkpt><trkpt lat="45.659458433570805" lon="13.94133199146638"><ele>446.25</ele><time>2026-04-12T14:22:21.999Z</time></trkpt><trkpt lat="45.65940286900526" lon="13.941489245525005"><ele>446.5</ele><time>2026-04-12T14:22:22.999Z</time></trkpt><trkpt lat="45.65935425691968" lon="13.941649532088922"><ele>446.75</ele><time>2026-04-12T14:22:23.999Z</time></trkpt><trkpt lat="45.65931498899884" lon="13.941813858856502"><ele>447.0</ele><time>2026-04-12T14:22:24.999Z</time></trkpt><trkpt lat="45.65927844371703" lon="13.941970930484713"><ele>447.0</ele><time>2026-04-12T14:22:25.999Z</time></trkpt><trkpt lat="45.659246855568334" lon="13.94213416282337"><ele>447.00000000000006</ele><time>2026-04-12T14:22:26.999Z</time></trkpt><trkpt lat="45.65921324829156" lon="13.942290358953642"><ele>447.00000000000006</ele><time>2026-04-12T14:22:27.999Z</time></trkpt><trkpt lat="45.65917436623372" lon="13.942428626394195"><ele>447.0</ele><time>2026-04-12T14:22:28.999Z</time></trkpt><trkpt lat="45.65910470774436" lon="13.94252555358865"><ele>447.0</ele><time>2026-04-12T14:22:29.999Z</time></trkpt><trkpt lat="45.65904563216057" lon="13.942620729764405"><ele>446.0</ele><time>2026-04-12T14:22:30.999Z</time></trkpt><trkpt lat="45.65899214418884" lon="13.942707229443789"><ele>445.0</ele><time>2026-04-12T14:22:31.999Z</time></trkpt><trkpt lat="45.658934545810354" lon="13.942773380771289"><ele>444.0</ele><time>2026-04-12T14:22:32.999Z</time></trkpt><trkpt lat="45.65888722545836" lon="13.942850535538643"><ele>443.0</ele><time>2026-04-12T14:22:33.999Z</time></trkpt><trkpt lat="45.6588445724" lon="13.942948773193924"><ele>442.0</ele><time>2026-04-12T14:22:35.999Z</time></trkpt><trkpt lat="45.65878435330161" lon="13.943019487176686"><ele>441.0</ele><time>2026-04-12T14:22:37.999Z</time></trkpt><trkpt lat="45.65871817977438" lon="13.943096658526601"><ele>441.0</ele><time>2026-04-12T14:22:39.999Z</time></trkpt><trkpt lat="45.658644485033115" lon="13.943210130993688"><ele>441.0</ele><time>2026-04-12T14:22:41.999Z</time></trkpt><trkpt lat="45.6585621734153" lon="13.943346475225335"><ele>441.0</ele><time>2026-04-12T14:22:43.999Z</time></trkpt><trkpt lat="45.65851538399082" lon="13.943423429159315"><ele>441.0</ele><time>2026-04-12T14:22:44.998Z</time></trkpt><trkpt lat="45.6584681415542" lon="13.943499148375642"><ele>441.0</ele><time>2026-04-12T14:22:45.998Z</time></trkpt><trkpt lat="45.65841929841345" lon="13.943578348559491"><ele>441.8333333333333</ele><time>2026-04-12T14:22:46.998Z</time></trkpt><trkpt lat="45.658365308321805" lon="13.943654889102206"><ele>442.66666666666663</ele><time>2026-04-12T14:22:47.998Z</time></trkpt><trkpt lat="45.658315781850355" lon="13.943732327984392"><ele>443.5</ele><time>2026-04-12T14:22:48.998Z</time></trkpt><trkpt lat="45.658260941893246" lon="13.94380955762639"><ele>444.3333333333333</ele><time>2026-04-12T14:22:49.998Z</time></trkpt><trkpt lat="45.65820528638112" lon="13.943885570226758"><ele>445.16666666666663</ele><time>2026-04-12T14:22:50.998Z</time></trkpt><trkpt lat="45.65814831423591" lon="13.943963464855603"><ele>446.0</ele><time>2026-04-12T14:22:51.998Z</time></trkpt><trkpt lat="45.658091572470546" lon="13.944046365940885"><ele>445.99999999999994</ele><time>2026-04-12T14:22:52.998Z</time></trkpt><trkpt lat="45.65803274831676" lon="13.94413028897962"><ele>446.0</ele><time>2026-04-12T14:22:53.998Z</time></trkpt><trkpt lat="45.65797374092082" lon="13.944213526365981"><ele>446.0</ele><time>2026-04-12T14:22:54.998Z</time></trkpt><trkpt lat="45.65791887921944" lon="13.944292449497667"><ele>446.0</ele><time>2026-04-12T14:22:55.998Z</time></trkpt><trkpt lat="45.65786785568261" lon="13.94437054027562"><ele>445.99999999999994</ele><time>2026-04-12T14:22:56.998Z</time></trkpt><trkpt lat="45.65781650908652" lon="13.94444398450987"><ele>446.0</ele><time>2026-04-12T14:22:57.998Z</time></trkpt><trkpt lat="45.65776475254223" lon="13.94452031205019"><ele>446.57142857142856</ele><time>2026-04-12T14:22:58.998Z</time></trkpt><trkpt lat="45.65770982463628" lon="13.94459000088591"><ele>447.1428571428571</ele><time>2026-04-12T14:22:59.998Z</time></trkpt><trkpt lat="45.65766157792453" lon="13.944663872542916"><ele>447.7142857142858</ele><time>2026-04-12T14:23:00.998Z</time></trkpt><trkpt lat="45.65761571182607" lon="13.944734317909617"><ele>448.28571428571433</ele><time>2026-04-12T14:23:01.998Z</time></trkpt><trkpt lat="45.657574052091356" lon="13.944806172222254"><ele>448.8571428571429</ele><time>2026-04-12T14:23:02.998Z</time></trkpt><trkpt lat="45.6575359271208" lon="13.944878984389115"><ele>449.4285714285715</ele><time>2026-04-12T14:23:03.998Z</time></trkpt><trkpt lat="45.65752093793236" lon="13.944968170629378"><ele>450.00000000000006</ele><time>2026-04-12T14:23:04.998Z</time></trkpt><trkpt lat="45.65749595530132" lon="13.945052114174654"><ele>450.00000000000006</ele><time>2026-04-12T14:23:05.998Z</time></trkpt><trkpt lat="45.65747509262487" lon="13.945138904373572"><ele>450.0</ele><time>2026-04-12T14:23:06.998Z</time></trkpt><trkpt lat="45.657450048868" lon="13.94522902904788"><ele>450.00000000000006</ele><time>2026-04-12T14:23:07.998Z</time></trkpt><trkpt lat="45.65743653149176" lon="13.945333570517974"><ele>450.00000000000006</ele><time>2026-04-12T14:23:08.998Z</time></trkpt><trkpt lat="45.65741805616211" lon="13.945444148382531"><ele>450.0</ele><time>2026-04-12T14:23:09.998Z</time></trkpt><trkpt lat="45.65739436860481" lon="13.945552484083617"><ele>450.00000000000006</ele><time>2026-04-12T14:23:10.998Z</time></trkpt><trkpt lat="45.65736473554932" lon="13.945651363678772"><ele>450.00000000000006</ele><time>2026-04-12T14:23:11.998Z</time></trkpt><trkpt lat="45.65731665538095" lon="13.945731390852472"><ele>450.0</ele><time>2026-04-12T14:23:12.998Z</time></trkpt><trkpt lat="45.65727081239487" lon="13.94581594785432"><ele>450.0</ele><time>2026-04-12T14:23:13.998Z</time></trkpt><trkpt lat="45.65722212948556" lon="13.94590490351222"><ele>450.0</ele><time>2026-04-12T14:23:14.998Z</time></trkpt><trkpt lat="45.65717160685161" lon="13.945997220803669"><ele>450.0</ele><time>2026-04-12T14:23:15.998Z</time></trkpt><trkpt lat="45.65713341365818" lon="13.94609865636583"><ele>450.0</ele><time>2026-04-12T14:23:16.997Z</time></trkpt><trkpt lat="45.65708371167415" lon="13.946178970172243"><ele>450.0</ele><time>2026-04-12T14:23:17.997Z</time></trkpt><trkpt lat="45.657034087323424" lon="13.946258874272662"><ele>449.1666666666667</ele><time>2026-04-12T14:23:18.997Z</time></trkpt><trkpt lat="45.65698297056796" lon="13.946334482730835"><ele>448.33333333333337</ele><time>2026-04-12T14:23:19.997Z</time></trkpt><trkpt lat="45.656929947895634" lon="13.946414149072494"><ele>447.5</ele><time>2026-04-12T14:23:20.997Z</time></trkpt><trkpt lat="45.65686244500583" lon="13.946474753959587"><ele>446.6666666666667</ele><time>2026-04-12T14:23:21.997Z</time></trkpt><trkpt lat="45.656815464911624" lon="13.946566194930655"><ele>445.83333333333337</ele><time>2026-04-12T14:23:22.997Z</time></trkpt><trkpt lat="45.65675495791562" lon="13.946639150235297"><ele>445.0</ele><time>2026-04-12T14:23:23.997Z</time></trkpt><trkpt lat="45.656697796614246" lon="13.946720174061747"><ele>446.83333333333337</ele><time>2026-04-12T14:23:24.997Z</time></trkpt><trkpt lat="45.65664105239403" lon="13.946804696327314"><ele>448.6666666666667</ele><time>2026-04-12T14:23:25.997Z</time></trkpt><trkpt lat="45.65659854024254" lon="13.946893130764048"><ele>450.5</ele><time>2026-04-12T14:23:26.997Z</time></trkpt><trkpt lat="45.656556937016944" lon="13.946977698478415"><ele>452.33333333333337</ele><time>2026-04-12T14:23:27.997Z</time></trkpt><trkpt lat="45.65652404488573" lon="13.947056356477894"><ele>454.1666666666667</ele><time>2026-04-12T14:23:28.997Z</time></trkpt><trkpt lat="45.65650805094324" lon="13.947211980291842"><ele>456.0</ele><time>2026-04-12T14:23:30.997Z</time></trkpt><trkpt lat="45.656505156216205" lon="13.947380352561943"><ele>456.0</ele><time>2026-04-12T14:23:32.997Z</time></trkpt><trkpt lat="45.656531289114774" lon="13.947505046214514"><ele>456.0</ele><time>2026-04-12T14:23:34.997Z</time></trkpt><trkpt lat="45.656536789878196" lon="13.94760938028981"><ele>456.0</ele><time>2026-04-12T14:23:36.997Z</time></trkpt><trkpt lat="45.656495167601854" lon="13.947722709608286"><ele>456.0</ele><time>2026-04-12T14:23:39.997Z</time></trkpt><trkpt lat="45.6564507016167" lon="13.947792969238966"><ele>456.0</ele><time>2026-04-12T14:23:41.997Z</time></trkpt><trkpt lat="45.65635991237529" lon="13.947879687068278"><ele>456.0</ele><time>2026-04-12T14:23:43.997Z</time></trkpt><trkpt lat="45.656304578854886" lon="13.948022301695367"><ele>455.8</ele><time>2026-04-12T14:23:45.997Z</time></trkpt><trkpt lat="45.65623790486821" lon="13.948148119293078"><ele>455.6</ele><time>2026-04-12T14:23:47.997Z</time></trkpt><trkpt lat="45.6562126099194" lon="13.948233304489579"><ele>455.4</ele><time>2026-04-12T14:23:49Z</time></trkpt><trkpt lat="45.656159103560086" lon="13.948380897067977"><ele>455.2</ele><time>2026-04-12T14:23:51Z</time></trkpt><trkpt lat="45.65612357240116" lon="13.948511989311697"><ele>455.0</ele><time>2026-04-12T14:23:53Z</time></trkpt><trkpt lat="45.65612085422722" lon="13.948681030294427"><ele>454.8</ele><time>2026-04-12T14:23:55Z</time></trkpt><trkpt lat="45.656121065118114" lon="13.948775750327153"><ele>454.6</ele><time>2026-04-12T14:23:56Z</time></trkpt><trkpt lat="45.65612513752996" lon="13.948945697523476"><ele>454.4</ele><time>2026-04-12T14:23:58Z</time></trkpt><trkpt lat="45.656146904327365" lon="13.949121341273923"><ele>454.2</ele><time>2026-04-12T14:24:00Z</time></trkpt><trkpt lat="45.65616320106874" lon="13.9493001941567"><ele>454.0</ele><time>2026-04-12T14:24:02Z</time></trkpt><trkpt lat="45.65616378431225" lon="13.949390883830645"><ele>454.5714285714286</ele><time>2026-04-12T14:24:03Z</time></trkpt><trkpt lat="45.65616039333649" lon="13.949482484794718"><ele>455.1428571428572</ele><time>2026-04-12T14:24:04Z</time></trkpt><trkpt lat="45.656147033792166" lon="13.94957400881926"><ele>455.7142857142857</ele><time>2026-04-12T14:24:05Z</time></trkpt><trkpt lat="45.65612815605836" lon="13.949663958961516"><ele>456.28571428571433</ele><time>2026-04-12T14:24:06Z</time></trkpt><trkpt lat="45.65609333640327" lon="13.949748969837998"><ele>456.8571428571429</ele><time>2026-04-12T14:24:07Z</time></trkpt><trkpt lat="45.65605635556255" lon="13.949839089417281"><ele>457.42857142857144</ele><time>2026-04-12T14:24:08Z</time></trkpt><trkpt lat="45.6560141602345" lon="13.949931317464754"><ele>458.0</ele><time>2026-04-12T14:24:09Z</time></trkpt><trkpt lat="45.65597227891004" lon="13.950014228016158"><ele>458.71428571428567</ele><time>2026-04-12T14:24:10Z</time></trkpt><trkpt lat="45.65592814266132" lon="13.950091992114515"><ele>459.42857142857144</ele><time>2026-04-12T14:24:11Z</time></trkpt><trkpt lat="45.65588229273655" lon="13.950168699920921"><ele>460.1428571428571</ele><time>2026-04-12T14:24:12Z</time></trkpt><trkpt lat="45.655842240028335" lon="13.950258794913957"><ele>460.85714285714283</ele><time>2026-04-12T14:24:13Z</time></trkpt><trkpt lat="45.65580113539094" lon="13.950349856035142"><ele>461.57142857142856</ele><time>2026-04-12T14:24:14Z</time></trkpt><trkpt lat="45.6557617556861" lon="13.950446733259431"><ele>462.2857142857143</ele><time>2026-04-12T14:24:15Z</time></trkpt><trkpt lat="45.65572197940945" lon="13.950541983065284"><ele>463.0</ele><time>2026-04-12T14:24:16Z</time></trkpt><trkpt lat="45.6556823631912" lon="13.950636926362119"><ele>463.0</ele><time>2026-04-12T14:24:16.999Z</time></trkpt><trkpt lat="45.65563979786518" lon="13.950732639154525"><ele>462.99999999999994</ele><time>2026-04-12T14:24:17.999Z</time></trkpt><trkpt lat="45.655603192928375" lon="13.950823670417899"><ele>463.0</ele><time>2026-04-12T14:24:18.999Z</time></trkpt><trkpt lat="45.65556923716721" lon="13.950919902500456"><ele>463.0</ele><time>2026-04-12T14:24:19.999Z</time></trkpt><trkpt lat="45.655536754357186" lon="13.951012640951342"><ele>462.99999999999994</ele><time>2026-04-12T14:24:20.999Z</time></trkpt><trkpt lat="45.65551238521111" lon="13.95109684328817"><ele>463.0</ele><time>2026-04-12T14:24:21.999Z</time></trkpt><trkpt lat="45.65549390843162" lon="13.951186857466187"><ele>463.0</ele><time>2026-04-12T14:24:22.999Z</time></trkpt><trkpt lat="45.65545156089477" lon="13.951273142792514"><ele>463.00000000000006</ele><time>2026-04-12T14:24:23.999Z</time></trkpt><trkpt lat="45.655422700590954" lon="13.951366871347597"><ele>463.0</ele><time>2026-04-12T14:24:24.999Z</time></trkpt><trkpt lat="45.65539361487676" lon="13.951472596547319"><ele>463.0</ele><time>2026-04-12T14:24:25.999Z</time></trkpt><trkpt lat="45.655391752718494" lon="13.95156658972425"><ele>463.0</ele><time>2026-04-12T14:24:26.999Z</time></trkpt><trkpt lat="45.65536939364269" lon="13.95171894438453"><ele>463.00000000000006</ele><time>2026-04-12T14:24:28.999Z</time></trkpt><trkpt lat="45.655377557687075" lon="13.951834076809869"><ele>463.0</ele><time>2026-04-12T14:24:30.999Z</time></trkpt><trkpt lat="45.65540650064401" lon="13.952026111773316"><ele>463.2</ele><time>2026-04-12T14:24:36.999Z</time></trkpt><trkpt lat="45.65541552693343" lon="13.9521303943072"><ele>463.4</ele><time>2026-04-12T14:24:37.999Z</time></trkpt><trkpt lat="45.65542885336148" lon="13.952258709218205"><ele>463.59999999999997</ele><time>2026-04-12T14:24:39.999Z</time></trkpt><trkpt lat="45.65542005756474" lon="13.952379727464555"><ele>463.79999999999995</ele><time>2026-04-12T14:24:41.999Z</time></trkpt><trkpt lat="45.655375365634896" lon="13.952524359896394"><ele>464.0</ele><time>2026-04-12T14:24:43.999Z</time></trkpt><trkpt lat="45.655281667505854" lon="13.952631022931381"><ele>464.2</ele><time>2026-04-12T14:24:45.999Z</time></trkpt><trkpt lat="45.65518534803611" lon="13.952729349590816"><ele>464.4</ele><time>2026-04-12T14:24:47.999Z</time></trkpt><trkpt lat="45.65507134066516" lon="13.952785712383005"><ele>464.6</ele><time>2026-04-12T14:24:49.998Z</time></trkpt><trkpt lat="45.65496694536352" lon="13.952842115862298"><ele>464.8</ele><time>2026-04-12T14:24:51.998Z</time></trkpt><trkpt lat="45.65489723739605" lon="13.95288200812541"><ele>465.0</ele><time>2026-04-12T14:24:54.998Z</time></trkpt><trkpt lat="45.65485444833763" lon="13.952957586354742"><ele>465.0</ele><time>2026-04-12T14:24:58.998Z</time></trkpt><trkpt lat="45.65487301769315" lon="13.953054876347876"><ele>465.0</ele><time>2026-04-12T14:25:02.998Z</time></trkpt><trkpt lat="45.65489117937698" lon="13.953168545956345"><ele>465.0</ele><time>2026-04-12T14:25:04.998Z</time></trkpt><trkpt lat="45.65488045476278" lon="13.953290820330922"><ele>465.0</ele><time>2026-04-12T14:25:06.998Z</time></trkpt><trkpt lat="45.65484267692097" lon="13.953423774136365"><ele>465.0</ele><time>2026-04-12T14:25:08.998Z</time></trkpt><trkpt lat="45.65477141060619" lon="13.95351907144813"><ele>465.0</ele><time>2026-04-12T14:25:10.998Z</time></trkpt><trkpt lat="45.65467491600527" lon="13.953509454219528"><ele>465.0</ele><time>2026-04-12T14:25:12.998Z</time></trkpt><trkpt lat="45.65458816538213" lon="13.953576684838506"><ele>465.0</ele><time>2026-04-12T14:25:14.998Z</time></trkpt><trkpt lat="45.65449109365979" lon="13.953605723229874"><ele>465.0</ele><time>2026-04-12T14:25:16.998Z</time></trkpt><trkpt lat="45.65440332191749" lon="13.95368624285177"><ele>465.0</ele><time>2026-04-12T14:25:18.998Z</time></trkpt><trkpt lat="45.6543404549651" lon="13.953815284846332"><ele>465.0</ele><time>2026-04-12T14:25:20.997Z</time></trkpt><trkpt lat="45.65430183904128" lon="13.953956376431435"><ele>466.4</ele><time>2026-04-12T14:25:22.997Z</time></trkpt><trkpt lat="45.654265991243676" lon="13.954108961858314"><ele>467.8</ele><time>2026-04-12T14:25:24.997Z</time></trkpt><trkpt lat="45.654238547669785" lon="13.954191834206576"><ele>469.20000000000005</ele><time>2026-04-12T14:25:25.997Z</time></trkpt><trkpt lat="45.654208621872215" lon="13.954344995532697"><ele>470.6</ele><time>2026-04-12T14:25:27.997Z</time></trkpt><trkpt lat="45.65416818899201" lon="13.954469990386105"><ele>472.0</ele><time>2026-04-12T14:25:29.997Z</time></trkpt><trkpt lat="45.65411788574961" lon="13.95458786281776"><ele>472.0</ele><time>2026-04-12T14:25:31.997Z</time></trkpt><trkpt lat="45.65407473497796" lon="13.954706876020099"><ele>472.00000000000006</ele><time>2026-04-12T14:25:33.997Z</time></trkpt><trkpt lat="45.65404369483655" lon="13.954844149367148"><ele>472.00000000000006</ele><time>2026-04-12T14:25:35.997Z</time></trkpt><trkpt lat="45.654018865303755" lon="13.954980031712042"><ele>472.0</ele><time>2026-04-12T14:25:37.997Z</time></trkpt><trkpt lat="45.653993412670104" lon="13.955112524724935"><ele>472.0</ele><time>2026-04-12T14:25:39.997Z</time></trkpt><trkpt lat="45.65396363196108" lon="13.955226725492512"><ele>471.83333333333337</ele><time>2026-04-12T14:25:41.997Z</time></trkpt><trkpt lat="45.65393071592956" lon="13.955350812195524"><ele>471.6666666666667</ele><time>2026-04-12T14:25:43.997Z</time></trkpt><trkpt lat="45.653910175813934" lon="13.955454845337643"><ele>471.5</ele><time>2026-04-12T14:25:45.997Z</time></trkpt><trkpt lat="45.653907874091104" lon="13.95554832784901"><ele>471.33333333333337</ele><time>2026-04-12T14:25:48.997Z</time></trkpt><trkpt lat="45.65383280881601" lon="13.955518530765772"><ele>471.1666666666667</ele><time>2026-04-12T14:26:16Z</time></trkpt><trkpt lat="45.65378169902139" lon="13.955443152766968"><ele>471.0</ele><time>2026-04-12T14:26:18Z</time></trkpt><trkpt lat="45.65371040382786" lon="13.955422233296263"><ele>471.0</ele><time>2026-04-12T14:26:20Z</time></trkpt><trkpt lat="45.65364158430376" lon="13.955482831355056"><ele>471.0</ele><time>2026-04-12T14:26:23Z</time></trkpt><trkpt lat="45.65368842384291" lon="13.955558487844565"><ele>471.0</ele><time>2026-04-12T14:26:25.999Z</time></trkpt><trkpt lat="45.653830036894334" lon="13.955498337016659"><ele>471.0</ele><time>2026-04-12T14:26:29.999Z</time></trkpt><trkpt lat="45.653896445645174" lon="13.955516498263517"><ele>471.0</ele><time>2026-04-12T14:26:32.999Z</time></trkpt><trkpt lat="45.65393616343904" lon="13.955428362523135"><ele>471.0</ele><time>2026-04-12T14:26:36.999Z</time></trkpt><trkpt lat="45.65396025563362" lon="13.955272922058349"><ele>471.0</ele><time>2026-04-12T14:26:38.999Z</time></trkpt><trkpt lat="45.65398534880821" lon="13.9551873261283"><ele>471.0</ele><time>2026-04-12T14:26:39.999Z</time></trkpt><trkpt lat="45.65401654622999" lon="13.955074881989592"><ele>471.0</ele><time>2026-04-12T14:26:40.999Z</time></trkpt><trkpt lat="45.65404034287734" lon="13.9549519933714"><ele>471.0</ele><time>2026-04-12T14:26:41.999Z</time></trkpt><trkpt lat="45.65406392184163" lon="13.954833278257054"><ele>471.0</ele><time>2026-04-12T14:26:42.999Z</time></trkpt><trkpt lat="45.65408626955632" lon="13.954718608489298"><ele>471.0</ele><time>2026-04-12T14:26:43.999Z</time></trkpt><trkpt lat="45.654128994092446" lon="13.95462929176065"><ele>471.20000000000005</ele><time>2026-04-12T14:26:44.999Z</time></trkpt><trkpt lat="45.654171638281895" lon="13.954528696957974"><ele>471.40000000000003</ele><time>2026-04-12T14:26:45.999Z</time></trkpt><trkpt lat="45.65422350884368" lon="13.95440321901994"><ele>471.6</ele><time>2026-04-12T14:26:46.999Z</time></trkpt><trkpt lat="45.65425261236061" lon="13.954301692713655"><ele>471.8</ele><time>2026-04-12T14:26:47.999Z</time></trkpt><trkpt lat="45.65426435217258" lon="13.954198025300279"><ele>472.0</ele><time>2026-04-12T14:26:48.999Z</time></trkpt><trkpt lat="45.65430191164157" lon="13.954040226905278"><ele>472.20000000000005</ele><time>2026-04-12T14:26:50.999Z</time></trkpt><trkpt lat="45.65434424541537" lon="13.953882197385104"><ele>472.40000000000003</ele><time>2026-04-12T14:26:52.999Z</time></trkpt><trkpt lat="45.65438354705241" lon="13.953756828442122"><ele>472.59999999999997</ele><time>2026-04-12T14:26:54.999Z</time></trkpt><trkpt lat="45.65444763445972" lon="13.953649053577418"><ele>472.79999999999995</ele><time>2026-04-12T14:26:56.998Z</time></trkpt><trkpt lat="45.65454636073659" lon="13.95357810953654"><ele>473.0</ele><time>2026-04-12T14:26:58.998Z</time></trkpt><trkpt lat="45.654647246440646" lon="13.953556350153649"><ele>471.66666666666663</ele><time>2026-04-12T14:27:00.998Z</time></trkpt><trkpt lat="45.65472527878901" lon="13.953550287459226"><ele>470.3333333333333</ele><time>2026-04-12T14:27:02.998Z</time></trkpt><trkpt lat="45.65479944766114" lon="13.953498788295354"><ele>469.0</ele><time>2026-04-12T14:27:05.998Z</time></trkpt><trkpt lat="45.65486262183003" lon="13.95343983301457"><ele>467.66666666666663</ele><time>2026-04-12T14:27:07.998Z</time></trkpt><trkpt lat="45.654882527219456" lon="13.953320845787923"><ele>466.3333333333333</ele><time>2026-04-12T14:27:09.998Z</time></trkpt><trkpt lat="45.65490388166729" lon="13.953232061416978"><ele>465.0</ele><time>2026-04-12T14:27:11.998Z</time></trkpt><trkpt lat="45.6549220628938" lon="13.953131299859804"><ele>465.0</ele><time>2026-04-12T14:27:15.998Z</time></trkpt><trkpt lat="45.65488035362164" lon="13.953051535788005"><ele>465.0</ele><time>2026-04-12T14:27:20.998Z</time></trkpt><trkpt lat="45.654868590711736" lon="13.952957215163499"><ele>465.0</ele><time>2026-04-12T14:27:23.998Z</time></trkpt><trkpt lat="45.65479006629351" lon="13.952986099655229"><ele>465.0</ele><time>2026-04-12T14:27:33.997Z</time></trkpt><trkpt lat="45.65472182456239" lon="13.95305440657284"><ele>465.0</ele><time>2026-04-12T14:27:35.997Z</time></trkpt><trkpt lat="45.65462047481679" lon="13.95312711788607"><ele>465.0</ele><time>2026-04-12T14:27:37.997Z</time></trkpt><trkpt lat="45.654558344279145" lon="13.953168543429978"><ele>465.0</ele><time>2026-04-12T14:27:38.997Z</time></trkpt><trkpt lat="45.65449787160107" lon="13.953210433440443"><ele>465.0</ele><time>2026-04-12T14:27:39.997Z</time></trkpt><trkpt lat="45.654438135393775" lon="13.953249968569686"><ele>465.0</ele><time>2026-04-12T14:27:40.997Z</time></trkpt><trkpt lat="45.65437934181293" lon="13.953296078312997"><ele>465.0</ele><time>2026-04-12T14:27:41.997Z</time></trkpt><trkpt lat="45.654282139571734" lon="13.953370415313934"><ele>465.0</ele><time>2026-04-12T14:27:43.997Z</time></trkpt><trkpt lat="45.65420878352389" lon="13.953446175595777"><ele>465.0</ele><time>2026-04-12T14:27:45.997Z</time></trkpt><trkpt lat="45.65413947959577" lon="13.953507399492922"><ele>466.3333333333333</ele><time>2026-04-12T14:27:47.997Z</time></trkpt><trkpt lat="45.6540743223799" lon="13.953578452677567"><ele>467.66666666666663</ele><time>2026-04-12T14:27:49.997Z</time></trkpt><trkpt lat="45.65400814962697" lon="13.953650820735021"><ele>469.0</ele><time>2026-04-12T14:27:51.997Z</time></trkpt><trkpt lat="45.653924981752546" lon="13.953724436507304"><ele>470.3333333333333</ele><time>2026-04-12T14:27:54.997Z</time></trkpt><trkpt lat="45.65384498157477" lon="13.953749566812725"><ele>471.66666666666663</ele><time>2026-04-12T14:27:56.997Z</time></trkpt><trkpt lat="45.6537546162291" lon="13.953695494909626"><ele>473.0</ele><time>2026-04-12T14:27:58.997Z</time></trkpt><trkpt lat="45.653694113928964" lon="13.953642142841717"><ele>472.99999999999994</ele><time>2026-04-12T14:28:01Z</time></trkpt><trkpt lat="45.65362672104219" lon="13.953581185660155"><ele>473.0</ele><time>2026-04-12T14:28:03Z</time></trkpt><trkpt lat="45.65355900198665" lon="13.953547925600448"><ele>473.0</ele><time>2026-04-12T14:28:05Z</time></trkpt><trkpt lat="45.65347007697024" lon="13.95352482929329"><ele>473.0</ele><time>2026-04-12T14:28:13Z</time></trkpt><trkpt lat="45.65340512161101" lon="13.953489367104071"><ele>472.99999999999994</ele><time>2026-04-12T14:28:15Z</time></trkpt><trkpt lat="45.65334586827691" lon="13.953456265650177"><ele>473.0</ele><time>2026-04-12T14:28:17Z</time></trkpt><trkpt lat="45.653264189393056" lon="13.95341947993363"><ele>474.0</ele><time>2026-04-12T14:28:20Z</time></trkpt><trkpt lat="45.6531746825007" lon="13.953363693211955"><ele>474.99999999999994</ele><time>2026-04-12T14:28:23Z</time></trkpt><trkpt lat="45.65310329006954" lon="13.953343874605656"><ele>475.99999999999994</ele><time>2026-04-12T14:28:25Z</time></trkpt><trkpt lat="45.65301574371242" lon="13.95331454757849"><ele>477.0</ele><time>2026-04-12T14:28:28Z</time></trkpt><trkpt lat="45.652937743447396" lon="13.9532600683934"><ele>478.0</ele><time>2026-04-12T14:28:29.999Z</time></trkpt><trkpt lat="45.65284373808809" lon="13.953194949963194"><ele>478.50000000000006</ele><time>2026-04-12T14:28:31.999Z</time></trkpt><trkpt lat="45.65275923808759" lon="13.953130615285337"><ele>479.0</ele><time>2026-04-12T14:28:33.999Z</time></trkpt><trkpt lat="45.65268651077088" lon="13.953067460753427"><ele>479.5</ele><time>2026-04-12T14:28:35.999Z</time></trkpt><trkpt lat="45.65260720587913" lon="13.953014659610542"><ele>480.0</ele><time>2026-04-12T14:28:37.999Z</time></trkpt><trkpt lat="45.652537830396085" lon="13.952966999993404"><ele>480.50000000000006</ele><time>2026-04-12T14:28:39.999Z</time></trkpt><trkpt lat="45.65246013666567" lon="13.95295468906218"><ele>481.0</ele><time>2026-04-12T14:28:41.999Z</time></trkpt><trkpt lat="45.65238205806516" lon="13.952955700984463"><ele>481.00000000000006</ele><time>2026-04-12T14:28:43.999Z</time></trkpt><trkpt lat="45.65229488806456" lon="13.952969412412953"><ele>481.0</ele><time>2026-04-12T14:28:45.999Z</time></trkpt><trkpt lat="45.652194019698456" lon="13.952949525811873"><ele>481.0</ele><time>2026-04-12T14:28:48.999Z</time></trkpt><trkpt lat="45.652104811729146" lon="13.952887214978503"><ele>481.0</ele><time>2026-04-12T14:28:50.999Z</time></trkpt><trkpt lat="45.65203011770458" lon="13.952881732738366"><ele>481.00000000000006</ele><time>2026-04-12T14:28:52.999Z</time></trkpt><trkpt lat="45.65195769186355" lon="13.952886018627117"><ele>481.0</ele><time>2026-04-12T14:28:54.999Z</time></trkpt><trkpt lat="45.651879864754655" lon="13.952910580441033"><ele>481.50000000000006</ele><time>2026-04-12T14:28:57.999Z</time></trkpt><trkpt lat="45.65181344633414" lon="13.952960410231565"><ele>482.0</ele><time>2026-04-12T14:29:00.998Z</time></trkpt><trkpt lat="45.65171113094322" lon="13.95298514478329"><ele>482.5</ele><time>2026-04-12T14:29:09.998Z</time></trkpt><trkpt lat="45.65162205702142" lon="13.953029384993144"><ele>483.0</ele><time>2026-04-12T14:29:11.998Z</time></trkpt><trkpt lat="45.65155513166799" lon="13.953051224844867"><ele>483.50000000000006</ele><time>2026-04-12T14:29:13.998Z</time></trkpt><trkpt lat="45.6514626877119" lon="13.953103724742707"><ele>484.0</ele><time>2026-04-12T14:29:16.998Z</time></trkpt><trkpt lat="45.65139830782499" lon="13.953158666917139"><ele>484.00000000000006</ele><time>2026-04-12T14:29:18.998Z</time></trkpt><trkpt lat="45.65132479511946" lon="13.953180445530137"><ele>484.0</ele><time>2026-04-12T14:29:20.998Z</time></trkpt><trkpt lat="45.651275114164896" lon="13.95324221734712"><ele>484.0</ele><time>2026-04-12T14:29:22.998Z</time></trkpt><trkpt lat="45.65117767966877" lon="13.953235610250788"><ele>484.0</ele><time>2026-04-12T14:29:26.998Z</time></trkpt><trkpt lat="45.651090808977415" lon="13.953189191121933"><ele>484.00000000000006</ele><time>2026-04-12T14:29:28.998Z</time></trkpt><trkpt lat="45.651019701008835" lon="13.953150434303467"><ele>484.0</ele><time>2026-04-12T14:29:30.998Z</time></trkpt><trkpt lat="45.65095635191208" lon="13.953152092776936"><ele>484.83333333333337</ele><time>2026-04-12T14:29:35.997Z</time></trkpt><trkpt lat="45.65089119664222" lon="13.953161848501058"><ele>485.6666666666667</ele><time>2026-04-12T14:29:38.997Z</time></trkpt><trkpt lat="45.650822550440886" lon="13.953215313903351"><ele>486.5</ele><time>2026-04-12T14:29:40.997Z</time></trkpt><trkpt lat="45.65078010390707" lon="13.953286372076132"><ele>487.33333333333337</ele><time>2026-04-12T14:29:42.997Z</time></trkpt><trkpt lat="45.65068040490219" lon="13.953305537343025"><ele>488.1666666666667</ele><time>2026-04-12T14:29:45.997Z</time></trkpt><trkpt lat="45.65059371214237" lon="13.95328483593614"><ele>489.0</ele><time>2026-04-12T14:29:47.997Z</time></trkpt><trkpt lat="45.65052640583833" lon="13.953280890241293"><ele>489.0</ele><time>2026-04-12T14:30:10Z</time></trkpt><trkpt lat="45.65059137156291" lon="13.9532486450422"><ele>489.00000000000006</ele><time>2026-04-12T14:30:21Z</time></trkpt><trkpt lat="45.65065917504653" lon="13.953282020437651"><ele>489.0</ele><time>2026-04-12T14:30:23Z</time></trkpt><trkpt lat="45.65074744186374" lon="13.953290099864851"><ele>489.0</ele><time>2026-04-12T14:30:25Z</time></trkpt><trkpt lat="45.65080436037813" lon="13.953224035051505"><ele>489.00000000000006</ele><time>2026-04-12T14:30:27Z</time></trkpt><trkpt lat="45.650852705382064" lon="13.953141508448413"><ele>489.0</ele><time>2026-04-12T14:30:29Z</time></trkpt><trkpt lat="45.65092024326385" lon="13.953134863444344"><ele>489.0</ele><time>2026-04-12T14:30:31Z</time></trkpt><trkpt lat="45.65094991084364" lon="13.953023767120564"><ele>489.0</ele><time>2026-04-12T14:30:35Z</time></trkpt><trkpt lat="45.650951271392884" lon="13.952908429740537"><ele>489.0</ele><time>2026-04-12T14:30:36.999Z</time></trkpt><trkpt lat="45.65092722444917" lon="13.952793083076598"><ele>489.0</ele><time>2026-04-12T14:30:38.999Z</time></trkpt><trkpt lat="45.6508605973576" lon="13.952775518399694"><ele>489.0</ele><time>2026-04-12T14:30:46.999Z</time></trkpt><trkpt lat="45.65076339920889" lon="13.952721839083107"><ele>489.0</ele><time>2026-04-12T14:30:49.999Z</time></trkpt><trkpt lat="45.6506885562322" lon="13.952719573054734"><ele>489.0</ele><time>2026-04-12T14:30:51.999Z</time></trkpt><trkpt lat="45.65062085966234" lon="13.952713109903785"><ele>489.0</ele><time>2026-04-12T14:30:53.999Z</time></trkpt><trkpt lat="45.650530330093304" lon="13.952683605901424"><ele>489.0</ele><time>2026-04-12T14:30:56.999Z</time></trkpt><trkpt lat="45.650436099598714" lon="13.952673409893453"><ele>489.0</ele><time>2026-04-12T14:30:58.999Z</time></trkpt><trkpt lat="45.65035714592465" lon="13.952643423021826"><ele>489.0</ele><time>2026-04-12T14:31:00.999Z</time></trkpt><trkpt lat="45.65028563965327" lon="13.952614375275257"><ele>489.0</ele><time>2026-04-12T14:31:02.999Z</time></trkpt><trkpt lat="45.65021747195627" lon="13.95256020722773"><ele>489.0</ele><time>2026-04-12T14:31:04.999Z</time></trkpt><trkpt lat="45.650145478303415" lon="13.952481136114132"><ele>489.5</ele><time>2026-04-12T14:31:06.999Z</time></trkpt><trkpt lat="45.65008891032514" lon="13.952382364969885"><ele>490.0</ele><time>2026-04-12T14:31:08.998Z</time></trkpt><trkpt lat="45.65003240663501" lon="13.952309759164084"><ele>490.5</ele><time>2026-04-12T14:31:10.998Z</time></trkpt><trkpt lat="45.64997128006076" lon="13.952275746528644"><ele>491.0</ele><time>2026-04-12T14:31:12.998Z</time></trkpt><trkpt lat="45.64988014147359" lon="13.952277463217383"><ele>491.5</ele><time>2026-04-12T14:31:14.998Z</time></trkpt><trkpt lat="45.64976554042203" lon="13.952280431519574"><ele>492.0</ele><time>2026-04-12T14:31:16.998Z</time></trkpt><trkpt lat="45.64968858537529" lon="13.9522823215373"><ele>492.0</ele><time>2026-04-12T14:31:17.998Z</time></trkpt><trkpt lat="45.649620154669776" lon="13.952306870409068"><ele>492.0</ele><time>2026-04-12T14:31:18.998Z</time></trkpt><trkpt lat="45.64955432939961" lon="13.952333025334156"><ele>492.0</ele><time>2026-04-12T14:31:19.998Z</time></trkpt><trkpt lat="45.649481355330266" lon="13.952379239192737"><ele>492.0</ele><time>2026-04-12T14:31:21.998Z</time></trkpt><trkpt lat="45.649398352844024" lon="13.95247055766423"><ele>492.0</ele><time>2026-04-12T14:31:23.998Z</time></trkpt><trkpt lat="45.64933070198128" lon="13.952558296177138"><ele>492.0</ele><time>2026-04-12T14:31:25.998Z</time></trkpt><trkpt lat="45.64926481044515" lon="13.95262738546927"><ele>492.8333333333333</ele><time>2026-04-12T14:31:28.998Z</time></trkpt><trkpt lat="45.6492133686171" lon="13.952548482598562"><ele>493.66666666666663</ele><time>2026-04-12T14:31:31.998Z</time></trkpt><trkpt lat="45.6491392661885" lon="13.95247221010404"><ele>494.5</ele><time>2026-04-12T14:31:34.998Z</time></trkpt><trkpt lat="45.64906788935513" lon="13.952365575979295"><ele>495.3333333333333</ele><time>2026-04-12T14:31:36.998Z</time></trkpt><trkpt lat="45.64899568685175" lon="13.952288829193833"><ele>496.16666666666663</ele><time>2026-04-12T14:31:38.998Z</time></trkpt><trkpt lat="45.648939797117514" lon="13.952233941762682"><ele>497.0</ele><time>2026-04-12T14:31:40.997Z</time></trkpt><trkpt lat="45.64888535324684" lon="13.952167227424491"><ele>497.49999999999994</ele><time>2026-04-12T14:31:42.997Z</time></trkpt><trkpt lat="45.648799978644135" lon="13.952112871522806"><ele>498.0</ele><time>2026-04-12T14:31:44.997Z</time></trkpt><trkpt lat="45.648738494687365" lon="13.952081635528046"><ele>498.5</ele><time>2026-04-12T14:31:46.997Z</time></trkpt><trkpt lat="45.648676089681736" lon="13.95198395667137"><ele>499.0</ele><time>2026-04-12T14:31:49.997Z</time></trkpt><trkpt lat="45.64860968877944" lon="13.951897626272876"><ele>499.49999999999994</ele><time>2026-04-12T14:31:51.997Z</time></trkpt><trkpt lat="45.64855769108017" lon="13.951805387370483"><ele>500.0</ele><time>2026-04-12T14:31:53.997Z</time></trkpt><trkpt lat="45.64848055916482" lon="13.951672103865432"><ele>501.16666666666663</ele><time>2026-04-12T14:31:55.997Z</time></trkpt><trkpt lat="45.648435248415" lon="13.951605224406647"><ele>502.3333333333333</ele><time>2026-04-12T14:31:56.997Z</time></trkpt><trkpt lat="45.648353905922825" lon="13.951536044714144"><ele>503.5</ele><time>2026-04-12T14:31:58.997Z</time></trkpt><trkpt lat="45.648248680491406" lon="13.951496700600536"><ele>504.66666666666663</ele><time>2026-04-12T14:32:00.997Z</time></trkpt><trkpt lat="45.648161948952726" lon="13.951487393612641"><ele>505.8333333333333</ele><time>2026-04-12T14:32:02.997Z</time></trkpt><trkpt lat="45.64807714065951" lon="13.951474486314567"><ele>507.0</ele><time>2026-04-12T14:32:04.997Z</time></trkpt><trkpt lat="45.64798827088731" lon="13.951477118185315"><ele>507.0</ele><time>2026-04-12T14:32:06.997Z</time></trkpt><trkpt lat="45.64790737904817" lon="13.951444449711222"><ele>507.0</ele><time>2026-04-12T14:32:08.997Z</time></trkpt><trkpt lat="45.64781518351442" lon="13.951422870553266"><ele>507.0</ele><time>2026-04-12T14:32:10.996Z</time></trkpt><trkpt lat="45.647713442541324" lon="13.95138724659803"><ele>507.0</ele><time>2026-04-12T14:32:13Z</time></trkpt><trkpt lat="45.647650847387986" lon="13.951358341956785"><ele>507.0</ele><time>2026-04-12T14:32:14Z</time></trkpt><trkpt lat="45.64755901543121" lon="13.95130044783822"><ele>507.0</ele><time>2026-04-12T14:32:16Z</time></trkpt><trkpt lat="45.647509928708175" lon="13.951239831578604"><ele>508.6</ele><time>2026-04-12T14:32:18Z</time></trkpt><trkpt lat="45.64744154866921" lon="13.951132272112792"><ele>510.20000000000005</ele><time>2026-04-12T14:32:20Z</time></trkpt><trkpt lat="45.64738821903011" lon="13.9510045998374"><ele>511.8</ele><time>2026-04-12T14:32:22Z</time></trkpt><trkpt lat="45.64735085388458" lon="13.950931185667338"><ele>513.4</ele><time>2026-04-12T14:32:23Z</time></trkpt><trkpt lat="45.647244858553066" lon="13.950830584785388"><ele>515.0</ele><time>2026-04-12T14:32:25Z</time></trkpt><trkpt lat="45.64719223696886" lon="13.950779153208817"><ele>515.1666666666666</ele><time>2026-04-12T14:32:26Z</time></trkpt><trkpt lat="45.64713699249139" lon="13.950735421777576"><ele>515.3333333333333</ele><time>2026-04-12T14:32:27Z</time></trkpt><trkpt lat="45.64704735444665" lon="13.95064654639184"><ele>515.5</ele><time>2026-04-12T14:32:29Z</time></trkpt><trkpt lat="45.64697593005322" lon="13.950568601504374"><ele>515.6666666666666</ele><time>2026-04-12T14:32:31Z</time></trkpt><trkpt lat="45.646931488857405" lon="13.950492749110893"><ele>515.8333333333334</ele><time>2026-04-12T14:32:33Z</time></trkpt><trkpt lat="45.6468567951729" lon="13.95045195674121"><ele>516.0</ele><time>2026-04-12T14:32:35Z</time></trkpt><trkpt lat="45.6467672662039" lon="13.950415454677731"><ele>517.8</ele><time>2026-04-12T14:32:37Z</time></trkpt><trkpt lat="45.646667575552335" lon="13.950373023396647"><ele>519.6</ele><time>2026-04-12T14:32:39Z</time></trkpt><trkpt lat="45.64656242213954" lon="13.950287659196567"><ele>521.4</ele><time>2026-04-12T14:32:40.999Z</time></trkpt><trkpt lat="45.646504514580286" lon="13.950235798181437"><ele>523.2</ele><time>2026-04-12T14:32:41.999Z</time></trkpt><trkpt lat="45.64641764464987" lon="13.950180185127772"><ele>525.0</ele><time>2026-04-12T14:32:43.999Z</time></trkpt><trkpt lat="45.646315231350805" lon="13.95013217698938"><ele>525.0</ele><time>2026-04-12T14:32:45.999Z</time></trkpt><trkpt lat="45.646238185466046" lon="13.950063802497592"><ele>525.0</ele><time>2026-04-12T14:32:47.999Z</time></trkpt><trkpt lat="45.64616444623329" lon="13.949983282400982"><ele>525.0</ele><time>2026-04-12T14:32:49.999Z</time></trkpt><trkpt lat="45.64608658012743" lon="13.949938105614715"><ele>525.0</ele><time>2026-04-12T14:32:51.999Z</time></trkpt><trkpt lat="45.64603851310005" lon="13.949874041602172"><ele>525.0</ele><time>2026-04-12T14:32:53.999Z</time></trkpt><trkpt lat="45.64603010612627" lon="13.949760265938918"><ele>525.0</ele><time>2026-04-12T14:32:56.999Z</time></trkpt><trkpt lat="45.64606558590249" lon="13.949659302079368"><ele>524.8333333333334</ele><time>2026-04-12T14:33:11.998Z</time></trkpt><trkpt lat="45.646115152601425" lon="13.949555561155101"><ele>524.6666666666666</ele><time>2026-04-12T14:33:15.998Z</time></trkpt><trkpt lat="45.64614324731759" lon="13.949431837148897"><ele>524.5</ele><time>2026-04-12T14:33:17.998Z</time></trkpt><trkpt lat="45.646172929022505" lon="13.949326726024637"><ele>524.3333333333333</ele><time>2026-04-12T14:33:19.998Z</time></trkpt><trkpt lat="45.646165717119736" lon="13.949233927649226"><ele>524.1666666666666</ele><time>2026-04-12T14:33:22.998Z</time></trkpt><trkpt lat="45.646157152369724" lon="13.94913772022518"><ele>524.0</ele><time>2026-04-12T14:33:30.998Z</time></trkpt><trkpt lat="45.64613275663872" lon="13.94905400345446"><ele>525.4</ele><time>2026-04-12T14:33:55.997Z</time></trkpt><trkpt lat="45.64603400681419" lon="13.949004346423646"><ele>526.8</ele><time>2026-04-12T14:34:02.997Z</time></trkpt><trkpt lat="45.64595927328788" lon="13.948934571665312"><ele>528.2</ele><time>2026-04-12T14:34:04.997Z</time></trkpt><trkpt lat="45.645876205976315" lon="13.94883496268457"><ele>529.6</ele><time>2026-04-12T14:34:06.997Z</time></trkpt><trkpt lat="45.6458104527288" lon="13.948743503679433"><ele>531.0</ele><time>2026-04-12T14:34:08.997Z</time></trkpt><trkpt lat="45.64573703411131" lon="13.948681309292718"><ele>531.0</ele><time>2026-04-12T14:34:10.997Z</time></trkpt><trkpt lat="45.64566534275232" lon="13.94861056948384"><ele>531.0</ele><time>2026-04-12T14:34:12.997Z</time></trkpt><trkpt lat="45.64560222741755" lon="13.94851751790736"><ele>531.0</ele><time>2026-04-12T14:34:14.997Z</time></trkpt><trkpt lat="45.645540721606764" lon="13.948473283256865"><ele>531.0</ele><time>2026-04-12T14:34:26Z</time></trkpt><trkpt lat="45.6454863074346" lon="13.94840994307877"><ele>531.0</ele><time>2026-04-12T14:34:28Z</time></trkpt><trkpt lat="45.64542307496008" lon="13.948357048020492"><ele>531.0</ele><time>2026-04-12T14:34:30Z</time></trkpt><trkpt lat="45.64536459919422" lon="13.948287496958214"><ele>531.1666666666666</ele><time>2026-04-12T14:34:32Z</time></trkpt><trkpt lat="45.64530245598054" lon="13.948213785890388"><ele>531.3333333333334</ele><time>2026-04-12T14:34:34Z</time></trkpt><trkpt lat="45.64522171766895" lon="13.9481498475575"><ele>531.5</ele><time>2026-04-12T14:34:36Z</time></trkpt><trkpt lat="45.64515126398305" lon="13.948123265204806"><ele>531.6666666666667</ele><time>2026-04-12T14:34:39Z</time></trkpt><trkpt lat="45.64511981229783" lon="13.947998790080666"><ele>531.8333333333334</ele><time>2026-04-12T14:34:46Z</time></trkpt><trkpt lat="45.6450967813759" lon="13.947911921380237"><ele>532.0</ele><time>2026-04-12T14:34:47.999Z</time></trkpt><trkpt lat="45.64502772860818" lon="13.947815070957963"><ele>533.2</ele><time>2026-04-12T14:34:49.999Z</time></trkpt><trkpt lat="45.644949270290184" lon="13.947749094353792"><ele>534.4000000000001</ele><time>2026-04-12T14:34:51.999Z</time></trkpt><trkpt lat="45.64486446283085" lon="13.947679014146193"><ele>535.5999999999999</ele><time>2026-04-12T14:34:53.999Z</time></trkpt><trkpt lat="45.64477378701058" lon="13.947618959492162"><ele>536.8</ele><time>2026-04-12T14:34:55.999Z</time></trkpt><trkpt lat="45.64470989028861" lon="13.947543614021692"><ele>538.0</ele><time>2026-04-12T14:34:57.999Z</time></trkpt><trkpt lat="45.64465007018039" lon="13.947430514005536"><ele>539.0</ele><time>2026-04-12T14:34:59.999Z</time></trkpt><trkpt lat="45.64458549659798" lon="13.947286541188182"><ele>540.0</ele><time>2026-04-12T14:35:01.999Z</time></trkpt><trkpt lat="45.6445355340822" lon="13.947156933290866"><ele>541.0</ele><time>2026-04-12T14:35:03.999Z</time></trkpt><trkpt lat="45.6444759979385" lon="13.947063436747147"><ele>542.0</ele><time>2026-04-12T14:35:05.999Z</time></trkpt><trkpt lat="45.6444063627775" lon="13.94698340667195"><ele>543.0</ele><time>2026-04-12T14:35:07.999Z</time></trkpt><trkpt lat="45.64436456912002" lon="13.946861749171173"><ele>543.8333333333334</ele><time>2026-04-12T14:35:09.999Z</time></trkpt><trkpt lat="45.644313167175575" lon="13.946730983901388"><ele>544.6666666666666</ele><time>2026-04-12T14:35:11.999Z</time></trkpt><trkpt lat="45.64425229956291" lon="13.946665602016665"><ele>545.5</ele><time>2026-04-12T14:35:13.999Z</time></trkpt><trkpt lat="45.644187692108815" lon="13.946656944591387"><ele>546.3333333333333</ele><time>2026-04-12T14:35:15.999Z</time></trkpt><trkpt lat="45.644107764100134" lon="13.946650199695682"><ele>547.1666666666666</ele><time>2026-04-12T14:35:18.999Z</time></trkpt><trkpt lat="45.64400557600721" lon="13.946693201471719"><ele>548.0</ele><time>2026-04-12T14:35:20.998Z</time></trkpt><trkpt lat="45.64390107083821" lon="13.94670258740959"><ele>548.1666666666666</ele><time>2026-04-12T14:35:22.998Z</time></trkpt><trkpt lat="45.64382029530043" lon="13.946692886826792"><ele>548.3333333333333</ele><time>2026-04-12T14:35:25.998Z</time></trkpt><trkpt lat="45.6437650974657" lon="13.9466479400415"><ele>548.5</ele><time>2026-04-12T14:35:27.998Z</time></trkpt><trkpt lat="45.64370988490973" lon="13.946525907500352"><ele>548.6666666666666</ele><time>2026-04-12T14:35:30.998Z</time></trkpt><trkpt lat="45.64364083724766" lon="13.946414338322654"><ele>548.8333333333334</ele><time>2026-04-12T14:35:32.998Z</time></trkpt><trkpt lat="45.64355346634419" lon="13.946357028519067"><ele>549.0</ele><time>2026-04-12T14:35:34.998Z</time></trkpt><trkpt lat="45.64346466996932" lon="13.946329513600435"><ele>550.1666666666666</ele><time>2026-04-12T14:35:36.998Z</time></trkpt><trkpt lat="45.643385270269206" lon="13.946260956479138"><ele>551.3333333333334</ele><time>2026-04-12T14:35:39.998Z</time></trkpt><trkpt lat="45.64334600060609" lon="13.946159482176899"><ele>552.5</ele><time>2026-04-12T14:35:41.998Z</time></trkpt><trkpt lat="45.64332435891557" lon="13.946031584479885"><ele>553.6666666666667</ele><time>2026-04-12T14:35:43.998Z</time></trkpt><trkpt lat="45.643299166842866" lon="13.945917855072652"><ele>554.8333333333334</ele><time>2026-04-12T14:35:46.998Z</time></trkpt><trkpt lat="45.64328218303904" lon="13.945778758390446"><ele>556.0</ele><time>2026-04-12T14:35:48.998Z</time></trkpt><trkpt lat="45.64323577086631" lon="13.945651841803048"><ele>556.8</ele><time>2026-04-12T14:35:50.998Z</time></trkpt><trkpt lat="45.643175309878295" lon="13.94553413360281"><ele>557.6</ele><time>2026-04-12T14:35:52.997Z</time></trkpt><trkpt lat="45.64309888558913" lon="13.945477100912843"><ele>558.4</ele><time>2026-04-12T14:35:54.997Z</time></trkpt><trkpt lat="45.64299317154052" lon="13.945421198533655"><ele>559.2</ele><time>2026-04-12T14:35:56.997Z</time></trkpt><trkpt lat="45.64293470660482" lon="13.94538465358218"><ele>560.0</ele><time>2026-04-12T14:35:58.997Z</time></trkpt><trkpt lat="45.64286273804621" lon="13.945290683697703"><ele>560.0</ele><time>2026-04-12T14:36:01.997Z</time></trkpt><trkpt lat="45.64281572195495" lon="13.945183360789878"><ele>560.0</ele><time>2026-04-12T14:36:03.997Z</time></trkpt><trkpt lat="45.64276890740619" lon="13.945121041995657"><ele>560.0</ele><time>2026-04-12T14:36:05.997Z</time></trkpt><trkpt lat="45.64270546486755" lon="13.945044401555013"><ele>560.0</ele><time>2026-04-12T14:36:08.997Z</time></trkpt><trkpt lat="45.64266427054764" lon="13.944973007417204"><ele>560.0</ele><time>2026-04-12T14:36:10.997Z</time></trkpt><trkpt lat="45.64260399652552" lon="13.944878782071688"><ele>560.0</ele><time>2026-04-12T14:36:19.997Z</time></trkpt><trkpt lat="45.64258063901743" lon="13.944769465918624"><ele>561.0</ele><time>2026-04-12T14:36:21.997Z</time></trkpt><trkpt lat="45.642547790337844" lon="13.94462997587407"><ele>562.0</ele><time>2026-04-12T14:36:23.996Z</time></trkpt><trkpt lat="45.642553769399846" lon="13.94449072660114"><ele>563.0</ele><time>2026-04-12T14:36:26Z</time></trkpt><trkpt lat="45.64255169502973" lon="13.94435672430591"><ele>564.0</ele><time>2026-04-12T14:36:28Z</time></trkpt><trkpt lat="45.642488723116436" lon="13.94426283496766"><ele>565.0</ele><time>2026-04-12T14:36:31Z</time></trkpt><trkpt lat="45.642389855329824" lon="13.944266134404113"><ele>565.0</ele><time>2026-04-12T14:36:33Z</time></trkpt><trkpt lat="45.64231452220145" lon="13.944277490174459"><ele>565.0</ele><time>2026-04-12T14:36:34Z</time></trkpt><trkpt lat="45.642247735700366" lon="13.944285241832192"><ele>565.0</ele><time>2026-04-12T14:36:35Z</time></trkpt><trkpt lat="45.64217811998435" lon="13.94429250848858"><ele>565.0</ele><time>2026-04-12T14:36:37Z</time></trkpt><trkpt lat="45.642106175786466" lon="13.944299428263006"><ele>565.0</ele><time>2026-04-12T14:36:39Z</time></trkpt><trkpt lat="45.642016171534706" lon="13.944298514281373"><ele>565.0</ele><time>2026-04-12T14:36:42Z</time></trkpt><trkpt lat="45.64193120947681" lon="13.944291460370614"><ele>566.1666666666667</ele><time>2026-04-12T14:36:44Z</time></trkpt><trkpt lat="45.64184660175224" lon="13.944280187553742"><ele>567.3333333333334</ele><time>2026-04-12T14:36:46Z</time></trkpt><trkpt lat="45.641768112168215" lon="13.944283435059928"><ele>568.5</ele><time>2026-04-12T14:36:48Z</time></trkpt><trkpt lat="45.6416801807513" lon="13.944297075724368"><ele>569.6666666666666</ele><time>2026-04-12T14:36:51Z</time></trkpt><trkpt lat="45.641602495822454" lon="13.944298223457249"><ele>570.8333333333333</ele><time>2026-04-12T14:36:53Z</time></trkpt><trkpt lat="45.641521051518964" lon="13.944320853832368"><ele>572.0</ele><time>2026-04-12T14:36:54.999Z</time></trkpt><trkpt lat="45.6414465034225" lon="13.944318057557858"><ele>572.0</ele><time>2026-04-12T14:36:56.999Z</time></trkpt><trkpt lat="45.641372548834354" lon="13.944312695225106"><ele>572.0</ele><time>2026-04-12T14:36:58.999Z</time></trkpt><trkpt lat="45.64129566381469" lon="13.94433421338302"><ele>572.0</ele><time>2026-04-12T14:37:00.999Z</time></trkpt><trkpt lat="45.641221169012674" lon="13.944340968674112"><ele>572.0</ele><time>2026-04-12T14:37:02.999Z</time></trkpt><trkpt lat="45.64114643824774" lon="13.944356510500315"><ele>572.0</ele><time>2026-04-12T14:37:04.999Z</time></trkpt><trkpt lat="45.64105994154791" lon="13.944363131392022"><ele>572.0</ele><time>2026-04-12T14:37:06.999Z</time></trkpt><trkpt lat="45.64098454535131" lon="13.9443814887129"><ele>574.2857142857142</ele><time>2026-04-12T14:37:08.999Z</time></trkpt><trkpt lat="45.64090741907609" lon="13.944397522439502"><ele>576.5714285714286</ele><time>2026-04-12T14:37:11.999Z</time></trkpt><trkpt lat="45.640846345279556" lon="13.94437362636957"><ele>578.8571428571429</ele><time>2026-04-12T14:37:13.999Z</time></trkpt><trkpt lat="45.640772347849534" lon="13.94434746560754"><ele>581.1428571428571</ele><time>2026-04-12T14:37:15.999Z</time></trkpt><trkpt lat="45.640705345539224" lon="13.94431979744541"><ele>583.4285714285714</ele><time>2026-04-12T14:37:22.999Z</time></trkpt><trkpt lat="45.640626229466925" lon="13.944317734224784"><ele>585.7142857142857</ele><time>2026-04-12T14:38:50Z</time></trkpt><trkpt lat="45.64054957946602" lon="13.944280488798238"><ele>588.0</ele><time>2026-04-12T14:38:52Z</time></trkpt><trkpt lat="45.64045715720112" lon="13.944251648691141"><ele>588.0</ele><time>2026-04-12T14:38:55Z</time></trkpt><trkpt lat="45.64036844293978" lon="13.944227934568982"><ele>588.0</ele><time>2026-04-12T14:38:58Z</time></trkpt><trkpt lat="45.64030576780435" lon="13.94417792666609"><ele>588.0</ele><time>2026-04-12T14:39:01Z</time></trkpt><trkpt lat="45.64023011981434" lon="13.944124882694679"><ele>588.0</ele><time>2026-04-12T14:39:03.999Z</time></trkpt><trkpt lat="45.6401728221894" lon="13.944076748133721"><ele>588.0</ele><time>2026-04-12T14:39:05.999Z</time></trkpt><trkpt lat="45.6401113749695" lon="13.944036714201381"><ele>588.0</ele><time>2026-04-12T14:39:07.999Z</time></trkpt><trkpt lat="45.64004331779268" lon="13.943989164790498"><ele>589.6666666666666</ele><time>2026-04-12T14:39:09.999Z</time></trkpt><trkpt lat="45.63996341945358" lon="13.943931042722664"><ele>591.3333333333334</ele><time>2026-04-12T14:39:11.999Z</time></trkpt><trkpt lat="45.63990375090863" lon="13.943854320016168"><ele>593.0</ele><time>2026-04-12T14:39:13.999Z</time></trkpt><trkpt lat="45.63983312401593" lon="13.94381911130051"><ele>594.6666666666667</ele><time>2026-04-12T14:39:16.999Z</time></trkpt><trkpt lat="45.63977692572391" lon="13.943775412148538"><ele>596.3333333333334</ele><time>2026-04-12T14:39:21.999Z</time></trkpt><trkpt lat="45.6397028177634" lon="13.943686192092068"><ele>598.0</ele><time>2026-04-12T14:39:23.999Z</time></trkpt><trkpt lat="45.63964940787213" lon="13.943633580327209"><ele>598.0</ele><time>2026-04-12T14:39:25.999Z</time></trkpt><trkpt lat="45.63958674132823" lon="13.94358905665545"><ele>598.0</ele><time>2026-04-12T14:39:39.998Z</time></trkpt><trkpt lat="45.639540274172155" lon="13.943515470166725"><ele>598.0</ele><time>2026-04-12T14:39:42.998Z</time></trkpt><trkpt lat="45.63948409024187" lon="13.943435322967424"><ele>598.0</ele><time>2026-04-12T14:39:46.998Z</time></trkpt><trkpt lat="45.63943156160119" lon="13.943315105437344"><ele>598.0</ele><time>2026-04-12T14:39:49.998Z</time></trkpt><trkpt lat="45.639369550396864" lon="13.943233248532135"><ele>598.0</ele><time>2026-04-12T14:39:52.998Z</time></trkpt><trkpt lat="45.639332940113874" lon="13.943127411949192"><ele>600.8333333333334</ele><time>2026-04-12T14:39:54.998Z</time></trkpt><trkpt lat="45.63927164679718" lon="13.943030376456871"><ele>603.6666666666667</ele><time>2026-04-12T14:39:56.998Z</time></trkpt><trkpt lat="45.6392159542994" lon="13.942913941088545"><ele>606.5</ele><time>2026-04-12T14:39:59.998Z</time></trkpt><trkpt lat="45.639191443709734" lon="13.94282580944206"><ele>609.3333333333334</ele><time>2026-04-12T14:40:01.998Z</time></trkpt><trkpt lat="45.63913127180265" lon="13.942727156106255"><ele>612.1666666666666</ele><time>2026-04-12T14:40:05.997Z</time></trkpt><trkpt lat="45.63910057476002" lon="13.942627567536181"><ele>615.0</ele><time>2026-04-12T14:40:07.997Z</time></trkpt><trkpt lat="45.63907176262096" lon="13.942520027425983"><ele>616.1666666666666</ele><time>2026-04-12T14:40:09.997Z</time></trkpt><trkpt lat="45.63902445915438" lon="13.94244361988894"><ele>617.3333333333334</ele><time>2026-04-12T14:40:11.997Z</time></trkpt><trkpt lat="45.63896643225146" lon="13.94237685709663"><ele>618.5</ele><time>2026-04-12T14:40:13.997Z</time></trkpt><trkpt lat="45.63891052369015" lon="13.94230338998239"><ele>619.6666666666667</ele><time>2026-04-12T14:40:15.997Z</time></trkpt><trkpt lat="45.63884602019452" lon="13.942224119184619"><ele>620.8333333333334</ele><time>2026-04-12T14:40:17.997Z</time></trkpt><trkpt lat="45.63879500257032" lon="13.942140480812002"><ele>622.0</ele><time>2026-04-12T14:40:19.997Z</time></trkpt><trkpt lat="45.63873054366052" lon="13.942065297467435"><ele>622.0</ele><time>2026-04-12T14:40:22.997Z</time></trkpt><trkpt lat="45.63866955439916" lon="13.941978714522127"><ele>622.0</ele><time>2026-04-12T14:40:25.997Z</time></trkpt><trkpt lat="45.63862144880596" lon="13.941881962031465"><ele>622.0</ele><time>2026-04-12T14:40:27.997Z</time></trkpt><trkpt lat="45.63859854039976" lon="13.941781127340153"><ele>622.0</ele><time>2026-04-12T14:40:29.997Z</time></trkpt><trkpt lat="45.63856147286925" lon="13.941647992628093"><ele>622.0</ele><time>2026-04-12T14:40:31.997Z</time></trkpt><trkpt lat="45.63853885324593" lon="13.941530753651596"><ele>622.0</ele><time>2026-04-12T14:40:33.997Z</time></trkpt><trkpt lat="45.638533188696556" lon="13.94142952617862"><ele>624.0</ele><time>2026-04-12T14:40:35.997Z</time></trkpt><trkpt lat="45.638527478850634" lon="13.941306772886325"><ele>626.0</ele><time>2026-04-12T14:40:38Z</time></trkpt><trkpt lat="45.63852039090214" lon="13.941181684002279"><ele>628.0</ele><time>2026-04-12T14:40:40Z</time></trkpt><trkpt lat="45.63851059145689" lon="13.941080740261278"><ele>630.0</ele><time>2026-04-12T14:40:42Z</time></trkpt><trkpt lat="45.63852019723138" lon="13.940951779988913"><ele>632.0</ele><time>2026-04-12T14:40:44Z</time></trkpt><trkpt lat="45.638526687937016" lon="13.940829336206972"><ele>634.0</ele><time>2026-04-12T14:40:46Z</time></trkpt><trkpt lat="45.63849832333524" lon="13.940723018420348"><ele>634.8</ele><time>2026-04-12T14:40:48Z</time></trkpt><trkpt lat="45.63846459502913" lon="13.940562707677492"><ele>635.5999999999999</ele><time>2026-04-12T14:40:51Z</time></trkpt><trkpt lat="45.63845000274219" lon="13.940455123291153"><ele>636.4</ele><time>2026-04-12T14:40:53Z</time></trkpt><trkpt lat="45.63842953262249" lon="13.94032669626051"><ele>637.1999999999999</ele><time>2026-04-12T14:40:55Z</time></trkpt><trkpt lat="45.6384174701005" lon="13.940187001801563"><ele>638.0</ele><time>2026-04-12T14:40:57Z</time></trkpt><trkpt lat="45.63841818809693" lon="13.940058831428468"><ele>639.2</ele><time>2026-04-12T14:40:59Z</time></trkpt><trkpt lat="45.63841927903499" lon="13.939931966107833"><ele>640.4</ele><time>2026-04-12T14:41:01Z</time></trkpt><trkpt lat="45.63839998800111" lon="13.939766712668181"><ele>641.6</ele><time>2026-04-12T14:41:03Z</time></trkpt><trkpt lat="45.638387533248014" lon="13.939619988678368"><ele>642.8000000000001</ele><time>2026-04-12T14:41:05Z</time></trkpt><trkpt lat="45.638368645506446" lon="13.939467078968894"><ele>644.0</ele><time>2026-04-12T14:41:07Z</time></trkpt><trkpt lat="45.638348567617534" lon="13.939330223268604"><ele>644.8000000000001</ele><time>2026-04-12T14:41:08.999Z</time></trkpt><trkpt lat="45.63834054802592" lon="13.939181814258351"><ele>645.6</ele><time>2026-04-12T14:41:10.999Z</time></trkpt><trkpt lat="45.63833796188184" lon="13.939034424781445"><ele>646.4</ele><time>2026-04-12T14:41:12.999Z</time></trkpt><trkpt lat="45.638349398240805" lon="13.938896886010204"><ele>647.2</ele><time>2026-04-12T14:41:14.999Z</time></trkpt><trkpt lat="45.63835899014492" lon="13.938773697376417"><ele>648.0</ele><time>2026-04-12T14:41:16.999Z</time></trkpt><trkpt lat="45.63834417882947" lon="13.938625249282353"><ele>648.0</ele><time>2026-04-12T14:41:18.999Z</time></trkpt><trkpt lat="45.63830337989387" lon="13.938549914270864"><ele>648.0</ele><time>2026-04-12T14:41:19.999Z</time></trkpt><trkpt lat="45.638285698595396" lon="13.93843570492123"><ele>648.0</ele><time>2026-04-12T14:41:20.999Z</time></trkpt><trkpt lat="45.63826339381303" lon="13.938327437734879"><ele>648.0</ele><time>2026-04-12T14:41:21.999Z</time></trkpt><trkpt lat="45.638230378172125" lon="13.938220878783167"><ele>648.0</ele><time>2026-04-12T14:41:22.999Z</time></trkpt><trkpt lat="45.638200901964915" lon="13.938113906196623"><ele>648.0</ele><time>2026-04-12T14:41:23.999Z</time></trkpt><trkpt lat="45.638167054941114" lon="13.93801516570541"><ele>648.8333333333334</ele><time>2026-04-12T14:41:24.999Z</time></trkpt><trkpt lat="45.63813933901546" lon="13.937933121688447"><ele>649.6666666666666</ele><time>2026-04-12T14:41:25.999Z</time></trkpt><trkpt lat="45.63810761529759" lon="13.93784556961125"><ele>650.5</ele><time>2026-04-12T14:41:26.999Z</time></trkpt><trkpt lat="45.63805859341013" lon="13.937689631925366"><ele>651.3333333333333</ele><time>2026-04-12T14:41:28.999Z</time></trkpt><trkpt lat="45.63799941417952" lon="13.93753423098771"><ele>652.1666666666666</ele><time>2026-04-12T14:41:30.999Z</time></trkpt><trkpt lat="45.63795137338153" lon="13.937460278444398"><ele>653.0</ele><time>2026-04-12T14:41:31.999Z</time></trkpt><trkpt lat="45.637920053156336" lon="13.937357864569044"><ele>654.1666666666666</ele><time>2026-04-12T14:41:32.999Z</time></trkpt><trkpt lat="45.63787229348774" lon="13.937257198158932"><ele>655.3333333333333</ele><time>2026-04-12T14:41:33.999Z</time></trkpt><trkpt lat="45.63782782828516" lon="13.937142186632556"><ele>656.5</ele><time>2026-04-12T14:41:34.999Z</time></trkpt><trkpt lat="45.637788272730816" lon="13.93704705994956"><ele>657.6666666666666</ele><time>2026-04-12T14:41:35.999Z</time></trkpt><trkpt lat="45.63775559376625" lon="13.936958303441248"><ele>658.8333333333334</ele><time>2026-04-12T14:41:36.999Z</time></trkpt><trkpt lat="45.637727333538415" lon="13.936868065355146"><ele>660.0</ele><time>2026-04-12T14:41:37.999Z</time></trkpt><trkpt lat="45.63768537703824" lon="13.936716088576784"><ele>660.6</ele><time>2026-04-12T14:41:39.998Z</time></trkpt><trkpt lat="45.6376493865237" lon="13.936630106721896"><ele>661.2</ele><time>2026-04-12T14:41:40.998Z</time></trkpt><trkpt lat="45.63757758900761" lon="13.936487684321309"><ele>661.8</ele><time>2026-04-12T14:41:42.998Z</time></trkpt><trkpt lat="45.63749042281872" lon="13.936378990367224"><ele>662.4</ele><time>2026-04-12T14:41:44.998Z</time></trkpt><trkpt lat="45.637428369925814" lon="13.936301782893585"><ele>663.0</ele><time>2026-04-12T14:41:46.998Z</time></trkpt><trkpt lat="45.63736492725965" lon="13.936231366203883"><ele>663.0</ele><time>2026-04-12T14:41:48.998Z</time></trkpt><trkpt lat="45.63726648932756" lon="13.93625628813026"><ele>663.0</ele><time>2026-04-12T14:41:51.998Z</time></trkpt><trkpt lat="45.63717678386187" lon="13.93639280380765"><ele>663.0</ele><time>2026-04-12T14:41:53.998Z</time></trkpt><trkpt lat="45.63711826509873" lon="13.936472900632118"><ele>663.0</ele><time>2026-04-12T14:41:54.998Z</time></trkpt><trkpt lat="45.637051522557385" lon="13.936548762475942"><ele>663.0</ele><time>2026-04-12T14:41:55.998Z</time></trkpt><trkpt lat="45.636993888024044" lon="13.93659922085464"><ele>662.8333333333334</ele><time>2026-04-12T14:41:56.998Z</time></trkpt><trkpt lat="45.63689979434408" lon="13.936690499188769"><ele>662.6666666666666</ele><time>2026-04-12T14:41:58.998Z</time></trkpt><trkpt lat="45.636847779856815" lon="13.936752464670146"><ele>662.5</ele><time>2026-04-12T14:41:59.998Z</time></trkpt><trkpt lat="45.63678340824816" lon="13.936819569320239"><ele>662.3333333333333</ele><time>2026-04-12T14:42:00.998Z</time></trkpt><trkpt lat="45.63671574103636" lon="13.936891159196048"><ele>662.1666666666666</ele><time>2026-04-12T14:42:01.998Z</time></trkpt><trkpt lat="45.636640158149135" lon="13.936962821636945"><ele>662.0</ele><time>2026-04-12T14:42:02.998Z</time></trkpt><trkpt lat="45.6365540728338" lon="13.93700822742155"><ele>661.8333333333333</ele><time>2026-04-12T14:42:03.998Z</time></trkpt><trkpt lat="45.63647880963871" lon="13.937072809295717"><ele>661.6666666666666</ele><time>2026-04-12T14:42:04.998Z</time></trkpt><trkpt lat="45.636406334694364" lon="13.93713345133785"><ele>661.5</ele><time>2026-04-12T14:42:05.998Z</time></trkpt><trkpt lat="45.636338667579636" lon="13.937213123017997"><ele>661.3333333333334</ele><time>2026-04-12T14:42:06.998Z</time></trkpt><trkpt lat="45.63626241807955" lon="13.937263457047491"><ele>661.1666666666667</ele><time>2026-04-12T14:42:07.998Z</time></trkpt><trkpt lat="45.63619337476987" lon="13.937319913962934"><ele>661.0</ele><time>2026-04-12T14:42:08.998Z</time></trkpt><trkpt lat="45.636121813278685" lon="13.937385834174792"><ele>661.0</ele><time>2026-04-12T14:42:09.998Z</time></trkpt><trkpt lat="45.63604951530392" lon="13.937455619874141"><ele>661.0</ele><time>2026-04-12T14:42:10.997Z</time></trkpt><trkpt lat="45.63598241532588" lon="13.937512106477136"><ele>661.0</ele><time>2026-04-12T14:42:11.997Z</time></trkpt><trkpt lat="45.63591494377996" lon="13.937562142227383"><ele>661.0</ele><time>2026-04-12T14:42:12.997Z</time></trkpt><trkpt lat="45.63585315527979" lon="13.937611799798251"><ele>661.0</ele><time>2026-04-12T14:42:13.997Z</time></trkpt><trkpt lat="45.63579021824344" lon="13.937661286973222"><ele>661.0</ele><time>2026-04-12T14:42:14.997Z</time></trkpt><trkpt lat="45.63572658229239" lon="13.937706604735794"><ele>660.8333333333334</ele><time>2026-04-12T14:42:15.997Z</time></trkpt><trkpt lat="45.63561534393788" lon="13.937796674615738"><ele>660.6666666666667</ele><time>2026-04-12T14:42:17.997Z</time></trkpt><trkpt lat="45.63555300785922" lon="13.93783762013179"><ele>660.5</ele><time>2026-04-12T14:42:18.997Z</time></trkpt><trkpt lat="45.635485215705195" lon="13.93787659850967"><ele>660.3333333333334</ele><time>2026-04-12T14:42:19.997Z</time></trkpt><trkpt lat="45.635408669736904" lon="13.937892859157538"><ele>660.1666666666666</ele><time>2026-04-12T14:42:20.997Z</time></trkpt><trkpt lat="45.63533480299348" lon="13.937923464780622"><ele>660.0</ele><time>2026-04-12T14:42:21.997Z</time></trkpt><trkpt lat="45.63525417199749" lon="13.937957841424769"><ele>660.0</ele><time>2026-04-12T14:42:22.997Z</time></trkpt><trkpt lat="45.63518096995156" lon="13.937990847040043"><ele>660.0</ele><time>2026-04-12T14:42:23.997Z</time></trkpt><trkpt lat="45.63511749184837" lon="13.938019468286447"><ele>660.0</ele><time>2026-04-12T14:42:24.997Z</time></trkpt><trkpt lat="45.63505649437825" lon="13.938046971055439"><ele>660.0</ele><time>2026-04-12T14:42:25.997Z</time></trkpt><trkpt lat="45.634939368925295" lon="13.938099781022865"><ele>660.0</ele><time>2026-04-12T14:42:27.997Z</time></trkpt><trkpt lat="45.63482256611008" lon="13.938151516948686"><ele>660.0</ele><time>2026-04-12T14:42:29.997Z</time></trkpt><trkpt lat="45.63476189860072" lon="13.938178371782017"><ele>660.0</ele><time>2026-04-12T14:42:30.997Z</time></trkpt><trkpt lat="45.63464677759296" lon="13.93822902680932"><ele>660.0</ele><time>2026-04-12T14:42:32.997Z</time></trkpt><trkpt lat="45.634540698240535" lon="13.93827518186221"><ele>660.0</ele><time>2026-04-12T14:42:34.997Z</time></trkpt><trkpt lat="45.63443918545991" lon="13.938341631711845"><ele>660.0</ele><time>2026-04-12T14:42:36.997Z</time></trkpt><trkpt lat="45.63432566372298" lon="13.938388477148964"><ele>660.0</ele><time>2026-04-12T14:42:38.997Z</time></trkpt><trkpt lat="45.634213277580635" lon="13.938419229509066"><ele>660.0</ele><time>2026-04-12T14:42:40.997Z</time></trkpt><trkpt lat="45.634105138491" lon="13.93845066219892"><ele>660.0</ele><time>2026-04-12T14:42:43Z</time></trkpt><trkpt lat="45.63399451397739" lon="13.93845563810723"><ele>660.0</ele><time>2026-04-12T14:42:45Z</time></trkpt><trkpt lat="45.63388407891551" lon="13.938450297582872"><ele>660.0</ele><time>2026-04-12T14:42:47Z</time></trkpt><trkpt lat="45.633760851666935" lon="13.938437234809022"><ele>660.0</ele><time>2026-04-12T14:42:49Z</time></trkpt><trkpt lat="45.63368729069836" lon="13.938431774574035"><ele>660.0</ele><time>2026-04-12T14:42:50Z</time></trkpt><trkpt lat="45.63362166327299" lon="13.93843177457157"><ele>660.0</ele><time>2026-04-12T14:42:51Z</time></trkpt><trkpt lat="45.6335537588038" lon="13.938437286958038"><ele>660.0</ele><time>2026-04-12T14:42:52Z</time></trkpt><trkpt lat="45.6334251925275" lon="13.938453276017585"><ele>660.0</ele><time>2026-04-12T14:42:54Z</time></trkpt><trkpt lat="45.63336376399142" lon="13.938491376748168"><ele>660.0</ele><time>2026-04-12T14:42:55Z</time></trkpt><trkpt lat="45.633300272795495" lon="13.938510458005524"><ele>658.8571428571429</ele><time>2026-04-12T14:42:56Z</time></trkpt><trkpt lat="45.633239302065526" lon="13.938541738966789"><ele>657.7142857142858</ele><time>2026-04-12T14:42:57Z</time></trkpt><trkpt lat="45.63317827914266" lon="13.938570878247747"><ele>656.5714285714287</ele><time>2026-04-12T14:42:58Z</time></trkpt><trkpt lat="45.63312095950828" lon="13.938618358478662"><ele>655.4285714285714</ele><time>2026-04-12T14:42:59Z</time></trkpt><trkpt lat="45.633061689629834" lon="13.938665413891668"><ele>654.2857142857142</ele><time>2026-04-12T14:43:00Z</time></trkpt><trkpt lat="45.63300119417001" lon="13.938710525248972"><ele>653.1428571428572</ele><time>2026-04-12T14:43:01Z</time></trkpt><trkpt lat="45.632943056089296" lon="13.938756658978443"><ele>652.0</ele><time>2026-04-12T14:43:02Z</time></trkpt><trkpt lat="45.632884621425745" lon="13.938805650164618"><ele>649.0</ele><time>2026-04-12T14:43:03Z</time></trkpt><trkpt lat="45.63277757202849" lon="13.938886991276545"><ele>646.0</ele><time>2026-04-12T14:43:05Z</time></trkpt><trkpt lat="45.632667099553345" lon="13.93896707033973"><ele>643.0</ele><time>2026-04-12T14:43:07Z</time></trkpt><trkpt lat="45.63260697666013" lon="13.93900757858707"><ele>640.0</ele><time>2026-04-12T14:43:08Z</time></trkpt><trkpt lat="45.632547900479345" lon="13.939044678484198"><ele>637.0</ele><time>2026-04-12T14:43:09Z</time></trkpt><trkpt lat="45.63243913474358" lon="13.939109011782024"><ele>637.0</ele><time>2026-04-12T14:43:11Z</time></trkpt><trkpt lat="45.632331613695136" lon="13.939173699177395"><ele>637.0</ele><time>2026-04-12T14:43:12.999Z</time></trkpt><trkpt lat="45.632221970517435" lon="13.939253286495594"><ele>637.0</ele><time>2026-04-12T14:43:14.999Z</time></trkpt><trkpt lat="45.63216004937968" lon="13.939271745878708"><ele>637.0</ele><time>2026-04-12T14:43:15.999Z</time></trkpt><trkpt lat="45.63211119118377" lon="13.939329004927883"><ele>637.0</ele><time>2026-04-12T14:43:16.999Z</time></trkpt><trkpt lat="45.63199604428182" lon="13.93940411681616"><ele>637.0</ele><time>2026-04-12T14:43:18.999Z</time></trkpt><trkpt lat="45.631935565982396" lon="13.939444095261695"><ele>637.0</ele><time>2026-04-12T14:43:19.999Z</time></trkpt><trkpt lat="45.6318751038789" lon="13.939491435235814"><ele>637.0</ele><time>2026-04-12T14:43:20.999Z</time></trkpt><trkpt lat="45.63181087718698" lon="13.939539385261726"><ele>637.0</ele><time>2026-04-12T14:43:21.999Z</time></trkpt><trkpt lat="45.63173767258509" lon="13.939597243503194"><ele>637.0</ele><time>2026-04-12T14:43:22.999Z</time></trkpt><trkpt lat="45.63166159302714" lon="13.939659166639204"><ele>637.0</ele><time>2026-04-12T14:43:23.999Z</time></trkpt><trkpt lat="45.631598637075555" lon="13.939702633348718"><ele>637.0</ele><time>2026-04-12T14:43:24.999Z</time></trkpt><trkpt lat="45.63153933804771" lon="13.939752927791055"><ele>637.0</ele><time>2026-04-12T14:43:25.999Z</time></trkpt><trkpt lat="45.631479570361655" lon="13.939808575493887"><ele>637.0</ele><time>2026-04-12T14:43:26.999Z</time></trkpt><trkpt lat="45.63142193491468" lon="13.939859018119748"><ele>637.0</ele><time>2026-04-12T14:43:27.999Z</time></trkpt><trkpt lat="45.63136662618807" lon="13.93991343596371"><ele>637.0</ele><time>2026-04-12T14:43:28.999Z</time></trkpt><trkpt lat="45.631297967530074" lon="13.939952379553588"><ele>637.0</ele><time>2026-04-12T14:43:29.999Z</time></trkpt><trkpt lat="45.63124078889301" lon="13.940035837565471"><ele>637.0</ele><time>2026-04-12T14:43:30.999Z</time></trkpt><trkpt lat="45.63117197051675" lon="13.940096065846172"><ele>637.0</ele><time>2026-04-12T14:43:31.999Z</time></trkpt><trkpt lat="45.63110830566801" lon="13.940153605347945"><ele>636.1666666666667</ele><time>2026-04-12T14:43:32.999Z</time></trkpt><trkpt lat="45.63103666959744" lon="13.940209791966064"><ele>635.3333333333334</ele><time>2026-04-12T14:43:33.999Z</time></trkpt><trkpt lat="45.63097095560969" lon="13.94025981658762"><ele>634.5</ele><time>2026-04-12T14:43:34.999Z</time></trkpt><trkpt lat="45.630904879477164" lon="13.940312730819564"><ele>633.6666666666666</ele><time>2026-04-12T14:43:35.999Z</time></trkpt><trkpt lat="45.630844629182725" lon="13.940360839350493"><ele>632.8333333333333</ele><time>2026-04-12T14:43:36.999Z</time></trkpt><trkpt lat="45.63078309552875" lon="13.940399743449726"><ele>632.0</ele><time>2026-04-12T14:43:37.999Z</time></trkpt><trkpt lat="45.63066933984254" lon="13.94047604533644"><ele>632.0000000000001</ele><time>2026-04-12T14:43:39.999Z</time></trkpt><trkpt lat="45.63060524423268" lon="13.940510260522416"><ele>632.0</ele><time>2026-04-12T14:43:40.999Z</time></trkpt><trkpt lat="45.63054096552294" lon="13.940543408542723"><ele>632.0</ele><time>2026-04-12T14:43:41.999Z</time></trkpt><trkpt lat="45.63047245954696" lon="13.94057986183883"><ele>632.0</ele><time>2026-04-12T14:43:42.999Z</time></trkpt><trkpt lat="45.630399620171126" lon="13.940615749823861"><ele>632.0</ele><time>2026-04-12T14:43:43.998Z</time></trkpt><trkpt lat="45.63032545716662" lon="13.940653163920455"><ele>632.0000000000001</ele><time>2026-04-12T14:43:44.998Z</time></trkpt><trkpt lat="45.630254454253496" lon="13.940690081246052"><ele>632.0</ele><time>2026-04-12T14:43:45.998Z</time></trkpt><trkpt lat="45.630177794579666" lon="13.94072474632334"><ele>632.3333333333333</ele><time>2026-04-12T14:43:46.998Z</time></trkpt><trkpt lat="45.63009446728916" lon="13.940765713178383"><ele>632.6666666666666</ele><time>2026-04-12T14:43:47.998Z</time></trkpt><trkpt lat="45.63001301656718" lon="13.940804271011745"><ele>633.0</ele><time>2026-04-12T14:43:48.998Z</time></trkpt><trkpt lat="45.629939725806125" lon="13.940846197717674"><ele>633.3333333333334</ele><time>2026-04-12T14:43:49.998Z</time></trkpt><trkpt lat="45.62985717726236" lon="13.940897602912576"><ele>633.6666666666667</ele><time>2026-04-12T14:43:50.998Z</time></trkpt><trkpt lat="45.629772477032574" lon="13.94094035777597"><ele>634.0</ele><time>2026-04-12T14:43:51.998Z</time></trkpt><trkpt lat="45.629685287950224" lon="13.940999108525471"><ele>634.0</ele><time>2026-04-12T14:43:52.998Z</time></trkpt><trkpt lat="45.62960446431946" lon="13.94105107871109"><ele>634.0</ele><time>2026-04-12T14:43:53.998Z</time></trkpt><trkpt lat="45.62952575243207" lon="13.941100194523667"><ele>634.0</ele><time>2026-04-12T14:43:54.998Z</time></trkpt><trkpt lat="45.629446940289014" lon="13.94114541915414"><ele>634.0</ele><time>2026-04-12T14:43:55.998Z</time></trkpt><trkpt lat="45.62936697378406" lon="13.941191771208285"><ele>634.0</ele><time>2026-04-12T14:43:56.998Z</time></trkpt><trkpt lat="45.629289353741676" lon="13.941228355505274"><ele>634.0</ele><time>2026-04-12T14:43:57.998Z</time></trkpt><trkpt lat="45.62921282252766" lon="13.94127069614516"><ele>632.5</ele><time>2026-04-12T14:43:58.998Z</time></trkpt><trkpt lat="45.62914159247852" lon="13.941315751906316"><ele>631.0</ele><time>2026-04-12T14:43:59.998Z</time></trkpt><trkpt lat="45.62906771929911" lon="13.94136863794385"><ele>629.5</ele><time>2026-04-12T14:44:00.998Z</time></trkpt><trkpt lat="45.628999163657966" lon="13.941419181356641"><ele>628.0</ele><time>2026-04-12T14:44:01.998Z</time></trkpt><trkpt lat="45.628935026084214" lon="13.94148819986742"><ele>626.5</ele><time>2026-04-12T14:44:02.998Z</time></trkpt><trkpt lat="45.62886665022497" lon="13.941556350913645"><ele>625.0</ele><time>2026-04-12T14:44:03.998Z</time></trkpt><trkpt lat="45.62879904322392" lon="13.941634218081637"><ele>625.0</ele><time>2026-04-12T14:44:04.998Z</time></trkpt><trkpt lat="45.628729276256834" lon="13.941710651121275"><ele>625.0</ele><time>2026-04-12T14:44:05.998Z</time></trkpt><trkpt lat="45.62866169530749" lon="13.941790975015442"><ele>625.0</ele><time>2026-04-12T14:44:06.998Z</time></trkpt><trkpt lat="45.62859448751063" lon="13.941869257995574"><ele>625.0</ele><time>2026-04-12T14:44:07.998Z</time></trkpt><trkpt lat="45.62853258308658" lon="13.941939661412768"><ele>625.0</ele><time>2026-04-12T14:44:08.998Z</time></trkpt><trkpt lat="45.628473831085216" lon="13.941998938880394"><ele>625.0</ele><time>2026-04-12T14:44:09.998Z</time></trkpt><trkpt lat="45.62841015927531" lon="13.942052522283594"><ele>624.5</ele><time>2026-04-12T14:44:11.998Z</time></trkpt><trkpt lat="45.62834744809232" lon="13.942099910193148"><ele>624.0</ele><time>2026-04-12T14:44:19.997Z</time></trkpt><trkpt lat="45.628275686952136" lon="13.942151287880634"><ele>623.5</ele><time>2026-04-12T14:44:27.997Z</time></trkpt><trkpt lat="45.6281544930109" lon="13.942195413742583"><ele>623.0</ele><time>2026-04-12T14:44:29.997Z</time></trkpt><trkpt lat="45.62808112693671" lon="13.942242332309146"><ele>622.5</ele><time>2026-04-12T14:44:30.997Z</time></trkpt><trkpt lat="45.62802300153846" lon="13.942278367211838"><ele>622.0</ele><time>2026-04-12T14:44:31.997Z</time></trkpt><trkpt lat="45.62796230440001" lon="13.94231021787019"><ele>622.0</ele><time>2026-04-12T14:44:32.997Z</time></trkpt><trkpt lat="45.62789193260851" lon="13.942335555750972"><ele>622.0</ele><time>2026-04-12T14:44:33.997Z</time></trkpt><trkpt lat="45.62777316593339" lon="13.942339513444386"><ele>622.0</ele><time>2026-04-12T14:44:35.997Z</time></trkpt><trkpt lat="45.62771167173274" lon="13.942319483155346"><ele>622.0</ele><time>2026-04-12T14:44:36.997Z</time></trkpt><trkpt lat="45.62764948758095" lon="13.94228055330413"><ele>622.0</ele><time>2026-04-12T14:44:37.997Z</time></trkpt><trkpt lat="45.62758486942515" lon="13.942227071242325"><ele>622.0</ele><time>2026-04-12T14:44:38.997Z</time></trkpt><trkpt lat="45.6275137651574" lon="13.942162283873142"><ele>622.0</ele><time>2026-04-12T14:44:39.997Z</time></trkpt><trkpt lat="45.62745092097154" lon="13.942087363534618"><ele>622.0</ele><time>2026-04-12T14:44:40.997Z</time></trkpt><trkpt lat="45.62739269880519" lon="13.94200360603326"><ele>622.0</ele><time>2026-04-12T14:44:41.997Z</time></trkpt><trkpt lat="45.627342851906405" lon="13.941916423899038"><ele>622.0</ele><time>2026-04-12T14:44:42.997Z</time></trkpt><trkpt lat="45.627304092672084" lon="13.941828811132204"><ele>622.0</ele><time>2026-04-12T14:44:43.997Z</time></trkpt><trkpt lat="45.62726975576268" lon="13.941727170039462"><ele>622.0</ele><time>2026-04-12T14:44:44.997Z</time></trkpt><trkpt lat="45.62723556626038" lon="13.941614839927714"><ele>622.0</ele><time>2026-04-12T14:44:45.997Z</time></trkpt><trkpt lat="45.627192670599" lon="13.941464417708797"><ele>622.0</ele><time>2026-04-12T14:44:46.996Z</time></trkpt><trkpt lat="45.62716107515804" lon="13.941340883662479"><ele>622.0</ele><time>2026-04-12T14:44:47.996Z</time></trkpt><trkpt lat="45.62713547873904" lon="13.94123638949298"><ele>622.0</ele><time>2026-04-12T14:44:49Z</time></trkpt><trkpt lat="45.62710890409882" lon="13.941116634294374"><ele>622.0</ele><time>2026-04-12T14:44:50Z</time></trkpt><trkpt lat="45.62708514871848" lon="13.941009583838346"><ele>622.0</ele><time>2026-04-12T14:44:51Z</time></trkpt><trkpt lat="45.62704365625413" lon="13.940897047353916"><ele>621.1666666666667</ele><time>2026-04-12T14:44:52Z</time></trkpt><trkpt lat="45.627019964486195" lon="13.940774608548699"><ele>620.3333333333334</ele><time>2026-04-12T14:44:53Z</time></trkpt><trkpt lat="45.62699262204571" lon="13.940645385064636"><ele>619.5</ele><time>2026-04-12T14:44:54Z</time></trkpt><trkpt lat="45.62696992039684" lon="13.940516531686743"><ele>618.6666666666666</ele><time>2026-04-12T14:44:55Z</time></trkpt><trkpt lat="45.62694487520677" lon="13.94039537664952"><ele>617.8333333333333</ele><time>2026-04-12T14:44:56Z</time></trkpt><trkpt lat="45.62691782310922" lon="13.940288145039142"><ele>617.0</ele><time>2026-04-12T14:44:57Z</time></trkpt><trkpt lat="45.626899443227465" lon="13.94015773594642"><ele>620.8000000000001</ele><time>2026-04-12T14:44:58Z</time></trkpt><trkpt lat="45.626864065583916" lon="13.94002021893805"><ele>624.6</ele><time>2026-04-12T14:44:59Z</time></trkpt><trkpt lat="45.626832021807495" lon="13.939903179612882"><ele>628.4000000000001</ele><time>2026-04-12T14:45:00Z</time></trkpt><trkpt lat="45.62679273115614" lon="13.93977404127747"><ele>632.2</ele><time>2026-04-12T14:45:01Z</time></trkpt><trkpt lat="45.626755165943834" lon="13.939658299800438"><ele>636.0</ele><time>2026-04-12T14:45:02Z</time></trkpt><trkpt lat="45.626707134662894" lon="13.939554369318019"><ele>636.0</ele><time>2026-04-12T14:45:03Z</time></trkpt><trkpt lat="45.62667386965143" lon="13.939445887861849"><ele>636.0</ele><time>2026-04-12T14:45:04Z</time></trkpt><trkpt lat="45.62664179678184" lon="13.939339820243443"><ele>636.0</ele><time>2026-04-12T14:45:05Z</time></trkpt><trkpt lat="45.626605901428306" lon="13.939243799045748"><ele>636.0</ele><time>2026-04-12T14:45:06Z</time></trkpt><trkpt lat="45.62656902114108" lon="13.939140114309804"><ele>636.0</ele><time>2026-04-12T14:45:07Z</time></trkpt><trkpt lat="45.62654337936666" lon="13.939015042543309"><ele>636.0</ele><time>2026-04-12T14:45:08Z</time></trkpt><trkpt lat="45.62649548102206" lon="13.938922357696299"><ele>635.3333333333334</ele><time>2026-04-12T14:45:09Z</time></trkpt><trkpt lat="45.626473112348364" lon="13.938814162178572"><ele>634.6666666666666</ele><time>2026-04-12T14:45:10Z</time></trkpt><trkpt lat="45.62643783944134" lon="13.938720030216514"><ele>634.0</ele><time>2026-04-12T14:45:11Z</time></trkpt><trkpt lat="45.626389524869445" lon="13.93860466968602"><ele>633.3333333333333</ele><time>2026-04-12T14:45:12Z</time></trkpt><trkpt lat="45.62633022807905" lon="13.93851622776818"><ele>632.6666666666666</ele><time>2026-04-12T14:45:13Z</time></trkpt><trkpt lat="45.62628268190946" lon="13.938428000340576"><ele>632.0</ele><time>2026-04-12T14:45:14Z</time></trkpt><trkpt lat="45.62623107128536" lon="13.938345042047466"><ele>631.7142857142858</ele><time>2026-04-12T14:45:15Z</time></trkpt><trkpt lat="45.62618095644896" lon="13.938275475202532"><ele>631.4285714285714</ele><time>2026-04-12T14:45:16Z</time></trkpt><trkpt lat="45.626130541281285" lon="13.93821818105615"><ele>631.1428571428571</ele><time>2026-04-12T14:45:17Z</time></trkpt><trkpt lat="45.6260730973579" lon="13.938165827475599"><ele>630.8571428571429</ele><time>2026-04-12T14:45:18Z</time></trkpt><trkpt lat="45.62601538282698" lon="13.938105287979733"><ele>630.5714285714286</ele><time>2026-04-12T14:45:18.999Z</time></trkpt><trkpt lat="45.62594052847258" lon="13.938099140454643"><ele>630.2857142857143</ele><time>2026-04-12T14:45:19.999Z</time></trkpt><trkpt lat="45.62585227229883" lon="13.93810930031544"><ele>630.0</ele><time>2026-04-12T14:45:20.999Z</time></trkpt><trkpt lat="45.62574870961636" lon="13.938116108786371"><ele>630.0</ele><time>2026-04-12T14:45:21.999Z</time></trkpt><trkpt lat="45.625658184077665" lon="13.938130135520911"><ele>630.0</ele><time>2026-04-12T14:45:22.999Z</time></trkpt><trkpt lat="45.62557812836528" lon="13.938140770284726"><ele>630.0</ele><time>2026-04-12T14:45:23.999Z</time></trkpt><trkpt lat="45.62549657600638" lon="13.938158012479516"><ele>630.0</ele><time>2026-04-12T14:45:24.999Z</time></trkpt><trkpt lat="45.625420756571046" lon="13.938146799472763"><ele>630.0</ele><time>2026-04-12T14:45:25.999Z</time></trkpt><trkpt lat="45.62535045272217" lon="13.938158432886958"><ele>630.0</ele><time>2026-04-12T14:45:26.999Z</time></trkpt><trkpt lat="45.62528109227847" lon="13.938169910191188"><ele>629.8</ele><time>2026-04-12T14:45:27.999Z</time></trkpt><trkpt lat="45.625212327160106" lon="13.938181306104838"><ele>629.6</ele><time>2026-04-12T14:45:28.999Z</time></trkpt><trkpt lat="45.625079378776405" lon="13.938175656475027"><ele>629.4</ele><time>2026-04-12T14:45:30.999Z</time></trkpt><trkpt lat="45.625003903554756" lon="13.938158135485027"><ele>629.2</ele><time>2026-04-12T14:45:31.999Z</time></trkpt><trkpt lat="45.6249166890314" lon="13.938109056764374"><ele>629.0</ele><time>2026-04-12T14:45:32.999Z</time></trkpt><trkpt lat="45.6248392821746" lon="13.938020430338891"><ele>629.0</ele><time>2026-04-12T14:45:33.999Z</time></trkpt><trkpt lat="45.62476526665983" lon="13.937954693747448"><ele>629.0</ele><time>2026-04-12T14:45:34.999Z</time></trkpt><trkpt lat="45.624690049920126" lon="13.937882247190904"><ele>629.0</ele><time>2026-04-12T14:45:35.999Z</time></trkpt><trkpt lat="45.62461473642912" lon="13.937802447355145"><ele>629.0</ele><time>2026-04-12T14:45:36.999Z</time></trkpt><trkpt lat="45.6245483293664" lon="13.937726669741904"><ele>629.0</ele><time>2026-04-12T14:45:37.999Z</time></trkpt><trkpt lat="45.624483309966095" lon="13.937645635465922"><ele>629.0</ele><time>2026-04-12T14:45:38.999Z</time></trkpt><trkpt lat="45.62442015095907" lon="13.937563338420144"><ele>629.8333333333333</ele><time>2026-04-12T14:45:39.999Z</time></trkpt><trkpt lat="45.62435740651652" lon="13.937478710635629"><ele>630.6666666666666</ele><time>2026-04-12T14:45:40.999Z</time></trkpt><trkpt lat="45.62429539976379" lon="13.937394306108631"><ele>631.5</ele><time>2026-04-12T14:45:41.999Z</time></trkpt><trkpt lat="45.62423363591288" lon="13.937307551110713"><ele>632.3333333333334</ele><time>2026-04-12T14:45:42.999Z</time></trkpt><trkpt lat="45.62416018688238" lon="13.937232272639958"><ele>633.1666666666667</ele><time>2026-04-12T14:45:43.999Z</time></trkpt><trkpt lat="45.62409717793671" lon="13.937129507995518"><ele>634.0</ele><time>2026-04-12T14:45:44.999Z</time></trkpt><trkpt lat="45.6240309444223" lon="13.93702588407993"><ele>634.0</ele><time>2026-04-12T14:45:45.999Z</time></trkpt><trkpt lat="45.62396438554056" lon="13.936925993253192"><ele>634.0</ele><time>2026-04-12T14:45:46.999Z</time></trkpt><trkpt lat="45.62389951201381" lon="13.936821241081836"><ele>634.0</ele><time>2026-04-12T14:45:47.999Z</time></trkpt><trkpt lat="45.62383422734288" lon="13.936720432947777"><ele>634.0</ele><time>2026-04-12T14:45:48.999Z</time></trkpt><trkpt lat="45.623762075965274" lon="13.936624691155334"><ele>634.0</ele><time>2026-04-12T14:45:49.999Z</time></trkpt><trkpt lat="45.623692272065156" lon="13.93653566081683"><ele>634.4</ele><time>2026-04-12T14:45:50.998Z</time></trkpt><trkpt lat="45.623620094300755" lon="13.936453476379192"><ele>634.8</ele><time>2026-04-12T14:45:51.998Z</time></trkpt><trkpt lat="45.623543272361864" lon="13.936389043167171"><ele>635.2</ele><time>2026-04-12T14:45:52.998Z</time></trkpt><trkpt lat="45.62346795957992" lon="13.936322488442967"><ele>635.6</ele><time>2026-04-12T14:45:53.998Z</time></trkpt><trkpt lat="45.623390589537124" lon="13.936254584536734"><ele>636.0</ele><time>2026-04-12T14:45:54.998Z</time></trkpt><trkpt lat="45.62330096240792" lon="13.936189184671091"><ele>636.0</ele><time>2026-04-12T14:45:55.998Z</time></trkpt><trkpt lat="45.62321832375168" lon="13.936134062570003"><ele>636.0</ele><time>2026-04-12T14:45:56.998Z</time></trkpt><trkpt lat="45.62313324616989" lon="13.936068182532088"><ele>636.0</ele><time>2026-04-12T14:45:57.998Z</time></trkpt><trkpt lat="45.62304355382848" lon="13.935995016547905"><ele>636.0</ele><time>2026-04-12T14:45:58.998Z</time></trkpt><trkpt lat="45.62296962397424" lon="13.935935682418569"><ele>636.0</ele><time>2026-04-12T14:45:59.998Z</time></trkpt><trkpt lat="45.62288960481442" lon="13.935882392595406"><ele>636.0</ele><time>2026-04-12T14:46:00.998Z</time></trkpt><trkpt lat="45.622806835207086" lon="13.935830030989516"><ele>636.0</ele><time>2026-04-12T14:46:01.998Z</time></trkpt><trkpt lat="45.62272716010899" lon="13.935753086264219"><ele>636.0</ele><time>2026-04-12T14:46:02.998Z</time></trkpt><trkpt lat="45.62264604740188" lon="13.93569434783187"><ele>636.0</ele><time>2026-04-12T14:46:03.998Z</time></trkpt><trkpt lat="45.62256456869348" lon="13.935635058691766"><ele>636.0</ele><time>2026-04-12T14:46:04.998Z</time></trkpt><trkpt lat="45.62249026601186" lon="13.935578932768687"><ele>636.0</ele><time>2026-04-12T14:46:05.998Z</time></trkpt><trkpt lat="45.622416023527165" lon="13.93551943677393"><ele>636.0</ele><time>2026-04-12T14:46:06.998Z</time></trkpt><trkpt lat="45.62234908093045" lon="13.93546540987326"><ele>636.0</ele><time>2026-04-12T14:46:07.998Z</time></trkpt><trkpt lat="45.62227784717163" lon="13.93540770014212"><ele>636.0</ele><time>2026-04-12T14:46:08.998Z</time></trkpt><trkpt lat="45.62220963613712" lon="13.935350868410763"><ele>636.0</ele><time>2026-04-12T14:46:09.998Z</time></trkpt><trkpt lat="45.622139436779634" lon="13.935285135804557"><ele>636.0</ele><time>2026-04-12T14:46:10.998Z</time></trkpt><trkpt lat="45.62208409101668" lon="13.935216461701698"><ele>636.0</ele><time>2026-04-12T14:46:11.998Z</time></trkpt><trkpt lat="45.62203515818835" lon="13.93513452071924"><ele>636.0</ele><time>2026-04-12T14:46:12.998Z</time></trkpt><trkpt lat="45.62200360771868" lon="13.935045980781114"><ele>636.0</ele><time>2026-04-12T14:46:13.998Z</time></trkpt><trkpt lat="45.62197900589559" lon="13.93493496945053"><ele>636.0</ele><time>2026-04-12T14:46:14.998Z</time></trkpt><trkpt lat="45.62196335296674" lon="13.934808866204929"><ele>636.0</ele><time>2026-04-12T14:46:15.998Z</time></trkpt><trkpt lat="45.62194691953771" lon="13.934665928052016"><ele>636.0</ele><time>2026-04-12T14:46:16.998Z</time></trkpt><trkpt lat="45.621922074125536" lon="13.934515579604787"><ele>636.0</ele><time>2026-04-12T14:46:17.998Z</time></trkpt><trkpt lat="45.62189118569281" lon="13.93438071685631"><ele>636.0</ele><time>2026-04-12T14:46:18.998Z</time></trkpt><trkpt lat="45.621859644778155" lon="13.93424664481387"><ele>636.0</ele><time>2026-04-12T14:46:19.998Z</time></trkpt><trkpt lat="45.621823286839785" lon="13.93410011480761"><ele>636.0</ele><time>2026-04-12T14:46:20.998Z</time></trkpt><trkpt lat="45.62178965730742" lon="13.933960806202782"><ele>636.0</ele><time>2026-04-12T14:46:21.997Z</time></trkpt><trkpt lat="45.62176018280529" lon="13.93383311362898"><ele>635.6666666666666</ele><time>2026-04-12T14:46:22.997Z</time></trkpt><trkpt lat="45.62173769943534" lon="13.933735708814568"><ele>635.3333333333334</ele><time>2026-04-12T14:46:23.997Z</time></trkpt><trkpt lat="45.62169413188113" lon="13.933574717127884"><ele>635.0</ele><time>2026-04-12T14:46:25.997Z</time></trkpt><trkpt lat="45.62166087382563" lon="13.933479269937818"><ele>634.6666666666667</ele><time>2026-04-12T14:46:26.997Z</time></trkpt><trkpt lat="45.62161901203445" lon="13.933381257700614"><ele>634.3333333333334</ele><time>2026-04-12T14:46:27.997Z</time></trkpt><trkpt lat="45.62155933899009" lon="13.933269104924591"><ele>634.0</ele><time>2026-04-12T14:46:28.997Z</time></trkpt><trkpt lat="45.62149608616049" lon="13.933161071366083"><ele>633.6666666666667</ele><time>2026-04-12T14:46:29.997Z</time></trkpt><trkpt lat="45.62142992189101" lon="13.933048443711774"><ele>633.3333333333334</ele><time>2026-04-12T14:46:30.997Z</time></trkpt><trkpt lat="45.621375535617226" lon="13.932947266384726"><ele>633.0</ele><time>2026-04-12T14:46:31.997Z</time></trkpt><trkpt lat="45.62132970701988" lon="13.932848573060937"><ele>632.6666666666666</ele><time>2026-04-12T14:46:32.997Z</time></trkpt><trkpt lat="45.62128875628418" lon="13.932748232688471"><ele>632.3333333333333</ele><time>2026-04-12T14:46:33.997Z</time></trkpt><trkpt lat="45.6212482042478" lon="13.932662296783283"><ele>632.0</ele><time>2026-04-12T14:46:34.997Z</time></trkpt><trkpt lat="45.62119298191766" lon="13.932584795856725"><ele>632.0</ele><time>2026-04-12T14:46:36.997Z</time></trkpt><trkpt lat="45.62116133472858" lon="13.93248866455875"><ele>623.0</ele><time>2026-04-12T14:46:41.997Z</time></trkpt></trkseg><trkseg><trkpt lat="45.62111185214064" lon="13.932383512232523"><ele>637.0</ele><time>2026-04-12T14:59:38Z</time></trkpt><trkpt lat="45.621071747942395" lon="13.932302544981962"><ele>637.0</ele><time>2026-04-12T14:59:40Z</time></trkpt><trkpt lat="45.621047718282085" lon="13.932211481017422"><ele>637.0</ele><time>2026-04-12T14:59:42Z</time></trkpt><trkpt lat="45.62103665386706" lon="13.93210230411281"><ele>637.0</ele><time>2026-04-12T14:59:44Z</time></trkpt><trkpt lat="45.621027034492336" lon="13.931974697743037"><ele>637.0</ele><time>2026-04-12T14:59:46Z</time></trkpt><trkpt lat="45.62101946071021" lon="13.931863445311967"><ele>637.0</ele><time>2026-04-12T14:59:48Z</time></trkpt><trkpt lat="45.621061526826175" lon="13.931741764330278"><ele>637.0</ele><time>2026-04-12T14:59:50Z</time></trkpt><trkpt lat="45.62109279242535" lon="13.931592107744116"><ele>637.0</ele><time>2026-04-12T14:59:52Z</time></trkpt><trkpt lat="45.62110970733641" lon="13.931455743561761"><ele>637.0</ele><time>2026-04-12T14:59:53.999Z</time></trkpt><trkpt lat="45.621120975116064" lon="13.931320618682337"><ele>637.0</ele><time>2026-04-12T14:59:55.999Z</time></trkpt><trkpt lat="45.62109886957052" lon="13.931143271680924"><ele>637.0</ele><time>2026-04-12T14:59:57.999Z</time></trkpt><trkpt lat="45.621063268380816" lon="13.93103271165995"><ele>637.0</ele><time>2026-04-12T14:59:58.999Z</time></trkpt><trkpt lat="45.621058410515595" lon="13.930914315368371"><ele>637.0</ele><time>2026-04-12T14:59:59.999Z</time></trkpt><trkpt lat="45.6209864487168" lon="13.930774701600283"><ele>637.0</ele><time>2026-04-12T15:00:01.999Z</time></trkpt><trkpt lat="45.6208976058096" lon="13.930698464892496"><ele>637.0</ele><time>2026-04-12T15:00:03.999Z</time></trkpt><trkpt lat="45.62083482359464" lon="13.930690219210986"><ele>637.0</ele><time>2026-04-12T15:00:04.999Z</time></trkpt><trkpt lat="45.62071801602216" lon="13.930692254953486"><ele>634.2</ele><time>2026-04-12T15:00:06.999Z</time></trkpt><trkpt lat="45.6206130288033" lon="13.930694314829173"><ele>631.4000000000001</ele><time>2026-04-12T15:00:08.999Z</time></trkpt><trkpt lat="45.62052406849767" lon="13.930695926040041"><ele>628.5999999999999</ele><time>2026-04-12T15:00:10.999Z</time></trkpt><trkpt lat="45.62044324596259" lon="13.930588983723798"><ele>625.8</ele><time>2026-04-12T15:00:12.999Z</time></trkpt><trkpt lat="45.62043654112161" lon="13.930449770509963"><ele>623.0</ele><time>2026-04-12T15:00:14.999Z</time></trkpt><trkpt lat="45.6205254323335" lon="13.930361877983442"><ele>623.0</ele><time>2026-04-12T15:00:16.999Z</time></trkpt><trkpt lat="45.62060333992398" lon="13.930224760059366"><ele>623.0</ele><time>2026-04-12T15:00:18.999Z</time></trkpt><trkpt lat="45.62067297676734" lon="13.930057780384017"><ele>623.0</ele><time>2026-04-12T15:00:20.999Z</time></trkpt><trkpt lat="45.62070453441698" lon="13.929971103182963"><ele>623.0</ele><time>2026-04-12T15:00:21.999Z</time></trkpt><trkpt lat="45.620766714048564" lon="13.929817256715781"><ele>622.4</ele><time>2026-04-12T15:00:23.998Z</time></trkpt><trkpt lat="45.62082500324198" lon="13.92965003168366"><ele>621.8</ele><time>2026-04-12T15:00:25.998Z</time></trkpt><trkpt lat="45.620871941209586" lon="13.929539588849961"><ele>621.2</ele><time>2026-04-12T15:00:26.998Z</time></trkpt><trkpt lat="45.6209196177895" lon="13.929435756033898"><ele>620.6</ele><time>2026-04-12T15:00:27.998Z</time></trkpt><trkpt lat="45.62096356520486" lon="13.9293404525646"><ele>620.0</ele><time>2026-04-12T15:00:28.998Z</time></trkpt><trkpt lat="45.620996457866596" lon="13.929217722914133"><ele>621.1666666666666</ele><time>2026-04-12T15:00:29.998Z</time></trkpt><trkpt lat="45.621038439611574" lon="13.929114725582183"><ele>622.3333333333333</ele><time>2026-04-12T15:00:30.998Z</time></trkpt><trkpt lat="45.62107940392252" lon="13.92902173556753"><ele>623.5</ele><time>2026-04-12T15:00:31.998Z</time></trkpt><trkpt lat="45.6211170727404" lon="13.928924112441702"><ele>624.6666666666666</ele><time>2026-04-12T15:00:32.998Z</time></trkpt><trkpt lat="45.62114969895127" lon="13.928829108259219"><ele>625.8333333333334</ele><time>2026-04-12T15:00:33.998Z</time></trkpt><trkpt lat="45.6211754776859" lon="13.928730602110258"><ele>627.0</ele><time>2026-04-12T15:00:34.998Z</time></trkpt><trkpt lat="45.621219318202265" lon="13.92859204952874"><ele>623.8333333333334</ele><time>2026-04-12T15:00:35.998Z</time></trkpt><trkpt lat="45.62125172275553" lon="13.928474167417866"><ele>620.6666666666666</ele><time>2026-04-12T15:00:36.998Z</time></trkpt><trkpt lat="45.62128234414262" lon="13.928375368675175"><ele>617.5</ele><time>2026-04-12T15:00:37.998Z</time></trkpt><trkpt lat="45.62130561101117" lon="13.928279208582477"><ele>614.3333333333333</ele><time>2026-04-12T15:00:38.998Z</time></trkpt><trkpt lat="45.62134055424414" lon="13.928195786522236"><ele>611.1666666666666</ele><time>2026-04-12T15:00:39.998Z</time></trkpt><trkpt lat="45.621358277423056" lon="13.928083866154191"><ele>608.0</ele><time>2026-04-12T15:00:40.998Z</time></trkpt><trkpt lat="45.62137388135368" lon="13.92799140589395"><ele>608.0</ele><time>2026-04-12T15:00:41.998Z</time></trkpt><trkpt lat="45.621404230600945" lon="13.92790248256863"><ele>608.0</ele><time>2026-04-12T15:00:42.998Z</time></trkpt><trkpt lat="45.62141727993386" lon="13.927803307499186"><ele>608.0</ele><time>2026-04-12T15:00:43.998Z</time></trkpt><trkpt lat="45.62142516009101" lon="13.927697659439305"><ele>608.0</ele><time>2026-04-12T15:00:44.998Z</time></trkpt><trkpt lat="45.62142502857045" lon="13.927584302032297"><ele>608.0</ele><time>2026-04-12T15:00:45.998Z</time></trkpt><trkpt lat="45.62141821632667" lon="13.927485092126629"><ele>608.0</ele><time>2026-04-12T15:00:46.998Z</time></trkpt><trkpt lat="45.621389212843596" lon="13.927385389191464"><ele>608.0</ele><time>2026-04-12T15:00:47.998Z</time></trkpt><trkpt lat="45.62137901049335" lon="13.927288263979765"><ele>607.6666666666666</ele><time>2026-04-12T15:00:48.998Z</time></trkpt><trkpt lat="45.6213672221327" lon="13.927195132674346"><ele>607.3333333333333</ele><time>2026-04-12T15:00:49.998Z</time></trkpt><trkpt lat="45.621347679354656" lon="13.927098291557463"><ele>607.0</ele><time>2026-04-12T15:00:50.998Z</time></trkpt><trkpt lat="45.621321155897796" lon="13.926992359871518"><ele>606.6666666666666</ele><time>2026-04-12T15:00:51.998Z</time></trkpt><trkpt lat="45.62130702920172" lon="13.9268763527187"><ele>606.3333333333334</ele><time>2026-04-12T15:00:52.998Z</time></trkpt><trkpt lat="45.62125891982106" lon="13.926700502217493"><ele>606.0</ele><time>2026-04-12T15:00:54.997Z</time></trkpt><trkpt lat="45.62122784567494" lon="13.92659807182446"><ele>607.4285714285714</ele><time>2026-04-12T15:00:55.997Z</time></trkpt><trkpt lat="45.62119658959488" lon="13.926503022517077"><ele>608.8571428571429</ele><time>2026-04-12T15:00:56.997Z</time></trkpt><trkpt lat="45.62116082183638" lon="13.926406031523943"><ele>610.2857142857142</ele><time>2026-04-12T15:00:57.997Z</time></trkpt><trkpt lat="45.62111291871548" lon="13.926329940392543"><ele>611.7142857142858</ele><time>2026-04-12T15:00:58.997Z</time></trkpt><trkpt lat="45.621082299139005" lon="13.926247431127843"><ele>613.1428571428571</ele><time>2026-04-12T15:00:59.997Z</time></trkpt><trkpt lat="45.62104927359439" lon="13.926163762231035"><ele>614.5714285714286</ele><time>2026-04-12T15:01:00.997Z</time></trkpt><trkpt lat="45.62101366338254" lon="13.926077467763458"><ele>616.0</ele><time>2026-04-12T15:01:01.997Z</time></trkpt><trkpt lat="45.62097526314442" lon="13.925983190996652"><ele>616.0</ele><time>2026-04-12T15:01:02.997Z</time></trkpt><trkpt lat="45.620938283652535" lon="13.925901739096737"><ele>616.0</ele><time>2026-04-12T15:01:03.997Z</time></trkpt><trkpt lat="45.62089847441802" lon="13.925822489978646"><ele>616.0</ele><time>2026-04-12T15:01:04.997Z</time></trkpt><trkpt lat="45.620861339260365" lon="13.925739913296509"><ele>616.0</ele><time>2026-04-12T15:01:05.997Z</time></trkpt><trkpt lat="45.62081882037916" lon="13.92564637553518"><ele>616.0</ele><time>2026-04-12T15:01:06.997Z</time></trkpt><trkpt lat="45.62078917713209" lon="13.925545542255064"><ele>616.0</ele><time>2026-04-12T15:01:07.997Z</time></trkpt><trkpt lat="45.62074878270236" lon="13.925452227169151"><ele>616.0</ele><time>2026-04-12T15:01:08.997Z</time></trkpt><trkpt lat="45.62070904005948" lon="13.925360417803173"><ele>614.1666666666667</ele><time>2026-04-12T15:01:09.997Z</time></trkpt><trkpt lat="45.62066919343131" lon="13.925271938789084"><ele>612.3333333333334</ele><time>2026-04-12T15:01:10.997Z</time></trkpt><trkpt lat="45.6206279580371" lon="13.925181435150593"><ele>610.5</ele><time>2026-04-12T15:01:11.997Z</time></trkpt><trkpt lat="45.620539550038814" lon="13.925027484005279"><ele>608.6666666666666</ele><time>2026-04-12T15:01:13.997Z</time></trkpt><trkpt lat="45.62049762926957" lon="13.924942046474182"><ele>606.8333333333333</ele><time>2026-04-12T15:01:14.997Z</time></trkpt><trkpt lat="45.62046783275566" lon="13.924842745202197"><ele>605.0</ele><time>2026-04-12T15:01:15.997Z</time></trkpt><trkpt lat="45.620425083701356" lon="13.924754806828021"><ele>606.1428571428571</ele><time>2026-04-12T15:01:16.997Z</time></trkpt><trkpt lat="45.620385595038655" lon="13.924673615008222"><ele>607.2857142857143</ele><time>2026-04-12T15:01:17.997Z</time></trkpt><trkpt lat="45.62034293374384" lon="13.924588190616342"><ele>608.4285714285714</ele><time>2026-04-12T15:01:18.997Z</time></trkpt><trkpt lat="45.62029746623884" lon="13.924497147116272"><ele>609.5714285714286</ele><time>2026-04-12T15:01:19.997Z</time></trkpt><trkpt lat="45.620253308790446" lon="13.924408726779868"><ele>610.7142857142857</ele><time>2026-04-12T15:01:20.997Z</time></trkpt><trkpt lat="45.62021199114438" lon="13.924325992905136"><ele>611.8571428571429</ele><time>2026-04-12T15:01:21.997Z</time></trkpt><trkpt lat="45.62016829369828" lon="13.924238493730156"><ele>613.0</ele><time>2026-04-12T15:01:22.997Z</time></trkpt><trkpt lat="45.6201254260381" lon="13.924152656117133"><ele>610.1666666666667</ele><time>2026-04-12T15:01:23.997Z</time></trkpt><trkpt lat="45.6200811132612" lon="13.9240639247714"><ele>607.3333333333334</ele><time>2026-04-12T15:01:24.997Z</time></trkpt><trkpt lat="45.62001560224604" lon="13.923969771909734"><ele>604.5</ele><time>2026-04-12T15:01:25.996Z</time></trkpt><trkpt lat="45.61996960748373" lon="13.923867350774614"><ele>601.6666666666666</ele><time>2026-04-12T15:01:26.996Z</time></trkpt><trkpt lat="45.61992899096254" lon="13.923774169710011"><ele>598.8333333333333</ele><time>2026-04-12T15:01:27.996Z</time></trkpt><trkpt lat="45.6198944612481" lon="13.923698136495867"><ele>596.0</ele><time>2026-04-12T15:01:28.996Z</time></trkpt><trkpt lat="45.6198547101928" lon="13.923620261973094"><ele>596.0</ele><time>2026-04-12T15:01:29.996Z</time></trkpt><trkpt lat="45.61979638990509" lon="13.92346262221225"><ele>596.0</ele><time>2026-04-12T15:01:31.996Z</time></trkpt><trkpt lat="45.61973456283883" lon="13.923310346028178"><ele>596.0</ele><time>2026-04-12T15:01:34Z</time></trkpt><trkpt lat="45.619703039501324" lon="13.923232129280375"><ele>596.0</ele><time>2026-04-12T15:01:35Z</time></trkpt><trkpt lat="45.61965310773825" lon="13.923108236923154"><ele>596.0</ele><time>2026-04-12T15:01:37Z</time></trkpt><trkpt lat="45.6196143688843" lon="13.923014306360106"><ele>595.6</ele><time>2026-04-12T15:01:40Z</time></trkpt><trkpt lat="45.619540834876375" lon="13.922963795530805"><ele>595.2</ele><time>2026-04-12T15:10:38.999Z</time></trkpt><trkpt lat="45.61949363926808" lon="13.922836159209519"><ele>594.8</ele><time>2026-04-12T15:10:40.999Z</time></trkpt><trkpt lat="45.619429338387576" lon="13.922710847291052"><ele>594.4</ele><time>2026-04-12T15:10:42.999Z</time></trkpt><trkpt lat="45.6193844753699" lon="13.922642601430733"><ele>594.0</ele><time>2026-04-12T15:10:43.999Z</time></trkpt><trkpt lat="45.61929206563705" lon="13.922483747949265"><ele>591.8</ele><time>2026-04-12T15:10:45.999Z</time></trkpt><trkpt lat="45.619227961386386" lon="13.92242431394095"><ele>589.5999999999999</ele><time>2026-04-12T15:10:46.999Z</time></trkpt><trkpt lat="45.61916589472848" lon="13.922372150938635"><ele>587.4</ele><time>2026-04-12T15:10:47.999Z</time></trkpt><trkpt lat="45.61910619204414" lon="13.922326047492634"><ele>585.1999999999999</ele><time>2026-04-12T15:10:48.999Z</time></trkpt><trkpt lat="45.61899697957825" lon="13.922246950725148"><ele>583.0</ele><time>2026-04-12T15:10:50.999Z</time></trkpt><trkpt lat="45.618878996374114" lon="13.922162855364158"><ele>583.0</ele><time>2026-04-12T15:10:52.999Z</time></trkpt><trkpt lat="45.61879647402076" lon="13.922108326180279"><ele>583.0</ele><time>2026-04-12T15:10:53.999Z</time></trkpt><trkpt lat="45.618714758442266" lon="13.922057239273744"><ele>583.0</ele><time>2026-04-12T15:10:54.999Z</time></trkpt><trkpt lat="45.618641770628265" lon="13.922014058834566"><ele>583.0</ele><time>2026-04-12T15:10:55.999Z</time></trkpt><trkpt lat="45.618569384006584" lon="13.921972795927868"><ele>583.0</ele><time>2026-04-12T15:10:56.999Z</time></trkpt><trkpt lat="45.61849309031917" lon="13.921929571702588"><ele>583.0</ele><time>2026-04-12T15:10:57.998Z</time></trkpt><trkpt lat="45.61842997955627" lon="13.92189613804579"><ele>583.6</ele><time>2026-04-12T15:10:58.998Z</time></trkpt><trkpt lat="45.61835964503096" lon="13.921858879364498"><ele>584.1999999999999</ele><time>2026-04-12T15:10:59.998Z</time></trkpt><trkpt lat="45.61823811655747" lon="13.921818481609337"><ele>584.8</ele><time>2026-04-12T15:11:01.998Z</time></trkpt><trkpt lat="45.61811112784633" lon="13.921755272410945"><ele>585.4</ele><time>2026-04-12T15:11:03.998Z</time></trkpt><trkpt lat="45.61803506263843" lon="13.921718755250717"><ele>586.0</ele><time>2026-04-12T15:11:04.998Z</time></trkpt><trkpt lat="45.61795449955644" lon="13.92167890076503"><ele>583.7142857142857</ele><time>2026-04-12T15:11:05.998Z</time></trkpt><trkpt lat="45.6178851522769" lon="13.921646676833953"><ele>581.4285714285714</ele><time>2026-04-12T15:11:06.998Z</time></trkpt><trkpt lat="45.61781486033345" lon="13.921620407549804"><ele>579.1428571428571</ele><time>2026-04-12T15:11:07.998Z</time></trkpt><trkpt lat="45.61774232924055" lon="13.921589158987526"><ele>576.8571428571429</ele><time>2026-04-12T15:11:08.998Z</time></trkpt><trkpt lat="45.617670097584096" lon="13.921538357526613"><ele>574.5714285714286</ele><time>2026-04-12T15:11:09.998Z</time></trkpt><trkpt lat="45.61760189816237" lon="13.921510878797996"><ele>572.2857142857142</ele><time>2026-04-12T15:11:10.998Z</time></trkpt><trkpt lat="45.61753355114905" lon="13.92148496532136"><ele>570.0</ele><time>2026-04-12T15:11:11.998Z</time></trkpt><trkpt lat="45.61746969028869" lon="13.921462802132337"><ele>570.0</ele><time>2026-04-12T15:11:12.998Z</time></trkpt><trkpt lat="45.617406323623406" lon="13.9214435747413"><ele>570.0</ele><time>2026-04-12T15:11:13.998Z</time></trkpt><trkpt lat="45.617337386609165" lon="13.921429607332815"><ele>570.0</ele><time>2026-04-12T15:11:14.998Z</time></trkpt><trkpt lat="45.61721469644813" lon="13.92142350530305"><ele>570.0</ele><time>2026-04-12T15:11:16.998Z</time></trkpt><trkpt lat="45.617113750995834" lon="13.921409771921834"><ele>570.0</ele><time>2026-04-12T15:11:18.998Z</time></trkpt><trkpt lat="45.61700541563693" lon="13.921365603883753"><ele>570.1666666666666</ele><time>2026-04-12T15:11:20.998Z</time></trkpt><trkpt lat="45.61693360105415" lon="13.921295808596309"><ele>570.3333333333334</ele><time>2026-04-12T15:11:21.998Z</time></trkpt><trkpt lat="45.616866199796725" lon="13.921239534966274"><ele>570.5</ele><time>2026-04-12T15:11:22.998Z</time></trkpt><trkpt lat="45.61679890591574" lon="13.921169227622164"><ele>570.6666666666667</ele><time>2026-04-12T15:11:23.998Z</time></trkpt><trkpt lat="45.61672223494399" lon="13.921115733462763"><ele>570.8333333333334</ele><time>2026-04-12T15:11:24.998Z</time></trkpt><trkpt lat="45.61665252529884" lon="13.921072815313623"><ele>571.0</ele><time>2026-04-12T15:11:25.998Z</time></trkpt><trkpt lat="45.6165807820748" lon="13.921033188086334"><ele>571.0</ele><time>2026-04-12T15:11:26.998Z</time></trkpt><trkpt lat="45.61650727820216" lon="13.921015727974922"><ele>571.0</ele><time>2026-04-12T15:11:27.998Z</time></trkpt><trkpt lat="45.61639670221429" lon="13.92093889770142"><ele>571.0</ele><time>2026-04-12T15:11:29.998Z</time></trkpt><trkpt lat="45.61633583600228" lon="13.920912112144654"><ele>571.0</ele><time>2026-04-12T15:11:30.997Z</time></trkpt><trkpt lat="45.616268369178165" lon="13.920888692248479"><ele>571.0</ele><time>2026-04-12T15:11:31.997Z</time></trkpt><trkpt lat="45.616194337070155" lon="13.920861344012756"><ele>571.0</ele><time>2026-04-12T15:11:32.997Z</time></trkpt><trkpt lat="45.61612021756928" lon="13.920837722491127"><ele>568.8571428571429</ele><time>2026-04-12T15:11:33.997Z</time></trkpt><trkpt lat="45.616039360217286" lon="13.920781071290838"><ele>566.7142857142857</ele><time>2026-04-12T15:11:34.997Z</time></trkpt><trkpt lat="45.61597039279363" lon="13.920752709727507"><ele>564.5714285714286</ele><time>2026-04-12T15:11:35.997Z</time></trkpt><trkpt lat="45.61590899460244" lon="13.920727460889145"><ele>562.4285714285714</ele><time>2026-04-12T15:11:36.997Z</time></trkpt><trkpt lat="45.615842312062604" lon="13.920700431714927"><ele>560.2857142857143</ele><time>2026-04-12T15:11:37.997Z</time></trkpt><trkpt lat="45.61577389500582" lon="13.920673726142578"><ele>558.1428571428571</ele><time>2026-04-12T15:11:38.997Z</time></trkpt><trkpt lat="45.61571031840274" lon="13.92064891006077"><ele>556.0</ele><time>2026-04-12T15:11:39.997Z</time></trkpt><trkpt lat="45.61564611560392" lon="13.92064930689567"><ele>556.0</ele><time>2026-04-12T15:11:40.997Z</time></trkpt><trkpt lat="45.61553819164975" lon="13.920596841764182"><ele>556.0</ele><time>2026-04-12T15:11:42.997Z</time></trkpt><trkpt lat="45.61547033272105" lon="13.920571085210428"><ele>556.0</ele><time>2026-04-12T15:11:43.997Z</time></trkpt><trkpt lat="45.61539885493954" lon="13.920546818076206"><ele>556.0</ele><time>2026-04-12T15:11:44.997Z</time></trkpt><trkpt lat="45.61533233261296" lon="13.920529957516987"><ele>556.0</ele><time>2026-04-12T15:11:45.997Z</time></trkpt><trkpt lat="45.61519934653878" lon="13.920527638420735"><ele>555.0</ele><time>2026-04-12T15:11:47.997Z</time></trkpt><trkpt lat="45.61512862237595" lon="13.920520656808117"><ele>554.0</ele><time>2026-04-12T15:11:48.997Z</time></trkpt><trkpt lat="45.61505571161252" lon="13.920516999926049"><ele>553.0</ele><time>2026-04-12T15:11:49.997Z</time></trkpt><trkpt lat="45.61494120485726" lon="13.920498861614327"><ele>552.0</ele><time>2026-04-12T15:11:51.997Z</time></trkpt><trkpt lat="45.61486671398525" lon="13.920495702569278"><ele>551.0</ele><time>2026-04-12T15:11:52.997Z</time></trkpt><trkpt lat="45.61475021632168" lon="13.92048863033127"><ele>551.0</ele><time>2026-04-12T15:11:54.997Z</time></trkpt><trkpt lat="45.614652268020095" lon="13.92048082564384"><ele>551.0</ele><time>2026-04-12T15:11:56.997Z</time></trkpt><trkpt lat="45.6145317057919" lon="13.920461029639618"><ele>551.0</ele><time>2026-04-12T15:11:58.997Z</time></trkpt><trkpt lat="45.614460816645526" lon="13.920445178076418"><ele>551.0</ele><time>2026-04-12T15:11:59.997Z</time></trkpt><trkpt lat="45.61438632276293" lon="13.920445036633284"><ele>551.0</ele><time>2026-04-12T15:12:00.997Z</time></trkpt><trkpt lat="45.61429690986895" lon="13.920425726763643"><ele>550.2</ele><time>2026-04-12T15:12:01.997Z</time></trkpt><trkpt lat="45.61422293152903" lon="13.920406234886249"><ele>549.4000000000001</ele><time>2026-04-12T15:12:03Z</time></trkpt><trkpt lat="45.61414664687353" lon="13.920387738737206"><ele>548.6</ele><time>2026-04-12T15:12:04Z</time></trkpt><trkpt lat="45.61408294402506" lon="13.920371158504809"><ele>547.8000000000001</ele><time>2026-04-12T15:12:05Z</time></trkpt><trkpt lat="45.613956078389776" lon="13.92032404765427"><ele>547.0</ele><time>2026-04-12T15:12:07Z</time></trkpt><trkpt lat="45.61385042285178" lon="13.920314139654211"><ele>547.0</ele><time>2026-04-12T15:12:09Z</time></trkpt><trkpt lat="45.6137762006337" lon="13.920297645477048"><ele>547.0</ele><time>2026-04-12T15:12:11Z</time></trkpt><trkpt lat="45.61369470052982" lon="13.920224025398348"><ele>547.0</ele><time>2026-04-12T15:12:14Z</time></trkpt><trkpt lat="45.61359941792261" lon="13.920151159838012"><ele>547.0</ele><time>2026-04-12T15:12:16Z</time></trkpt><trkpt lat="45.613552378295985" lon="13.920077456390775"><ele>547.0</ele><time>2026-04-12T15:12:17Z</time></trkpt><trkpt lat="45.61351082712009" lon="13.92000296307192"><ele>547.0</ele><time>2026-04-12T15:12:18Z</time></trkpt><trkpt lat="45.61342446741973" lon="13.919864764076236"><ele>543.8000000000001</ele><time>2026-04-12T15:12:20Z</time></trkpt><trkpt lat="45.61333408487291" lon="13.919738229508852"><ele>540.6</ele><time>2026-04-12T15:12:22Z</time></trkpt><trkpt lat="45.61324040877887" lon="13.919631934149136"><ele>537.4000000000001</ele><time>2026-04-12T15:12:24Z</time></trkpt><trkpt lat="45.61315859833036" lon="13.91955068460701"><ele>534.2</ele><time>2026-04-12T15:12:26Z</time></trkpt><trkpt lat="45.61310050312469" lon="13.919494601867488"><ele>531.0</ele><time>2026-04-12T15:12:28Z</time></trkpt><trkpt lat="45.61304625218945" lon="13.91944223044769"><ele>531.0</ele><time>2026-04-12T15:12:31.999Z</time></trkpt><trkpt lat="45.612961241456446" lon="13.919609156692179"><ele>531.0</ele><time>2026-04-12T15:12:33.999Z</time></trkpt><trkpt lat="45.61291745623317" lon="13.91977779749925"><ele>531.0</ele><time>2026-04-12T15:12:35.999Z</time></trkpt><trkpt lat="45.612892111741" lon="13.919897839449382"><ele>531.0</ele><time>2026-04-12T15:12:36.999Z</time></trkpt><trkpt lat="45.612859870684" lon="13.920008949510523"><ele>531.0</ele><time>2026-04-12T15:12:37.999Z</time></trkpt><trkpt lat="45.61281083425262" lon="13.920153728954597"><ele>530.8333333333334</ele><time>2026-04-12T15:12:38.999Z</time></trkpt><trkpt lat="45.61276985363077" lon="13.920280860280727"><ele>530.6666666666666</ele><time>2026-04-12T15:12:39.999Z</time></trkpt><trkpt lat="45.61272632843362" lon="13.920409946855587"><ele>530.5</ele><time>2026-04-12T15:12:40.999Z</time></trkpt><trkpt lat="45.61269410780428" lon="13.920507760966515"><ele>530.3333333333333</ele><time>2026-04-12T15:12:41.999Z</time></trkpt><trkpt lat="45.61265539482659" lon="13.920612292423554"><ele>530.1666666666666</ele><time>2026-04-12T15:12:42.999Z</time></trkpt><trkpt lat="45.612621883880244" lon="13.920712842029841"><ele>530.0</ele><time>2026-04-12T15:12:43.999Z</time></trkpt><trkpt lat="45.61258545923571" lon="13.920811372856058"><ele>530.6666666666666</ele><time>2026-04-12T15:12:44.999Z</time></trkpt><trkpt lat="45.61255691315135" lon="13.920902092725647"><ele>531.3333333333333</ele><time>2026-04-12T15:12:45.999Z</time></trkpt><trkpt lat="45.61251943864081" lon="13.920990459899556"><ele>532.0</ele><time>2026-04-12T15:12:46.999Z</time></trkpt><trkpt lat="45.61248153264509" lon="13.921090867110934"><ele>532.6666666666666</ele><time>2026-04-12T15:12:47.999Z</time></trkpt><trkpt lat="45.61244385098339" lon="13.921189737773283"><ele>533.3333333333334</ele><time>2026-04-12T15:12:48.999Z</time></trkpt><trkpt lat="45.61239820743756" lon="13.921294834026856"><ele>534.0</ele><time>2026-04-12T15:12:49.999Z</time></trkpt><trkpt lat="45.612355902935505" lon="13.921394652738734"><ele>534.0</ele><time>2026-04-12T15:12:50.999Z</time></trkpt><trkpt lat="45.612318802004246" lon="13.921489245037565"><ele>534.0</ele><time>2026-04-12T15:12:51.999Z</time></trkpt><trkpt lat="45.612267655182265" lon="13.921555895220097"><ele>534.0</ele><time>2026-04-12T15:12:52.999Z</time></trkpt><trkpt lat="45.61221470671795" lon="13.921640061447798"><ele>534.0</ele><time>2026-04-12T15:12:53.999Z</time></trkpt><trkpt lat="45.61216145202878" lon="13.921714218786843"><ele>534.0</ele><time>2026-04-12T15:12:54.999Z</time></trkpt><trkpt lat="45.612105097490094" lon="13.92180454104921"><ele>534.0</ele><time>2026-04-12T15:12:55.999Z</time></trkpt><trkpt lat="45.61203848196389" lon="13.921879402728008"><ele>532.5</ele><time>2026-04-12T15:12:56.999Z</time></trkpt><trkpt lat="45.61197370336134" lon="13.921953447507262"><ele>531.0</ele><time>2026-04-12T15:12:57.999Z</time></trkpt><trkpt lat="45.61191075670486" lon="13.922028006842528"><ele>529.5</ele><time>2026-04-12T15:12:58.999Z</time></trkpt><trkpt lat="45.61184296753791" lon="13.922104694275017"><ele>528.0</ele><time>2026-04-12T15:12:59.999Z</time></trkpt><trkpt lat="45.61176310996529" lon="13.922157201569858"><ele>526.5</ele><time>2026-04-12T15:13:00.999Z</time></trkpt><trkpt lat="45.61168999467254" lon="13.92223166104709"><ele>525.0</ele><time>2026-04-12T15:13:01.999Z</time></trkpt><trkpt lat="45.61162484551776" lon="13.922321176115195"><ele>525.0</ele><time>2026-04-12T15:13:02.999Z</time></trkpt><trkpt lat="45.6115500531774" lon="13.922384553074517"><ele>525.0</ele><time>2026-04-12T15:13:03.999Z</time></trkpt><trkpt lat="45.61146144641505" lon="13.92242644907425"><ele>525.0</ele><time>2026-04-12T15:13:04.998Z</time></trkpt><trkpt lat="45.611389901553366" lon="13.922491687599246"><ele>525.0</ele><time>2026-04-12T15:13:05.998Z</time></trkpt><trkpt lat="45.611314815463096" lon="13.922534195462992"><ele>525.0</ele><time>2026-04-12T15:13:06.998Z</time></trkpt><trkpt lat="45.6112466245836" lon="13.922575759222207"><ele>525.0</ele><time>2026-04-12T15:13:07.998Z</time></trkpt><trkpt lat="45.6111751867277" lon="13.922612247279535"><ele>524.5</ele><time>2026-04-12T15:13:08.998Z</time></trkpt><trkpt lat="45.61111154233981" lon="13.922650989876328"><ele>524.0</ele><time>2026-04-12T15:13:09.998Z</time></trkpt><trkpt lat="45.611039408713346" lon="13.922697021681714"><ele>523.5</ele><time>2026-04-12T15:13:10.998Z</time></trkpt><trkpt lat="45.61097223434024" lon="13.922753955987805"><ele>523.0</ele><time>2026-04-12T15:13:11.998Z</time></trkpt><trkpt lat="45.610894727974916" lon="13.922819189793724"><ele>522.5</ele><time>2026-04-12T15:13:12.998Z</time></trkpt><trkpt lat="45.61081406311103" lon="13.922909063200258"><ele>522.0</ele><time>2026-04-12T15:13:13.998Z</time></trkpt><trkpt lat="45.610747875902305" lon="13.923000415144902"><ele>522.0</ele><time>2026-04-12T15:13:14.998Z</time></trkpt><trkpt lat="45.61067212764973" lon="13.923105635120482"><ele>522.0</ele><time>2026-04-12T15:13:15.998Z</time></trkpt><trkpt lat="45.610603888178936" lon="13.923206610952727"><ele>522.0</ele><time>2026-04-12T15:13:16.998Z</time></trkpt><trkpt lat="45.61054797585113" lon="13.9232946982765"><ele>522.0</ele><time>2026-04-12T15:13:17.998Z</time></trkpt><trkpt lat="45.610499602239216" lon="13.923377062545116"><ele>522.0</ele><time>2026-04-12T15:13:18.998Z</time></trkpt><trkpt lat="45.61045366063225" lon="13.92345421851834"><ele>522.0</ele><time>2026-04-12T15:13:19.998Z</time></trkpt><trkpt lat="45.61040758952748" lon="13.923526290470123"><ele>522.6</ele><time>2026-04-12T15:13:20.998Z</time></trkpt><trkpt lat="45.610359025548" lon="13.923593476873156"><ele>523.2</ele><time>2026-04-12T15:13:21.998Z</time></trkpt><trkpt lat="45.61028904504345" lon="13.923720705989032"><ele>523.8</ele><time>2026-04-12T15:13:23.998Z</time></trkpt><trkpt lat="45.61023534463035" lon="13.923849767569076"><ele>524.4</ele><time>2026-04-12T15:13:25.998Z</time></trkpt><trkpt lat="45.610191449823546" lon="13.923968262112515"><ele>525.0</ele><time>2026-04-12T15:13:27.998Z</time></trkpt><trkpt lat="45.610136962301745" lon="13.924059304973024"><ele>523.3333333333334</ele><time>2026-04-12T15:13:30.998Z</time></trkpt><trkpt lat="45.61011239236136" lon="13.923946450287895"><ele>521.6666666666666</ele><time>2026-04-12T15:13:51.997Z</time></trkpt><trkpt lat="45.61013751957405" lon="13.923860739355883"><ele>520.0</ele><time>2026-04-12T15:13:52.997Z</time></trkpt><trkpt lat="45.61015317986373" lon="13.923772492255603"><ele>518.3333333333333</ele><time>2026-04-12T15:13:53.997Z</time></trkpt><trkpt lat="45.61017448275899" lon="13.923624885695432"><ele>516.6666666666666</ele><time>2026-04-12T15:13:55.997Z</time></trkpt><trkpt lat="45.61020432784598" lon="13.92349355273343"><ele>515.0</ele><time>2026-04-12T15:13:57.997Z</time></trkpt><trkpt lat="45.61023358406552" lon="13.923348387236317"><ele>515.0</ele><time>2026-04-12T15:13:59.997Z</time></trkpt><trkpt lat="45.610274815997755" lon="13.923173393509796"><ele>515.0</ele><time>2026-04-12T15:14:01.997Z</time></trkpt><trkpt lat="45.61030468835735" lon="13.923078490269136"><ele>515.0</ele><time>2026-04-12T15:14:02.997Z</time></trkpt><trkpt lat="45.61033732938509" lon="13.922982198296472"><ele>515.0</ele><time>2026-04-12T15:14:03.997Z</time></trkpt><trkpt lat="45.610374032396784" lon="13.922882819449303"><ele>515.0</ele><time>2026-04-12T15:14:04.997Z</time></trkpt><trkpt lat="45.610414791363894" lon="13.922778494519504"><ele>515.0</ele><time>2026-04-12T15:14:05.997Z</time></trkpt><trkpt lat="45.61045672229629" lon="13.92267346192686"><ele>515.2857142857143</ele><time>2026-04-12T15:14:06.997Z</time></trkpt><trkpt lat="45.61049886196598" lon="13.922580275913374"><ele>515.5714285714286</ele><time>2026-04-12T15:14:07.997Z</time></trkpt><trkpt lat="45.61053883827845" lon="13.922497164639733"><ele>515.8571428571429</ele><time>2026-04-12T15:14:09Z</time></trkpt><trkpt lat="45.610579385934386" lon="13.922417070212436"><ele>516.1428571428571</ele><time>2026-04-12T15:14:10Z</time></trkpt><trkpt lat="45.61061741537842" lon="13.922337699510487"><ele>516.4285714285714</ele><time>2026-04-12T15:14:11Z</time></trkpt><trkpt lat="45.61065471401977" lon="13.922262469806883"><ele>516.7142857142858</ele><time>2026-04-12T15:14:12Z</time></trkpt><trkpt lat="45.6106885456263" lon="13.922185454555406"><ele>517.0</ele><time>2026-04-12T15:14:13Z</time></trkpt><trkpt lat="45.61072441758507" lon="13.922110511408288"><ele>517.0</ele><time>2026-04-12T15:14:14Z</time></trkpt><trkpt lat="45.61079304719307" lon="13.921968615118377"><ele>517.0</ele><time>2026-04-12T15:14:16Z</time></trkpt><trkpt lat="45.61084891969178" lon="13.921845371009365"><ele>517.0</ele><time>2026-04-12T15:14:18Z</time></trkpt><trkpt lat="45.610907729540926" lon="13.92172995288391"><ele>517.0</ele><time>2026-04-12T15:14:20Z</time></trkpt><trkpt lat="45.610950750666056" lon="13.921646547922654"><ele>517.0</ele><time>2026-04-12T15:14:22Z</time></trkpt><trkpt lat="45.61099425528175" lon="13.921557138431567"><ele>517.0</ele><time>2026-04-12T15:14:24Z</time></trkpt><trkpt lat="45.611045939244796" lon="13.921474609725133"><ele>517.0</ele><time>2026-04-12T15:14:27Z</time></trkpt><trkpt lat="45.61103534666458" lon="13.921365064050837"><ele>517.0</ele><time>2026-04-12T15:14:52.999Z</time></trkpt><trkpt lat="45.61096493417743" lon="13.921464309325225"><ele>517.0</ele><time>2026-04-12T15:14:55.999Z</time></trkpt><trkpt lat="45.61093271096695" lon="13.921555792316324"><ele>517.0</ele><time>2026-04-12T15:14:56.999Z</time></trkpt><trkpt lat="45.610871849259595" lon="13.921684710903547"><ele>517.0</ele><time>2026-04-12T15:14:57.999Z</time></trkpt><trkpt lat="45.61081114329315" lon="13.92180865484204"><ele>517.0</ele><time>2026-04-12T15:14:58.999Z</time></trkpt><trkpt lat="45.61074864407973" lon="13.921941932884879"><ele>517.0</ele><time>2026-04-12T15:14:59.999Z</time></trkpt><trkpt lat="45.61065829373095" lon="13.922137226806248"><ele>517.0</ele><time>2026-04-12T15:15:00.999Z</time></trkpt><trkpt lat="45.6105612247906" lon="13.922341967169306"><ele>517.0</ele><time>2026-04-12T15:15:01.999Z</time></trkpt><trkpt lat="45.610479705815955" lon="13.922503604490858"><ele>516.5</ele><time>2026-04-12T15:15:02.999Z</time></trkpt><trkpt lat="45.61039960233311" lon="13.922672758813418"><ele>516.0</ele><time>2026-04-12T15:15:03.999Z</time></trkpt><trkpt lat="45.61032831005105" lon="13.922844951027374"><ele>515.5</ele><time>2026-04-12T15:15:04.999Z</time></trkpt><trkpt lat="45.61027362873817" lon="13.923005532882248"><ele>515.0</ele><time>2026-04-12T15:15:05.999Z</time></trkpt><trkpt lat="45.61023107868619" lon="13.92315344467756"><ele>515.0</ele><time>2026-04-12T15:15:06.999Z</time></trkpt><trkpt lat="45.61019511669461" lon="13.923292749645197"><ele>515.0</ele><time>2026-04-12T15:15:07.999Z</time></trkpt><trkpt lat="45.61016367503797" lon="13.923453232063382"><ele>515.0</ele><time>2026-04-12T15:15:08.999Z</time></trkpt><trkpt lat="45.61013920477298" lon="13.923602773264026"><ele>515.0</ele><time>2026-04-12T15:15:09.998Z</time></trkpt><trkpt lat="45.61011518025816" lon="13.923731640961416"><ele>515.0</ele><time>2026-04-12T15:15:10.998Z</time></trkpt><trkpt lat="45.61009951032751" lon="13.923841976635517"><ele>515.0</ele><time>2026-04-12T15:15:11.998Z</time></trkpt><trkpt lat="45.61008280728287" lon="13.923948346183478"><ele>515.0</ele><time>2026-04-12T15:15:13.998Z</time></trkpt><trkpt lat="45.61003454729435" lon="13.924089327200159"><ele>515.0</ele><time>2026-04-12T15:18:20Z</time></trkpt><trkpt lat="45.610033284238604" lon="13.924180217469084"><ele>515.0</ele><time>2026-04-12T15:18:21Z</time></trkpt><trkpt lat="45.61004460985075" lon="13.92428178387159"><ele>515.0</ele><time>2026-04-12T15:18:23Z</time></trkpt><trkpt lat="45.61007841941514" lon="13.924426436947384"><ele>515.0</ele><time>2026-04-12T15:18:26Z</time></trkpt><trkpt lat="45.61008074488162" lon="13.924540106182533"><ele>514.8</ele><time>2026-04-12T15:18:27Z</time></trkpt><trkpt lat="45.61007491260534" lon="13.92465118836448"><ele>514.6</ele><time>2026-04-12T15:18:28Z</time></trkpt><trkpt lat="45.610071227276286" lon="13.92479096024154"><ele>514.4</ele><time>2026-04-12T15:18:29Z</time></trkpt><trkpt lat="45.61006708554995" lon="13.924943820082657"><ele>514.2</ele><time>2026-04-12T15:18:30Z</time></trkpt><trkpt lat="45.61006136140376" lon="13.92511366990327"><ele>514.0</ele><time>2026-04-12T15:18:31Z</time></trkpt><trkpt lat="45.61005482285394" lon="13.925304291568018"><ele>513.25</ele><time>2026-04-12T15:18:32Z</time></trkpt><trkpt lat="45.610048186475275" lon="13.925476031113131"><ele>512.5</ele><time>2026-04-12T15:18:33Z</time></trkpt><trkpt lat="45.61004389713286" lon="13.925641779998115"><ele>511.75</ele><time>2026-04-12T15:18:34Z</time></trkpt><trkpt lat="45.61003709324346" lon="13.925803503666168"><ele>511.0</ele><time>2026-04-12T15:18:35Z</time></trkpt><trkpt lat="45.61001752907843" lon="13.925960295719186"><ele>510.75</ele><time>2026-04-12T15:18:36Z</time></trkpt><trkpt lat="45.609982110874185" lon="13.926108576246289"><ele>510.5</ele><time>2026-04-12T15:18:37Z</time></trkpt><trkpt lat="45.60994466783754" lon="13.926275001670088"><ele>510.25</ele><time>2026-04-12T15:18:38Z</time></trkpt><trkpt lat="45.609892468913124" lon="13.926459933074229"><ele>510.0</ele><time>2026-04-12T15:18:39Z</time></trkpt><trkpt lat="45.609834770666815" lon="13.926647217126474"><ele>509.5</ele><time>2026-04-12T15:18:40Z</time></trkpt><trkpt lat="45.60978038945396" lon="13.926821376593226"><ele>509.0</ele><time>2026-04-12T15:18:41Z</time></trkpt><trkpt lat="45.609729508856866" lon="13.926997686013346"><ele>508.5</ele><time>2026-04-12T15:18:42Z</time></trkpt><trkpt lat="45.60967807144858" lon="13.92717268849222"><ele>508.0</ele><time>2026-04-12T15:18:43Z</time></trkpt><trkpt lat="45.609627018144444" lon="13.92734593608407"><ele>508.0</ele><time>2026-04-12T15:18:44Z</time></trkpt><trkpt lat="45.609580521114395" lon="13.927514894649976"><ele>508.0</ele><time>2026-04-12T15:18:45Z</time></trkpt><trkpt lat="45.609535219714516" lon="13.92768161536565"><ele>508.0</ele><time>2026-04-12T15:18:46Z</time></trkpt><trkpt lat="45.6094908232967" lon="13.927847782415519"><ele>508.0</ele><time>2026-04-12T15:18:47Z</time></trkpt><trkpt lat="45.609454097165425" lon="13.928017487142368"><ele>505.75</ele><time>2026-04-12T15:18:48Z</time></trkpt><trkpt lat="45.609419016211156" lon="13.928183805051267"><ele>503.5</ele><time>2026-04-12T15:18:49Z</time></trkpt><trkpt lat="45.609386206799435" lon="13.928348678654716"><ele>501.25</ele><time>2026-04-12T15:18:49.999Z</time></trkpt><trkpt lat="45.609351472098" lon="13.928514925836867"><ele>499.0</ele><time>2026-04-12T15:18:50.999Z</time></trkpt><trkpt lat="45.60931834478169" lon="13.928680328890556"><ele>498.75</ele><time>2026-04-12T15:18:51.999Z</time></trkpt><trkpt lat="45.60928353678505" lon="13.92884487229197"><ele>498.5</ele><time>2026-04-12T15:18:52.999Z</time></trkpt><trkpt lat="45.60924727017462" lon="13.929011938099157"><ele>498.25</ele><time>2026-04-12T15:18:53.999Z</time></trkpt><trkpt lat="45.6092108483648" lon="13.929181359760793"><ele>498.0</ele><time>2026-04-12T15:18:54.999Z</time></trkpt><trkpt lat="45.609175482952146" lon="13.929349017932973"><ele>497.75</ele><time>2026-04-12T15:18:55.999Z</time></trkpt><trkpt lat="45.609143471724074" lon="13.929516106038703"><ele>497.5</ele><time>2026-04-12T15:18:56.999Z</time></trkpt><trkpt lat="45.60911088512425" lon="13.929679096013658"><ele>497.25</ele><time>2026-04-12T15:18:57.999Z</time></trkpt><trkpt lat="45.6090795017147" lon="13.929830467910842"><ele>497.0</ele><time>2026-04-12T15:18:58.999Z</time></trkpt><trkpt lat="45.60904578325078" lon="13.929994000330227"><ele>496.0</ele><time>2026-04-12T15:18:59.999Z</time></trkpt><trkpt lat="45.609009806512006" lon="13.93015505955178"><ele>495.0</ele><time>2026-04-12T15:19:00.999Z</time></trkpt><trkpt lat="45.60896881269937" lon="13.930351559273106"><ele>494.0</ele><time>2026-04-12T15:19:01.999Z</time></trkpt><trkpt lat="45.6089360838568" lon="13.930523765761126"><ele>493.0</ele><time>2026-04-12T15:19:02.999Z</time></trkpt><trkpt lat="45.608911317817835" lon="13.930708161672653"><ele>493.0</ele><time>2026-04-12T15:19:03.999Z</time></trkpt><trkpt lat="45.60888109272173" lon="13.930883868967515"><ele>493.0</ele><time>2026-04-12T15:19:04.999Z</time></trkpt><trkpt lat="45.60886408410184" lon="13.931054479011692"><ele>493.0</ele><time>2026-04-12T15:19:05.999Z</time></trkpt><trkpt lat="45.608867291647265" lon="13.9312213745493"><ele>493.0</ele><time>2026-04-12T15:19:06.999Z</time></trkpt><trkpt lat="45.60886092198614" lon="13.931381785464348"><ele>492.50000000000006</ele><time>2026-04-12T15:19:07.999Z</time></trkpt><trkpt lat="45.60885354660647" lon="13.931534509810655"><ele>492.0</ele><time>2026-04-12T15:19:08.999Z</time></trkpt><trkpt lat="45.60885269008615" lon="13.931672434866085"><ele>491.5</ele><time>2026-04-12T15:19:09.999Z</time></trkpt><trkpt lat="45.60885576247737" lon="13.931796224704234"><ele>491.0</ele><time>2026-04-12T15:19:10.999Z</time></trkpt><trkpt lat="45.608838682725" lon="13.931914086913766"><ele>490.50000000000006</ele><time>2026-04-12T15:19:11.999Z</time></trkpt><trkpt lat="45.60880845220793" lon="13.932008773430551"><ele>490.0</ele><time>2026-04-12T15:19:12.999Z</time></trkpt><trkpt lat="45.60876121987749" lon="13.932082990489647"><ele>489.6666666666667</ele><time>2026-04-12T15:19:13.999Z</time></trkpt><trkpt lat="45.608708218121635" lon="13.93214420864989"><ele>489.33333333333337</ele><time>2026-04-12T15:19:14.999Z</time></trkpt><trkpt lat="45.60865300867645" lon="13.932191894211506"><ele>489.0</ele><time>2026-04-12T15:19:15.999Z</time></trkpt><trkpt lat="45.608565359958895" lon="13.932291109185996"><ele>488.66666666666663</ele><time>2026-04-12T15:19:17.999Z</time></trkpt><trkpt lat="45.608499841973575" lon="13.932341091437973"><ele>488.3333333333333</ele><time>2026-04-12T15:19:19.999Z</time></trkpt><trkpt lat="45.60841110519137" lon="13.932294447056922"><ele>488.0</ele><time>2026-04-12T15:19:21.999Z</time></trkpt><trkpt lat="45.60836809182988" lon="13.932148096598066"><ele>488.0</ele><time>2026-04-12T15:19:23.998Z</time></trkpt><trkpt lat="45.608458439796095" lon="13.93202512296113"><ele>487.99999999999994</ele><time>2026-04-12T15:19:25.998Z</time></trkpt><trkpt lat="45.60853116730964" lon="13.932002650983872"><ele>487.99999999999994</ele><time>2026-04-12T15:19:26.998Z</time></trkpt><trkpt lat="45.608598871670345" lon="13.931874369491563"><ele>488.0</ele><time>2026-04-12T15:19:28.998Z</time></trkpt><trkpt lat="45.60865466556388" lon="13.931742878121065"><ele>488.0</ele><time>2026-04-12T15:19:30.998Z</time></trkpt><trkpt lat="45.6086693897761" lon="13.931582755236066"><ele>487.8333333333333</ele><time>2026-04-12T15:19:32.998Z</time></trkpt><trkpt lat="45.608655305999356" lon="13.931429344089553"><ele>487.66666666666663</ele><time>2026-04-12T15:19:34.998Z</time></trkpt><trkpt lat="45.608639812901124" lon="13.931264860921178"><ele>487.5</ele><time>2026-04-12T15:19:36.998Z</time></trkpt><trkpt lat="45.6085942200669" lon="13.931199725858422"><ele>487.33333333333337</ele><time>2026-04-12T15:19:37.998Z</time></trkpt><trkpt lat="45.608562626178234" lon="13.931121262618"><ele>487.1666666666667</ele><time>2026-04-12T15:19:38.998Z</time></trkpt><trkpt lat="45.60851002473351" lon="13.93106316747231"><ele>487.0</ele><time>2026-04-12T15:19:39.998Z</time></trkpt><trkpt lat="45.60844953479044" lon="13.931015636792678"><ele>487.0</ele><time>2026-04-12T15:19:40.998Z</time></trkpt><trkpt lat="45.608383400093366" lon="13.930980681532807"><ele>487.0</ele><time>2026-04-12T15:19:41.998Z</time></trkpt><trkpt lat="45.60831334388276" lon="13.930962458720183"><ele>487.0</ele><time>2026-04-12T15:19:42.998Z</time></trkpt><trkpt lat="45.60824467633585" lon="13.93096235803108"><ele>487.0</ele><time>2026-04-12T15:19:43.998Z</time></trkpt><trkpt lat="45.608175705401464" lon="13.930972071507945"><ele>487.0</ele><time>2026-04-12T15:19:44.998Z</time></trkpt><trkpt lat="45.60810948238361" lon="13.930993998248407"><ele>487.0</ele><time>2026-04-12T15:19:45.998Z</time></trkpt><trkpt lat="45.60805788739785" lon="13.931059929399817"><ele>487.0</ele><time>2026-04-12T15:19:46.998Z</time></trkpt><trkpt lat="45.60795257593175" lon="13.931137875671379"><ele>487.0</ele><time>2026-04-12T15:19:48.998Z</time></trkpt><trkpt lat="45.60789923866398" lon="13.93121466847218"><ele>487.00000000000006</ele><time>2026-04-12T15:19:50.998Z</time></trkpt><trkpt lat="45.60802332540991" lon="13.931397984743718"><ele>487.00000000000006</ele><time>2026-04-12T15:19:52.998Z</time></trkpt><trkpt lat="45.60808082858876" lon="13.9314413114465"><ele>487.0</ele><time>2026-04-12T15:19:53.998Z</time></trkpt><trkpt lat="45.60814246578551" lon="13.931478564273128"><ele>487.0</ele><time>2026-04-12T15:19:54.998Z</time></trkpt><trkpt lat="45.60815932123593" lon="13.931604839934414"><ele>487.00000000000006</ele><time>2026-04-12T15:19:55.997Z</time></trkpt><trkpt lat="45.608176292638525" lon="13.931694531642316"><ele>487.0</ele><time>2026-04-12T15:19:56.997Z</time></trkpt><trkpt lat="45.60822475819375" lon="13.93175500257736"><ele>487.0</ele><time>2026-04-12T15:19:57.997Z</time></trkpt><trkpt lat="45.608330380476524" lon="13.93177865937707"><ele>487.0</ele><time>2026-04-12T15:19:59.997Z</time></trkpt><trkpt lat="45.60835595325875" lon="13.931894045632617"><ele>487.00000000000006</ele><time>2026-04-12T15:20:00.997Z</time></trkpt><trkpt lat="45.60835865743197" lon="13.932017848396836"><ele>487.0</ele><time>2026-04-12T15:20:01.997Z</time></trkpt><trkpt lat="45.60834161674977" lon="13.932121859954488"><ele>488.0</ele><time>2026-04-12T15:20:02.997Z</time></trkpt><trkpt lat="45.60839310862117" lon="13.932258753009368"><ele>488.0</ele><time>2026-04-12T15:20:04.997Z</time></trkpt><trkpt lat="45.608450269679985" lon="13.932318249325249"><ele>488.0</ele><time>2026-04-12T15:20:06.997Z</time></trkpt></trkseg></trk></gpx>